PWSweather.com
Personal Weather Stations
Station Observations
SKYDIVEKS
Skydive Kansas, Osage City, KS 66523

Skydive KansasOsage City, KS 66523

Lat: 38.636, Lon: -95.803

Elevation: 1080

Station Type: La Crosse

http://www.skydivekansas.com

Latest ConditionsUpdated 3:39:00 PM CST Sunday, Feb 7, 2016
Currently Today's Max Today's Min Today's Average
Temperature 56.1°F13.4°C 58.3°F14.6°C 38.1°F3.4°C 45.6°F7.6°C
Dew Point 30.7°F-0.7°C 34.5°F1.4°C 24.2°F-4.3°C 28.5°F-1.9°C
Winds 14.5 mph N23.3 kmh N 26.8 mph NE43.1 kmh NE - 9.4 mph 15.1 kmh
Wind Gusts 24.8 mph39.9 kmh 34.0 mph54.7 kmh - -
Humidity 38% 59% 38% 52%
Pressure 29.00 in982.1 mb 29.07 in984.4 mb 28.97 in981.0 mb -
Hour Temp Dew Point Humidity Winds Wind Gusts Pressure Precip Precip Rate Daily Precip Total
03:39 PM 56.1°F13.4°C 30.7°F-0.7°C 38% 14.5 mph N23.3 kmh N 24.8 mph39.9 kmh 29.00 in982.1 mb 0.00 in0.0 mm 0.00 in0.0 mm 0.00 in0.0 mm
03:38 PM 56.3°F13.5°C 30.9°F-0.6°C 38% 15.0 mph N24.1 kmh N 24.8 mph39.9 kmh 29.00 in982.1 mb 0.00 in0.0 mm 0.00 in0.0 mm 0.00 in0.0 mm
03:37 PM 56.3°F13.5°C 30.9°F-0.6°C 38% 13.2 mph N21.2 kmh N 24.6 mph39.6 kmh 29.00 in982.1 mb 0.00 in0.0 mm 0.00 in0.0 mm 0.00 in0.0 mm
03:36 PM 56.3°F13.5°C 30.9°F-0.6°C 38% 15.2 mph N24.5 kmh N 24.6 mph39.6 kmh 29.00 in982.1 mb 0.00 in0.0 mm 0.00 in0.0 mm 0.00 in0.0 mm
03:35 PM 56.3°F13.5°C 30.9°F-0.6°C 38% 15.7 mph NNW25.3 kmh NNW 24.6 mph39.6 kmh 29.00 in982.1 mb 0.00 in0.0 mm 0.00 in0.0 mm 0.00 in0.0 mm
03:34 PM 56.3°F13.5°C 30.9°F-0.6°C 38% 22.8 mph NNW36.7 kmh NNW 24.6 mph39.6 kmh 29.00 in982.1 mb 0.00 in0.0 mm 0.00 in0.0 mm 0.00 in0.0 mm
03:33 PM 56.3°F13.5°C 30.9°F-0.6°C 38% 22.1 mph NW35.6 kmh NW 24.6 mph39.6 kmh 29.00 in982.1 mb 0.00 in0.0 mm 0.00 in0.0 mm 0.00 in0.0 mm
03:32 PM 56.3°F13.5°C 30.9°F-0.6°C 38% 19.2 mph NW30.9 kmh NW 24.8 mph39.9 kmh 29.00 in982.1 mb 0.00 in0.0 mm 0.00 in0.0 mm 0.00 in0.0 mm
03:31 PM 56.3°F13.5°C 30.9°F-0.6°C 38% 23.9 mph NW38.5 kmh NW 24.8 mph39.9 kmh 29.00 in982.1 mb 0.00 in0.0 mm 0.00 in0.0 mm 0.00 in0.0 mm
03:30 PM 56.3°F13.5°C 30.9°F-0.6°C 38% 20.4 mph NW32.8 kmh NW 24.8 mph39.9 kmh 29.00 in982.1 mb 0.00 in0.0 mm 0.00 in0.0 mm 0.00 in0.0 mm
03:29 PM 56.3°F13.5°C 30.9°F-0.6°C 38% 12.1 mph NW19.5 kmh NW 24.8 mph39.9 kmh 29.00 in982.1 mb 0.00 in0.0 mm 0.00 in0.0 mm 0.00 in0.0 mm
03:28 PM 56.3°F13.5°C 30.9°F-0.6°C 38% 18.3 mph NW29.5 kmh NW 25.1 mph40.4 kmh 29.00 in982.1 mb 0.00 in0.0 mm 0.00 in0.0 mm 0.00 in0.0 mm
03:27 PM 56.3°F13.5°C 30.9°F-0.6°C 38% 14.3 mph NW23.0 kmh NW 25.1 mph40.4 kmh 29.00 in982.1 mb 0.00 in0.0 mm 0.00 in0.0 mm 0.00 in0.0 mm
03:26 PM 56.3°F13.5°C 30.9°F-0.6°C 38% 9.2 mph NW14.8 kmh NW 25.1 mph40.4 kmh 29.00 in982.1 mb 0.00 in0.0 mm 0.00 in0.0 mm 0.00 in0.0 mm
03:25 PM 56.3°F13.5°C 30.9°F-0.6°C 38% 18.3 mph NW29.5 kmh NW 25.1 mph40.4 kmh 29.00 in982.1 mb 0.00 in0.0 mm 0.00 in0.0 mm 0.00 in0.0 mm
03:24 PM 56.3°F13.5°C 30.9°F-0.6°C 38% 12.8 mph NW20.6 kmh NW 25.1 mph40.4 kmh 29.00 in982.1 mb 0.00 in0.0 mm 0.00 in0.0 mm 0.00 in0.0 mm
03:23 PM 56.3°F13.5°C 30.9°F-0.6°C 38% 12.5 mph NW20.1 kmh NW 25.1 mph40.4 kmh 29.00 in982.1 mb 0.00 in0.0 mm 0.00 in0.0 mm 0.00 in0.0 mm
03:22 PM 56.3°F13.5°C 30.9°F-0.6°C 38% 15.2 mph NW24.5 kmh NW 25.1 mph40.4 kmh 29.00 in982.1 mb 0.00 in0.0 mm 0.00 in0.0 mm 0.00 in0.0 mm
03:21 PM 56.3°F13.5°C 30.9°F-0.6°C 38% 16.8 mph NW27.0 kmh NW 25.1 mph40.4 kmh 29.00 in982.1 mb 0.00 in0.0 mm 0.00 in0.0 mm 0.00 in0.0 mm
03:20 PM 56.3°F13.5°C 30.9°F-0.6°C 38% 11.6 mph NW18.7 kmh NW 25.1 mph40.4 kmh 29.00 in982.1 mb 0.00 in0.0 mm 0.00 in0.0 mm 0.00 in0.0 mm
03:19 PM 56.3°F13.5°C 30.9°F-0.6°C 38% 8.5 mph NW13.7 kmh NW 25.1 mph40.4 kmh 29.00 in982.1 mb 0.00 in0.0 mm 0.00 in0.0 mm 0.00 in0.0 mm
03:18 PM 56.3°F13.5°C 30.9°F-0.6°C 38% 21.7 mph NW34.9 kmh NW 23.5 mph37.8 kmh 29.00 in982.1 mb 0.00 in0.0 mm 0.00 in0.0 mm 0.00 in0.0 mm
03:17 PM 56.5°F13.6°C 31.0°F-0.6°C 38% 12.8 mph NW20.6 kmh NW 22.6 mph36.4 kmh 29.00 in982.1 mb 0.00 in0.0 mm 0.00 in0.0 mm 0.00 in0.0 mm
03:16 PM 56.5°F13.6°C 31.0°F-0.6°C 38% 15.2 mph NW24.5 kmh NW 22.6 mph36.4 kmh 29.00 in982.1 mb 0.00 in0.0 mm 0.00 in0.0 mm 0.00 in0.0 mm
03:15 PM 56.5°F13.6°C 31.0°F-0.6°C 38% 19.0 mph NW30.6 kmh NW 22.6 mph36.4 kmh 29.00 in982.1 mb 0.00 in0.0 mm 0.00 in0.0 mm 0.00 in0.0 mm
03:14 PM 56.5°F13.6°C 31.0°F-0.6°C 38% 19.9 mph NW32.0 kmh NW 22.6 mph36.4 kmh 29.00 in982.1 mb 0.00 in0.0 mm 0.00 in0.0 mm 0.00 in0.0 mm
03:13 PM 56.5°F13.6°C 31.0°F-0.6°C 38% 18.1 mph NNW29.1 kmh NNW 25.3 mph40.7 kmh 29.00 in982.1 mb 0.00 in0.0 mm 0.00 in0.0 mm 0.00 in0.0 mm
03:12 PM 56.5°F13.6°C 31.0°F-0.6°C 38% 9.2 mph N14.8 kmh N 25.3 mph40.7 kmh 29.00 in982.1 mb 0.00 in0.0 mm 0.00 in0.0 mm 0.00 in0.0 mm
03:11 PM 56.7°F13.7°C 31.2°F-0.4°C 38% 22.6 mph N36.4 kmh N 25.3 mph40.7 kmh 29.00 in982.1 mb 0.00 in0.0 mm 0.00 in0.0 mm 0.00 in0.0 mm
03:10 PM 56.8°F13.8°C 31.4°F-0.3°C 38% 13.4 mph N21.6 kmh N 25.3 mph40.7 kmh 29.00 in982.1 mb 0.00 in0.0 mm 0.00 in0.0 mm 0.00 in0.0 mm
03:09 PM 56.8°F13.8°C 31.4°F-0.3°C 38% 10.3 mph NE16.6 kmh NE 25.3 mph40.7 kmh 29.00 in982.1 mb 0.00 in0.0 mm 0.00 in0.0 mm 0.00 in0.0 mm
03:08 PM 56.8°F13.8°C 31.4°F-0.3°C 38% 15.9 mph NE25.6 kmh NE 25.3 mph40.7 kmh 29.00 in982.1 mb 0.00 in0.0 mm 0.00 in0.0 mm 0.00 in0.0 mm
03:07 PM 56.8°F13.8°C 31.4°F-0.3°C 38% 6.9 mph NE11.1 kmh NE 25.3 mph40.7 kmh 29.00 in982.1 mb 0.00 in0.0 mm 0.00 in0.0 mm 0.00 in0.0 mm
03:06 PM 57.0°F13.9°C 31.5°F-0.3°C 38% 10.5 mph NE16.9 kmh NE 25.3 mph40.7 kmh 29.00 in982.1 mb 0.00 in0.0 mm 0.00 in0.0 mm 0.00 in0.0 mm
03:05 PM 57.0°F13.9°C 31.5°F-0.3°C 38% 15.4 mph ENE24.8 kmh ENE 25.3 mph40.7 kmh 29.00 in982.1 mb 0.00 in0.0 mm 0.00 in0.0 mm 0.00 in0.0 mm
03:04 PM 57.0°F13.9°C 31.5°F-0.3°C 38% 18.3 mph NE29.5 kmh NE 25.3 mph40.7 kmh 29.00 in982.1 mb 0.00 in0.0 mm 0.00 in0.0 mm 0.00 in0.0 mm
03:03 PM 57.0°F13.9°C 31.5°F-0.3°C 38% 21.9 mph NE35.2 kmh NE 24.6 mph39.6 kmh 29.00 in982.1 mb 0.00 in0.0 mm 0.00 in0.0 mm 0.00 in0.0 mm
03:02 PM 57.0°F13.9°C 31.5°F-0.3°C 38% 23.9 mph NE38.5 kmh NE 26.8 mph43.1 kmh 29.00 in982.1 mb 0.00 in0.0 mm 0.00 in0.0 mm 0.00 in0.0 mm
03:01 PM 57.0°F13.9°C 31.5°F-0.3°C 38% 23.5 mph NNE37.8 kmh NNE 26.8 mph43.1 kmh 29.00 in982.1 mb 0.00 in0.0 mm 0.00 in0.0 mm 0.00 in0.0 mm
03:00 PM 57.0°F13.9°C 31.5°F-0.3°C 38% 13.6 mph N21.9 kmh N 26.8 mph43.1 kmh 29.00 in982.1 mb 0.00 in0.0 mm 0.00 in0.0 mm 0.00 in0.0 mm
02:59 PM 57.0°F13.9°C 31.5°F-0.3°C 38% 15.2 mph N24.5 kmh N 26.8 mph43.1 kmh 29.00 in982.1 mb 0.00 in0.0 mm 0.00 in0.0 mm 0.00 in0.0 mm
02:58 PM 57.0°F13.9°C 31.5°F-0.3°C 38% 15.0 mph NNW24.1 kmh NNW 26.8 mph43.1 kmh 29.00 in982.1 mb 0.00 in0.0 mm 0.00 in0.0 mm 0.00 in0.0 mm
02:57 PM 57.0°F13.9°C 31.5°F-0.3°C 38% 17.2 mph NNW27.7 kmh NNW 26.8 mph43.1 kmh 29.00 in982.1 mb 0.00 in0.0 mm 0.00 in0.0 mm 0.00 in0.0 mm
02:56 PM 57.0°F13.9°C 31.5°F-0.3°C 38% 12.8 mph NW20.6 kmh NW 26.8 mph43.1 kmh 29.00 in982.1 mb 0.00 in0.0 mm 0.00 in0.0 mm 0.00 in0.0 mm
02:55 PM 57.0°F13.9°C 31.5°F-0.3°C 38% 12.8 mph NW20.6 kmh NW 26.8 mph43.1 kmh 29.00 in982.1 mb 0.00 in0.0 mm 0.00 in0.0 mm 0.00 in0.0 mm
02:54 PM 57.0°F13.9°C 31.5°F-0.3°C 38% 10.3 mph NW16.6 kmh NW 26.8 mph43.1 kmh 29.00 in982.1 mb 0.00 in0.0 mm 0.00 in0.0 mm 0.00 in0.0 mm
02:53 PM 57.0°F13.9°C 31.5°F-0.3°C 38% 20.1 mph NW32.3 kmh NW 26.8 mph43.1 kmh 29.00 in982.1 mb 0.00 in0.0 mm 0.00 in0.0 mm 0.00 in0.0 mm
02:52 PM 57.0°F13.9°C 31.5°F-0.3°C 38% 19.9 mph NW32.0 kmh NW 25.3 mph40.7 kmh 29.00 in982.1 mb 0.00 in0.0 mm 0.00 in0.0 mm 0.00 in0.0 mm
02:51 PM 57.2°F14.0°C 31.7°F-0.2°C 38% 21.9 mph NW35.2 kmh NW 27.5 mph44.3 kmh 29.00 in982.1 mb 0.00 in0.0 mm 0.00 in0.0 mm 0.00 in0.0 mm
02:50 PM 57.2°F14.0°C 31.7°F-0.2°C 38% 16.1 mph NNW25.9 kmh NNW 27.5 mph44.3 kmh 29.00 in982.1 mb 0.00 in0.0 mm 0.00 in0.0 mm 0.00 in0.0 mm
02:49 PM 57.2°F14.0°C 31.7°F-0.2°C 38% 16.6 mph N26.7 kmh N 27.5 mph44.3 kmh 29.00 in982.1 mb 0.00 in0.0 mm 0.00 in0.0 mm 0.00 in0.0 mm
02:48 PM 57.2°F14.0°C 31.7°F-0.2°C 38% 13.4 mph NNE21.6 kmh NNE 27.5 mph44.3 kmh 29.00 in982.1 mb 0.00 in0.0 mm 0.00 in0.0 mm 0.00 in0.0 mm
02:47 PM 57.2°F14.0°C 31.7°F-0.2°C 38% 23.3 mph NE37.5 kmh NE 27.5 mph44.3 kmh 28.99 in981.7 mb 0.00 in0.0 mm 0.00 in0.0 mm 0.00 in0.0 mm
02:46 PM 57.4°F14.1°C 31.8°F-0.1°C 38% 22.1 mph NE35.6 kmh NE 27.5 mph44.3 kmh 29.00 in982.1 mb 0.00 in0.0 mm 0.00 in0.0 mm 0.00 in0.0 mm
02:45 PM 57.4°F14.1°C 31.8°F-0.1°C 38% 7.6 mph ENE12.2 kmh ENE 27.5 mph44.3 kmh 28.99 in981.7 mb 0.00 in0.0 mm 0.00 in0.0 mm 0.00 in0.0 mm
02:44 PM 57.4°F14.1°C 31.8°F-0.1°C 38% 20.4 mph ENE32.8 kmh ENE 27.5 mph44.3 kmh 28.99 in981.7 mb 0.00 in0.0 mm 0.00 in0.0 mm 0.00 in0.0 mm
02:43 PM 57.4°F14.1°C 31.8°F-0.1°C 38% 11.2 mph ENE18.0 kmh ENE 27.5 mph44.3 kmh 29.00 in982.1 mb 0.00 in0.0 mm 0.00 in0.0 mm 0.00 in0.0 mm
02:42 PM 57.4°F14.1°C 31.8°F-0.1°C 38% 20.6 mph ENE33.2 kmh ENE 27.5 mph44.3 kmh 29.00 in982.1 mb 0.00 in0.0 mm 0.00 in0.0 mm 0.00 in0.0 mm
02:41 PM 57.4°F14.1°C 31.8°F-0.1°C 38% 18.3 mph ENE29.5 kmh ENE 27.1 mph43.6 kmh 29.00 in982.1 mb 0.00 in0.0 mm 0.00 in0.0 mm 0.00 in0.0 mm
02:40 PM 57.4°F14.1°C 31.8°F-0.1°C 38% 14.5 mph NE23.3 kmh NE 27.1 mph43.6 kmh 29.00 in982.1 mb 0.00 in0.0 mm 0.00 in0.0 mm 0.00 in0.0 mm
02:39 PM 57.4°F14.1°C 31.8°F-0.1°C 38% 26.8 mph NE43.1 kmh NE 27.1 mph43.6 kmh 29.00 in982.1 mb 0.00 in0.0 mm 0.00 in0.0 mm 0.00 in0.0 mm
02:38 PM 57.6°F14.2°C 32.0°F0.0°C 38% 16.6 mph N26.7 kmh N 25.5 mph41.0 kmh 29.00 in982.1 mb 0.00 in0.0 mm 0.00 in0.0 mm 0.00 in0.0 mm
02:37 PM 57.4°F14.1°C 31.8°F-0.1°C 38% 10.5 mph NNW16.9 kmh NNW 31.5 mph50.7 kmh 29.00 in982.1 mb 0.00 in0.0 mm 0.00 in0.0 mm 0.00 in0.0 mm
02:36 PM 57.4°F14.1°C 31.8°F-0.1°C 38% 13.4 mph NNW21.6 kmh NNW 31.5 mph50.7 kmh 29.01 in982.4 mb 0.00 in0.0 mm 0.00 in0.0 mm 0.00 in0.0 mm
02:35 PM 57.6°F14.2°C 32.0°F0.0°C 38% 12.8 mph NW20.6 kmh NW 31.5 mph50.7 kmh 29.01 in982.4 mb 0.00 in0.0 mm 0.00 in0.0 mm 0.00 in0.0 mm
02:34 PM 57.4°F14.1°C 31.8°F-0.1°C 38% 13.4 mph NW21.6 kmh NW 31.5 mph50.7 kmh 29.01 in982.4 mb 0.00 in0.0 mm 0.00 in0.0 mm 0.00 in0.0 mm
02:33 PM 57.4°F14.1°C 31.8°F-0.1°C 38% 25.5 mph NW41.0 kmh NW 34.0 mph54.7 kmh 29.00 in982.1 mb 0.00 in0.0 mm 0.00 in0.0 mm 0.00 in0.0 mm
02:32 PM 57.4°F14.1°C 31.8°F-0.1°C 38% 14.5 mph NW23.3 kmh NW 34.0 mph54.7 kmh 29.01 in982.4 mb 0.00 in0.0 mm 0.00 in0.0 mm 0.00 in0.0 mm
02:31 PM 57.6°F14.2°C 32.0°F0.0°C 38% 14.3 mph NW23.0 kmh NW 34.0 mph54.7 kmh 29.01 in982.4 mb 0.00 in0.0 mm 0.00 in0.0 mm 0.00 in0.0 mm
02:30 PM 57.6°F14.2°C 32.0°F0.0°C 38% 18.3 mph NW29.5 kmh NW 34.0 mph54.7 kmh 29.00 in982.1 mb 0.00 in0.0 mm 0.00 in0.0 mm 0.00 in0.0 mm
02:29 PM 57.6°F14.2°C 32.0°F0.0°C 38% 18.8 mph NW30.3 kmh NW 34.0 mph54.7 kmh 29.01 in982.4 mb 0.00 in0.0 mm 0.00 in0.0 mm 0.00 in0.0 mm
02:28 PM 57.6°F14.2°C 32.0°F0.0°C 38% 16.8 mph NW27.0 kmh NW 34.0 mph54.7 kmh 29.01 in982.4 mb 0.00 in0.0 mm 0.00 in0.0 mm 0.00 in0.0 mm
02:27 PM 57.6°F14.2°C 32.0°F0.0°C 38% 21.0 mph NW33.8 kmh NW 34.0 mph54.7 kmh 29.01 in982.4 mb 0.00 in0.0 mm 0.00 in0.0 mm 0.00 in0.0 mm
02:26 PM 57.6°F14.2°C 32.0°F0.0°C 38% 12.8 mph NW20.6 kmh NW 34.0 mph54.7 kmh 29.00 in982.1 mb 0.00 in0.0 mm 0.00 in0.0 mm 0.00 in0.0 mm
02:25 PM 57.6°F14.2°C 32.0°F0.0°C 38% 22.4 mph NW36.0 kmh NW 34.0 mph54.7 kmh 29.00 in982.1 mb 0.00 in0.0 mm 0.00 in0.0 mm 0.00 in0.0 mm
02:24 PM 57.6°F14.2°C 32.0°F0.0°C 38% 16.1 mph NW25.9 kmh NW 34.0 mph54.7 kmh 29.00 in982.1 mb 0.00 in0.0 mm 0.00 in0.0 mm 0.00 in0.0 mm
02:23 PM 57.6°F14.2°C 32.7°F0.4°C 39% 10.3 mph NW16.6 kmh NW 28.9 mph46.5 kmh 29.00 in982.1 mb 0.00 in0.0 mm 0.00 in0.0 mm 0.00 in0.0 mm
02:22 PM 57.6°F14.2°C 32.7°F0.4°C 39% 12.1 mph NW19.5 kmh NW 28.9 mph46.5 kmh 29.00 in982.1 mb 0.00 in0.0 mm 0.00 in0.0 mm 0.00 in0.0 mm
02:21 PM 57.6°F14.2°C 32.7°F0.4°C 39% 17.9 mph NW28.8 kmh NW 28.9 mph46.5 kmh 29.00 in982.1 mb 0.00 in0.0 mm 0.00 in0.0 mm 0.00 in0.0 mm
02:20 PM 57.4°F14.1°C 32.5°F0.3°C 39% 14.3 mph NW23.0 kmh NW 25.9 mph41.7 kmh 29.00 in982.1 mb 0.00 in0.0 mm 0.00 in0.0 mm 0.00 in0.0 mm
02:19 PM 57.4°F14.1°C 32.5°F0.3°C 39% 14.8 mph NW23.8 kmh NW 25.9 mph41.7 kmh 29.00 in982.1 mb 0.00 in0.0 mm 0.00 in0.0 mm 0.00 in0.0 mm
02:18 PM 57.6°F14.2°C 32.7°F0.4°C 39% 17.7 mph NW28.5 kmh NW 25.9 mph41.7 kmh 29.01 in982.4 mb 0.00 in0.0 mm 0.00 in0.0 mm 0.00 in0.0 mm
02:17 PM 57.4°F14.1°C 32.5°F0.3°C 39% 11.6 mph NW18.7 kmh NW 25.9 mph41.7 kmh 29.00 in982.1 mb 0.00 in0.0 mm 0.00 in0.0 mm 0.00 in0.0 mm
02:16 PM 57.4°F14.1°C 32.5°F0.3°C 39% 21.7 mph NW34.9 kmh NW 25.9 mph41.7 kmh 29.01 in982.4 mb 0.00 in0.0 mm 0.00 in0.0 mm 0.00 in0.0 mm
02:15 PM 57.6°F14.2°C 32.5°F0.3°C 39% 12.3 mph NW19.8 kmh NW 25.3 mph40.7 kmh 29.01 in982.4 mb 0.00 in0.0 mm 0.00 in0.0 mm 0.00 in0.0 mm
02:14 PM 57.4°F14.1°C 32.5°F0.3°C 39% 10.1 mph NW16.3 kmh NW 25.9 mph41.7 kmh 29.01 in982.4 mb 0.00 in0.0 mm 0.00 in0.0 mm 0.00 in0.0 mm
02:13 PM 57.4°F14.1°C 32.5°F0.3°C 39% 10.1 mph NNW16.3 kmh NNW 27.7 mph44.6 kmh 29.01 in982.4 mb 0.00 in0.0 mm 0.00 in0.0 mm 0.00 in0.0 mm
02:12 PM 57.6°F14.2°C 32.0°F0.0°C 38% 15.2 mph NNW24.5 kmh NNW 27.7 mph44.6 kmh 29.01 in982.4 mb 0.00 in0.0 mm 0.00 in0.0 mm 0.00 in0.0 mm
02:11 PM 57.6°F14.2°C 32.0°F0.0°C 38% 21.7 mph N34.9 kmh N 27.7 mph44.6 kmh 29.01 in982.4 mb 0.00 in0.0 mm 0.00 in0.0 mm 0.00 in0.0 mm
02:10 PM 57.6°F14.2°C 32.7°F0.4°C 39% 18.3 mph NNE29.5 kmh NNE 27.7 mph44.6 kmh 29.01 in982.4 mb 0.00 in0.0 mm 0.00 in0.0 mm 0.00 in0.0 mm
02:09 PM 57.6°F14.2°C 32.7°F0.4°C 39% 18.3 mph NE29.5 kmh NE 27.7 mph44.6 kmh 29.01 in982.4 mb 0.00 in0.0 mm 0.00 in0.0 mm 0.00 in0.0 mm
02:08 PM 57.7°F14.3°C 32.9°F0.5°C 39% 12.3 mph NE19.8 kmh NE 27.7 mph44.6 kmh 29.01 in982.4 mb 0.00 in0.0 mm 0.00 in0.0 mm 0.00 in0.0 mm
02:07 PM 57.7°F14.3°C 32.2°F0.1°C 38% 11.9 mph NE19.2 kmh NE 27.7 mph44.6 kmh 29.01 in982.4 mb 0.00 in0.0 mm 0.00 in0.0 mm 0.00 in0.0 mm
02:06 PM 57.7°F14.3°C 32.9°F0.5°C 39% 19.5 mph NE31.4 kmh NE 27.7 mph44.6 kmh 29.01 in982.4 mb 0.00 in0.0 mm 0.00 in0.0 mm 0.00 in0.0 mm
02:05 PM 57.7°F14.3°C 32.9°F0.5°C 39% 19.5 mph NE31.4 kmh NE 27.7 mph44.6 kmh 29.01 in982.4 mb 0.00 in0.0 mm 0.00 in0.0 mm 0.00 in0.0 mm
02:04 PM 57.9°F14.4°C 33.0°F0.6°C 39% 20.8 mph NE33.5 kmh NE 27.7 mph44.6 kmh 29.01 in982.4 mb 0.00 in0.0 mm 0.00 in0.0 mm 0.00 in0.0 mm
02:03 PM 57.7°F14.3°C 32.9°F0.5°C 39% 20.1 mph NE32.3 kmh NE 24.4 mph39.3 kmh 29.01 in982.4 mb 0.00 in0.0 mm 0.00 in0.0 mm 0.00 in0.0 mm
02:02 PM 57.7°F14.3°C 32.9°F0.5°C 39% 12.8 mph NNE20.6 kmh NNE 24.4 mph39.3 kmh 29.01 in982.4 mb 0.00 in0.0 mm 0.00 in0.0 mm 0.00 in0.0 mm
02:01 PM 57.9°F14.4°C 33.0°F0.6°C 39% 15.7 mph N25.3 kmh N 24.6 mph39.6 kmh 29.01 in982.4 mb 0.00 in0.0 mm 0.00 in0.0 mm 0.00 in0.0 mm
02:00 PM 57.9°F14.4°C 33.0°F0.6°C 39% 19.5 mph N31.4 kmh N 27.7 mph44.6 kmh 29.01 in982.4 mb 0.00 in0.0 mm 0.00 in0.0 mm 0.00 in0.0 mm
01:59 PM 57.9°F14.4°C 33.0°F0.6°C 39% 11.6 mph NNW18.7 kmh NNW 27.7 mph44.6 kmh 29.01 in982.4 mb 0.00 in0.0 mm 0.00 in0.0 mm 0.00 in0.0 mm
01:58 PM 57.9°F14.4°C 33.0°F0.6°C 39% 14.5 mph NNW23.3 kmh NNW 27.7 mph44.6 kmh 29.01 in982.4 mb 0.00 in0.0 mm 0.00 in0.0 mm 0.00 in0.0 mm
01:57 PM 57.9°F14.4°C 33.0°F0.6°C 39% 19.7 mph NNW31.7 kmh NNW 27.7 mph44.6 kmh 29.02 in982.7 mb 0.00 in0.0 mm 0.00 in0.0 mm 0.00 in0.0 mm
01:56 PM 57.9°F14.4°C 33.0°F0.6°C 39% 17.7 mph N28.5 kmh N 27.7 mph44.6 kmh 29.02 in982.7 mb 0.00 in0.0 mm 0.00 in0.0 mm 0.00 in0.0 mm
01:55 PM 57.9°F14.4°C 33.0°F0.6°C 39% 17.4 mph N28.0 kmh N 27.7 mph44.6 kmh 29.02 in982.7 mb 0.00 in0.0 mm 0.00 in0.0 mm 0.00 in0.0 mm
01:54 PM 57.9°F14.4°C 33.0°F0.6°C 39% 21.9 mph N35.2 kmh N 27.7 mph44.6 kmh 29.01 in982.4 mb 0.00 in0.0 mm 0.00 in0.0 mm 0.00 in0.0 mm
01:53 PM 57.9°F14.4°C 33.0°F0.6°C 39% 14.8 mph N23.8 kmh N 27.7 mph44.6 kmh 29.01 in982.4 mb 0.00 in0.0 mm 0.00 in0.0 mm 0.00 in0.0 mm
01:52 PM 57.9°F14.4°C 33.0°F0.6°C 39% 21.9 mph N35.2 kmh N 27.7 mph44.6 kmh 29.02 in982.7 mb 0.00 in0.0 mm 0.00 in0.0 mm 0.00 in0.0 mm
01:51 PM 58.1°F14.5°C 33.2°F0.7°C 39% 24.6 mph NNE39.6 kmh NNE 27.7 mph44.6 kmh 29.02 in982.7 mb 0.00 in0.0 mm 0.00 in0.0 mm 0.00 in0.0 mm
01:50 PM 58.1°F14.5°C 33.2°F0.7°C 39% 11.0 mph NNE17.7 kmh NNE 31.1 mph50.1 kmh 29.02 in982.7 mb 0.00 in0.0 mm 0.00 in0.0 mm 0.00 in0.0 mm
01:49 PM 58.1°F14.5°C 33.2°F0.7°C 39% 22.8 mph NNE36.7 kmh NNE 31.1 mph50.1 kmh 29.02 in982.7 mb 0.00 in0.0 mm 0.00 in0.0 mm 0.00 in0.0 mm
01:48 PM 58.3°F14.6°C 33.3°F0.7°C 39% 21.0 mph NNE33.8 kmh NNE 31.1 mph50.1 kmh 29.02 in982.7 mb 0.00 in0.0 mm 0.00 in0.0 mm 0.00 in0.0 mm
01:47 PM 58.3°F14.6°C 33.3°F0.7°C 39% 16.6 mph N26.7 kmh N 31.1 mph50.1 kmh 29.02 in982.7 mb 0.00 in0.0 mm 0.00 in0.0 mm 0.00 in0.0 mm
01:46 PM 58.3°F14.6°C 33.3°F0.7°C 39% 11.2 mph N18.0 kmh N 31.1 mph50.1 kmh 29.02 in982.7 mb 0.00 in0.0 mm 0.00 in0.0 mm 0.00 in0.0 mm
01:45 PM 58.3°F14.6°C 33.3°F0.7°C 39% 16.3 mph NNE26.2 kmh NNE 31.1 mph50.1 kmh 29.02 in982.7 mb 0.00 in0.0 mm 0.00 in0.0 mm 0.00 in0.0 mm
01:44 PM 58.3°F14.6°C 33.3°F0.7°C 39% 9.4 mph NE15.1 kmh NE 31.1 mph50.1 kmh 29.02 in982.7 mb 0.00 in0.0 mm 0.00 in0.0 mm 0.00 in0.0 mm
01:43 PM 58.3°F14.6°C 33.3°F0.7°C 39% 11.2 mph NE18.0 kmh NE 31.1 mph50.1 kmh 29.02 in982.7 mb 0.00 in0.0 mm 0.00 in0.0 mm 0.00 in0.0 mm
01:42 PM 58.3°F14.6°C 34.1°F1.2°C 40% 24.4 mph NE39.3 kmh NE 31.1 mph50.1 kmh 29.02 in982.7 mb 0.00 in0.0 mm 0.00 in0.0 mm 0.00 in0.0 mm
01:41 PM 58.3°F14.6°C 34.1°F1.2°C 40% 26.8 mph NE43.1 kmh NE 31.1 mph50.1 kmh 29.02 in982.7 mb 0.00 in0.0 mm 0.00 in0.0 mm 0.00 in0.0 mm
01:40 PM 58.3°F14.6°C 34.1°F1.2°C 40% 11.6 mph ENE18.7 kmh ENE 22.6 mph36.4 kmh 29.02 in982.7 mb 0.00 in0.0 mm 0.00 in0.0 mm 0.00 in0.0 mm
01:39 PM 58.3°F14.6°C 34.1°F1.2°C 40% 13.6 mph ENE21.9 kmh ENE 22.6 mph36.4 kmh 29.02 in982.7 mb 0.00 in0.0 mm 0.00 in0.0 mm 0.00 in0.0 mm
01:38 PM 58.3°F14.6°C 34.1°F1.2°C 40% 9.4 mph ENE15.1 kmh ENE 22.6 mph36.4 kmh 29.02 in982.7 mb 0.00 in0.0 mm 0.00 in0.0 mm 0.00 in0.0 mm
01:37 PM 58.3°F14.6°C 34.1°F1.2°C 40% 7.6 mph ENE12.2 kmh ENE 22.6 mph36.4 kmh 29.02 in982.7 mb 0.00 in0.0 mm 0.00 in0.0 mm 0.00 in0.0 mm
01:36 PM 58.3°F14.6°C 34.1°F1.2°C 40% 12.1 mph NE19.5 kmh NE 24.4 mph39.3 kmh 29.02 in982.7 mb 0.00 in0.0 mm 0.00 in0.0 mm 0.00 in0.0 mm
01:35 PM 58.3°F14.6°C 34.1°F1.2°C 40% 17.7 mph NNE28.5 kmh NNE 24.4 mph39.3 kmh 29.02 in982.7 mb 0.00 in0.0 mm 0.00 in0.0 mm 0.00 in0.0 mm
01:34 PM 58.1°F14.5°C 33.9°F1.1°C 40% 17.0 mph N27.4 kmh N 24.4 mph39.3 kmh 29.02 in982.7 mb 0.00 in0.0 mm 0.00 in0.0 mm 0.00 in0.0 mm
01:33 PM 58.1°F14.5°C 33.9°F1.1°C 40% 11.6 mph N18.7 kmh N 24.4 mph39.3 kmh 29.03 in983.1 mb 0.00 in0.0 mm 0.00 in0.0 mm 0.00 in0.0 mm
01:32 PM 57.9°F14.4°C 33.7°F0.9°C 40% 14.8 mph NNW23.8 kmh NNW 24.4 mph39.3 kmh 29.02 in982.7 mb 0.00 in0.0 mm 0.00 in0.0 mm 0.00 in0.0 mm
01:31 PM 57.9°F14.4°C 33.7°F0.9°C 40% 14.8 mph NNW23.8 kmh NNW 24.4 mph39.3 kmh 29.03 in983.1 mb 0.00 in0.0 mm 0.00 in0.0 mm 0.00 in0.0 mm
01:30 PM 57.9°F14.4°C 33.7°F0.9°C 40% 11.0 mph NNW17.7 kmh NNW 24.4 mph39.3 kmh 29.02 in982.7 mb 0.00 in0.0 mm 0.00 in0.0 mm 0.00 in0.0 mm
01:29 PM 57.9°F14.4°C 33.7°F0.9°C 40% 9.8 mph NNW15.8 kmh NNW 24.4 mph39.3 kmh 29.02 in982.7 mb 0.00 in0.0 mm 0.00 in0.0 mm 0.00 in0.0 mm
01:28 PM 57.9°F14.4°C 33.7°F0.9°C 40% 11.4 mph NNW18.3 kmh NNW 24.4 mph39.3 kmh 29.02 in982.7 mb 0.00 in0.0 mm 0.00 in0.0 mm 0.00 in0.0 mm
01:27 PM 57.7°F14.3°C 33.6°F0.9°C 40% 24.4 mph N39.3 kmh N 24.4 mph39.3 kmh 29.02 in982.7 mb 0.00 in0.0 mm 0.00 in0.0 mm 0.00 in0.0 mm
01:26 PM 57.7°F14.3°C 34.1°F1.2°C 41% 19.2 mph N30.9 kmh N 21.3 mph34.3 kmh 29.02 in982.7 mb 0.00 in0.0 mm 0.00 in0.0 mm 0.00 in0.0 mm
01:25 PM 57.7°F14.3°C 34.1°F1.2°C 41% 15.7 mph N25.3 kmh N 21.3 mph34.3 kmh 29.02 in982.7 mb 0.00 in0.0 mm 0.00 in0.0 mm 0.00 in0.0 mm
01:24 PM 57.7°F14.3°C 34.1°F1.2°C 41% 8.9 mph N14.3 kmh N 21.3 mph34.3 kmh 29.03 in983.1 mb 0.00 in0.0 mm 0.00 in0.0 mm 0.00 in0.0 mm
01:23 PM 57.7°F14.3°C 34.1°F1.2°C 41% 13.4 mph NE21.6 kmh NE 21.3 mph34.3 kmh 29.03 in983.1 mb 0.00 in0.0 mm 0.00 in0.0 mm 0.00 in0.0 mm
01:22 PM 57.7°F14.3°C 34.1°F1.2°C 41% 11.4 mph NE18.3 kmh NE 21.3 mph34.3 kmh 29.03 in983.1 mb 0.00 in0.0 mm 0.00 in0.0 mm 0.00 in0.0 mm
01:21 PM 57.6°F14.2°C 34.0°F1.1°C 41% 14.3 mph NE23.0 kmh NE 21.3 mph34.3 kmh 29.03 in983.1 mb 0.00 in0.0 mm 0.00 in0.0 mm 0.00 in0.0 mm
01:20 PM 57.6°F14.2°C 34.0°F1.1°C 41% 17.7 mph NE28.5 kmh NE 18.6 mph29.9 kmh 29.03 in983.1 mb 0.00 in0.0 mm 0.00 in0.0 mm 0.00 in0.0 mm
01:19 PM 57.6°F14.2°C 34.0°F1.1°C 41% 10.5 mph NE16.9 kmh NE 18.6 mph29.9 kmh 29.03 in983.1 mb 0.00 in0.0 mm 0.00 in0.0 mm 0.00 in0.0 mm
01:18 PM 57.4°F14.1°C 33.8°F1.0°C 41% 12.1 mph NE19.5 kmh NE 20.4 mph32.8 kmh 29.03 in983.1 mb 0.00 in0.0 mm 0.00 in0.0 mm 0.00 in0.0 mm
01:17 PM 57.4°F14.1°C 33.8°F1.0°C 41% 12.1 mph NNE19.5 kmh NNE 20.4 mph32.8 kmh 29.03 in983.1 mb 0.00 in0.0 mm 0.00 in0.0 mm 0.00 in0.0 mm
01:16 PM 57.4°F14.1°C 33.8°F1.0°C 41% 9.6 mph NNE15.4 kmh NNE 20.4 mph32.8 kmh 29.03 in983.1 mb 0.00 in0.0 mm 0.00 in0.0 mm 0.00 in0.0 mm
01:15 PM 57.4°F14.1°C 33.8°F1.0°C 41% 18.3 mph NE29.5 kmh NE 20.4 mph32.8 kmh 29.03 in983.1 mb 0.00 in0.0 mm 0.00 in0.0 mm 0.00 in0.0 mm
01:14 PM 57.4°F14.1°C 33.8°F1.0°C 41% 13.9 mph NNE22.4 kmh NNE 20.4 mph32.8 kmh 29.03 in983.1 mb 0.00 in0.0 mm 0.00 in0.0 mm 0.00 in0.0 mm
01:13 PM 57.0°F13.9°C 33.5°F0.8°C 41% 13.2 mph N21.2 kmh N 20.4 mph32.8 kmh 29.03 in983.1 mb 0.00 in0.0 mm 0.00 in0.0 mm 0.00 in0.0 mm
01:12 PM 57.0°F13.9°C 34.1°F1.2°C 42% 9.8 mph N15.8 kmh N 20.4 mph32.8 kmh 29.03 in983.1 mb 0.00 in0.0 mm 0.00 in0.0 mm 0.00 in0.0 mm
01:11 PM 57.0°F13.9°C 34.1°F1.2°C 42% 13.6 mph N21.9 kmh N 20.4 mph32.8 kmh 29.03 in983.1 mb 0.00 in0.0 mm 0.00 in0.0 mm 0.00 in0.0 mm
01:10 PM 56.8°F13.8°C 33.9°F1.1°C 42% 13.0 mph N20.9 kmh N 20.4 mph32.8 kmh 29.03 in983.1 mb 0.00 in0.0 mm 0.00 in0.0 mm 0.00 in0.0 mm
01:09 PM 56.8°F13.8°C 33.9°F1.1°C 42% 9.4 mph NNE15.1 kmh NNE 20.4 mph32.8 kmh 29.03 in983.1 mb 0.00 in0.0 mm 0.00 in0.0 mm 0.00 in0.0 mm
01:08 PM 56.8°F13.8°C 33.9°F1.1°C 42% 10.1 mph NE16.3 kmh NE 25.9 mph41.7 kmh 29.03 in983.1 mb 0.00 in0.0 mm 0.00 in0.0 mm 0.00 in0.0 mm
01:07 PM 56.8°F13.8°C 33.3°F0.7°C 41% 10.5 mph ENE16.9 kmh ENE 29.1 mph46.8 kmh 29.04 in983.4 mb 0.00 in0.0 mm 0.00 in0.0 mm 0.00 in0.0 mm
01:06 PM 56.7°F13.7°C 33.2°F0.7°C 41% 9.8 mph ENE15.8 kmh ENE 29.1 mph46.8 kmh 29.04 in983.4 mb 0.00 in0.0 mm 0.00 in0.0 mm 0.00 in0.0 mm
01:05 PM 56.5°F13.6°C 33.0°F0.6°C 41% 10.5 mph ENE16.9 kmh ENE 29.1 mph46.8 kmh 29.04 in983.4 mb 0.00 in0.0 mm 0.00 in0.0 mm 0.00 in0.0 mm
01:04 PM 56.5°F13.6°C 33.0°F0.6°C 41% 15.0 mph ENE24.1 kmh ENE 29.1 mph46.8 kmh 29.04 in983.4 mb 0.00 in0.0 mm 0.00 in0.0 mm 0.00 in0.0 mm
01:03 PM 56.5°F13.6°C 33.0°F0.6°C 41% 11.4 mph ENE18.3 kmh ENE 29.1 mph46.8 kmh 29.04 in983.4 mb 0.00 in0.0 mm 0.00 in0.0 mm 0.00 in0.0 mm
01:02 PM 56.3°F13.5°C 32.8°F0.4°C 41% 12.5 mph ENE20.1 kmh ENE 29.1 mph46.8 kmh 29.04 in983.4 mb 0.00 in0.0 mm 0.00 in0.0 mm 0.00 in0.0 mm
01:01 PM 56.3°F13.5°C 33.4°F0.8°C 42% 16.3 mph ENE26.2 kmh ENE 29.1 mph46.8 kmh 29.04 in983.4 mb 0.00 in0.0 mm 0.00 in0.0 mm 0.00 in0.0 mm
01:00 PM 56.1°F13.4°C 33.2°F0.7°C 42% 19.9 mph ENE32.0 kmh ENE 29.1 mph46.8 kmh 29.04 in983.4 mb 0.00 in0.0 mm 0.00 in0.0 mm 0.00 in0.0 mm
12:59 PM 55.9°F13.3°C 33.1°F0.6°C 42% 12.3 mph ENE19.8 kmh ENE 29.1 mph46.8 kmh 29.04 in983.4 mb 0.00 in0.0 mm 0.00 in0.0 mm 0.00 in0.0 mm
12:58 PM 55.8°F13.2°C 32.9°F0.5°C 42% 19.9 mph ENE32.0 kmh ENE 29.1 mph46.8 kmh 29.04 in983.4 mb 0.00 in0.0 mm 0.00 in0.0 mm 0.00 in0.0 mm
12:57 PM 55.6°F13.1°C 32.7°F0.4°C 42% 11.6 mph ENE18.7 kmh ENE 21.3 mph34.3 kmh 29.04 in983.4 mb 0.00 in0.0 mm 0.00 in0.0 mm 0.00 in0.0 mm
12:56 PM 55.6°F13.1°C 32.7°F0.4°C 42% 14.3 mph ENE23.0 kmh ENE 17.0 mph27.4 kmh 29.04 in983.4 mb 0.00 in0.0 mm 0.00 in0.0 mm 0.00 in0.0 mm
12:55 PM 55.4°F13.0°C 32.6°F0.3°C 42% 9.6 mph ENE15.4 kmh ENE 23.3 mph37.5 kmh 29.04 in983.4 mb 0.00 in0.0 mm 0.00 in0.0 mm 0.00 in0.0 mm
12:54 PM 55.2°F12.9°C 32.4°F0.2°C 42% 10.5 mph ENE16.9 kmh ENE 23.3 mph37.5 kmh 29.04 in983.4 mb 0.00 in0.0 mm 0.00 in0.0 mm 0.00 in0.0 mm
12:53 PM 55.2°F12.9°C 32.4°F0.2°C 42% 15.9 mph ENE25.6 kmh ENE 23.3 mph37.5 kmh 29.04 in983.4 mb 0.00 in0.0 mm 0.00 in0.0 mm 0.00 in0.0 mm
12:52 PM 55.0°F12.8°C 32.3°F0.2°C 42% 10.1 mph ENE16.3 kmh ENE 23.3 mph37.5 kmh 29.05 in983.7 mb 0.00 in0.0 mm 0.00 in0.0 mm 0.00 in0.0 mm
12:51 PM 55.0°F12.8°C 32.3°F0.2°C 42% 6.9 mph ENE11.1 kmh ENE 23.3 mph37.5 kmh 29.05 in983.7 mb 0.00 in0.0 mm 0.00 in0.0 mm 0.00 in0.0 mm
12:50 PM 55.0°F12.8°C 32.3°F0.2°C 42% 7.8 mph ENE12.6 kmh ENE 23.3 mph37.5 kmh 29.05 in983.7 mb 0.00 in0.0 mm 0.00 in0.0 mm 0.00 in0.0 mm
12:49 PM 55.0°F12.8°C 32.3°F0.2°C 42% 11.4 mph ENE18.3 kmh ENE 23.3 mph37.5 kmh 29.05 in983.7 mb 0.00 in0.0 mm 0.00 in0.0 mm 0.00 in0.0 mm
12:48 PM 55.0°F12.8°C 32.3°F0.2°C 42% 9.6 mph ENE15.4 kmh ENE 23.3 mph37.5 kmh 29.05 in983.7 mb 0.00 in0.0 mm 0.00 in0.0 mm 0.00 in0.0 mm
12:47 PM 55.0°F12.8°C 32.3°F0.2°C 42% 13.6 mph ENE21.9 kmh ENE 23.3 mph37.5 kmh 29.05 in983.7 mb 0.00 in0.0 mm 0.00 in0.0 mm 0.00 in0.0 mm
12:46 PM 55.0°F12.8°C 32.3°F0.2°C 42% 8.9 mph ENE14.3 kmh ENE 23.3 mph37.5 kmh 29.05 in983.7 mb 0.00 in0.0 mm 0.00 in0.0 mm 0.00 in0.0 mm
12:45 PM 55.0°F12.8°C 32.3°F0.2°C 42% 13.0 mph ENE20.9 kmh ENE 22.6 mph36.4 kmh 29.06 in984.1 mb 0.00 in0.0 mm 0.00 in0.0 mm 0.00 in0.0 mm
12:44 PM 55.0°F12.8°C 32.3°F0.2°C 42% 13.9 mph ENE22.4 kmh ENE 22.6 mph36.4 kmh 29.06 in984.1 mb 0.00 in0.0 mm 0.00 in0.0 mm 0.00 in0.0 mm
12:43 PM 55.0°F12.8°C 32.3°F0.2°C 42% 11.2 mph ENE18.0 kmh ENE 22.6 mph36.4 kmh 29.06 in984.1 mb 0.00 in0.0 mm 0.00 in0.0 mm 0.00 in0.0 mm
12:42 PM 54.9°F12.7°C 32.1°F0.1°C 42% 7.2 mph ENE11.6 kmh ENE 22.6 mph36.4 kmh 29.06 in984.1 mb 0.00 in0.0 mm 0.00 in0.0 mm 0.00 in0.0 mm
12:41 PM 55.0°F12.8°C 32.3°F0.2°C 42% 15.0 mph ENE24.1 kmh ENE 22.6 mph36.4 kmh 29.06 in984.1 mb 0.00 in0.0 mm 0.00 in0.0 mm 0.00 in0.0 mm
12:40 PM 55.0°F12.8°C 32.3°F0.2°C 42% 12.3 mph ENE19.8 kmh ENE 22.6 mph36.4 kmh 29.06 in984.1 mb 0.00 in0.0 mm 0.00 in0.0 mm 0.00 in0.0 mm
12:39 PM 55.0°F12.8°C 32.3°F0.2°C 42% 13.2 mph ENE21.2 kmh ENE 22.6 mph36.4 kmh 29.06 in984.1 mb 0.00 in0.0 mm 0.00 in0.0 mm 0.00 in0.0 mm
12:38 PM 55.0°F12.8°C 31.7°F-0.2°C 41% 15.2 mph ENE24.5 kmh ENE 22.6 mph36.4 kmh 29.06 in984.1 mb 0.00 in0.0 mm 0.00 in0.0 mm 0.00 in0.0 mm
12:37 PM 55.0°F12.8°C 32.3°F0.2°C 42% 19.5 mph ENE31.4 kmh ENE 21.9 mph35.2 kmh 29.06 in984.1 mb 0.00 in0.0 mm 0.00 in0.0 mm 0.00 in0.0 mm
12:36 PM 55.0°F12.8°C 32.3°F0.2°C 42% 15.2 mph ENE24.5 kmh ENE 21.9 mph35.2 kmh 29.06 in984.1 mb 0.00 in0.0 mm 0.00 in0.0 mm 0.00 in0.0 mm
12:35 PM 55.0°F12.8°C 32.3°F0.2°C 42% 18.3 mph ENE29.5 kmh ENE 21.9 mph35.2 kmh 29.06 in984.1 mb 0.00 in0.0 mm 0.00 in0.0 mm 0.00 in0.0 mm
12:34 PM 55.0°F12.8°C 32.3°F0.2°C 42% 15.7 mph ENE25.3 kmh ENE 21.9 mph35.2 kmh 29.06 in984.1 mb 0.00 in0.0 mm 0.00 in0.0 mm 0.00 in0.0 mm
12:33 PM 55.0°F12.8°C 32.3°F0.2°C 42% 21.0 mph ENE33.8 kmh ENE 21.9 mph35.2 kmh 29.06 in984.1 mb 0.00 in0.0 mm 0.00 in0.0 mm 0.00 in0.0 mm
12:32 PM 55.0°F12.8°C 32.3°F0.2°C 42% 18.6 mph ENE29.9 kmh ENE 21.9 mph35.2 kmh 29.06 in984.1 mb 0.00 in0.0 mm 0.00 in0.0 mm 0.00 in0.0 mm
12:31 PM 55.0°F12.8°C 32.3°F0.2°C 42% 18.3 mph ENE29.5 kmh ENE 21.9 mph35.2 kmh 29.06 in984.1 mb 0.00 in0.0 mm 0.00 in0.0 mm 0.00 in0.0 mm
12:30 PM 55.0°F12.8°C 32.3°F0.2°C 42% 15.9 mph ENE25.6 kmh ENE 21.9 mph35.2 kmh 29.06 in984.1 mb 0.00 in0.0 mm 0.00 in0.0 mm 0.00 in0.0 mm
12:29 PM 55.0°F12.8°C 32.3°F0.2°C 42% 16.6 mph ENE26.7 kmh ENE 21.9 mph35.2 kmh 29.06 in984.1 mb 0.00 in0.0 mm 0.00 in0.0 mm 0.00 in0.0 mm
12:28 PM 55.0°F12.8°C 32.3°F0.2°C 42% 12.8 mph ENE20.6 kmh ENE 21.7 mph34.9 kmh 29.06 in984.1 mb 0.00 in0.0 mm 0.00 in0.0 mm 0.00 in0.0 mm
12:27 PM 55.0°F12.8°C 32.3°F0.2°C 42% 13.2 mph ENE21.2 kmh ENE 21.7 mph34.9 kmh 29.06 in984.1 mb 0.00 in0.0 mm 0.00 in0.0 mm 0.00 in0.0 mm
12:26 PM 55.0°F12.8°C 32.3°F0.2°C 42% 10.1 mph ENE16.3 kmh ENE 21.7 mph34.9 kmh 29.06 in984.1 mb 0.00 in0.0 mm 0.00 in0.0 mm 0.00 in0.0 mm
12:25 PM 55.0°F12.8°C 32.3°F0.2°C 42% 12.1 mph ENE19.5 kmh ENE 21.7 mph34.9 kmh 29.06 in984.1 mb 0.00 in0.0 mm 0.00 in0.0 mm 0.00 in0.0 mm
12:24 PM 55.0°F12.8°C 32.8°F0.4°C 43% 17.0 mph ENE27.4 kmh ENE 21.7 mph34.9 kmh 29.06 in984.1 mb 0.00 in0.0 mm 0.00 in0.0 mm 0.00 in0.0 mm
12:23 PM 54.9°F12.7°C 32.6°F0.3°C 43% 18.6 mph ENE29.9 kmh ENE 21.7 mph34.9 kmh 29.06 in984.1 mb 0.00 in0.0 mm 0.00 in0.0 mm 0.00 in0.0 mm
12:22 PM 54.9°F12.7°C 32.6°F0.3°C 43% 10.1 mph ENE16.3 kmh ENE 21.7 mph34.9 kmh 29.06 in984.1 mb 0.00 in0.0 mm 0.00 in0.0 mm 0.00 in0.0 mm
12:21 PM 54.7°F12.6°C 32.5°F0.3°C 43% 8.9 mph ENE14.3 kmh ENE 21.7 mph34.9 kmh 29.06 in984.1 mb 0.00 in0.0 mm 0.00 in0.0 mm 0.00 in0.0 mm
12:20 PM 54.7°F12.6°C 32.5°F0.3°C 43% 16.3 mph ENE26.2 kmh ENE 21.7 mph34.9 kmh 29.06 in984.1 mb 0.00 in0.0 mm 0.00 in0.0 mm 0.00 in0.0 mm
12:19 PM 54.5°F12.5°C 32.3°F0.2°C 43% 18.6 mph E29.9 kmh E 21.7 mph34.9 kmh 29.06 in984.1 mb 0.00 in0.0 mm 0.00 in0.0 mm 0.00 in0.0 mm
12:18 PM 54.5°F12.5°C 32.3°F0.2°C 43% 18.8 mph ENE30.3 kmh ENE 20.8 mph33.5 kmh 29.06 in984.1 mb 0.00 in0.0 mm 0.00 in0.0 mm 0.00 in0.0 mm
12:17 PM 54.3°F12.4°C 32.2°F0.1°C 43% 6.9 mph ENE11.1 kmh ENE 20.8 mph33.5 kmh 29.06 in984.1 mb 0.00 in0.0 mm 0.00 in0.0 mm 0.00 in0.0 mm
12:16 PM 54.3°F12.4°C 32.2°F0.1°C 43% 20.4 mph ENE32.8 kmh ENE 20.8 mph33.5 kmh 29.06 in984.1 mb 0.00 in0.0 mm 0.00 in0.0 mm 0.00 in0.0 mm
12:15 PM 54.3°F12.4°C 32.2°F0.1°C 43% 11.4 mph ENE18.3 kmh ENE 20.8 mph33.5 kmh 29.06 in984.1 mb 0.00 in0.0 mm 0.00 in0.0 mm 0.00 in0.0 mm
12:14 PM 54.3°F12.4°C 32.2°F0.1°C 43% 11.9 mph ENE19.2 kmh ENE 21.0 mph33.8 kmh 29.06 in984.1 mb 0.00 in0.0 mm 0.00 in0.0 mm 0.00 in0.0 mm
12:13 PM 54.1°F12.3°C 32.0°F0.0°C 43% 18.8 mph ENE30.3 kmh ENE 21.0 mph33.8 kmh 29.06 in984.1 mb 0.00 in0.0 mm 0.00 in0.0 mm 0.00 in0.0 mm
12:12 PM 54.3°F12.4°C 32.2°F0.1°C 43% 14.5 mph ENE23.3 kmh ENE 21.0 mph33.8 kmh 29.06 in984.1 mb 0.00 in0.0 mm 0.00 in0.0 mm 0.00 in0.0 mm
12:11 PM 54.3°F12.4°C 32.2°F0.1°C 43% 11.0 mph ENE17.7 kmh ENE 21.0 mph33.8 kmh 29.06 in984.1 mb 0.00 in0.0 mm 0.00 in0.0 mm 0.00 in0.0 mm
12:10 PM 54.3°F12.4°C 32.2°F0.1°C 43% 13.0 mph ENE20.9 kmh ENE 21.0 mph33.8 kmh 29.06 in984.1 mb 0.00 in0.0 mm 0.00 in0.0 mm 0.00 in0.0 mm
12:09 PM 54.1°F12.3°C 32.0°F0.0°C 43% 8.3 mph ENE13.4 kmh ENE 21.0 mph33.8 kmh 29.06 in984.1 mb 0.00 in0.0 mm 0.00 in0.0 mm 0.00 in0.0 mm
12:08 PM 54.1°F12.3°C 32.0°F0.0°C 43% 10.7 mph ENE17.2 kmh ENE 21.0 mph33.8 kmh 29.06 in984.1 mb 0.00 in0.0 mm 0.00 in0.0 mm 0.00 in0.0 mm
12:07 PM 54.1°F12.3°C 32.0°F0.0°C 43% 19.2 mph ENE30.9 kmh ENE 21.0 mph33.8 kmh 29.06 in984.1 mb 0.00 in0.0 mm 0.00 in0.0 mm 0.00 in0.0 mm
12:06 PM 54.1°F12.3°C 32.6°F0.3°C 44% 12.8 mph ENE20.6 kmh ENE 21.0 mph33.8 kmh 29.06 in984.1 mb 0.00 in0.0 mm 0.00 in0.0 mm 0.00 in0.0 mm
12:05 PM 54.1°F12.3°C 32.6°F0.3°C 44% 17.2 mph ENE27.7 kmh ENE 21.0 mph33.8 kmh 29.06 in984.1 mb 0.00 in0.0 mm 0.00 in0.0 mm 0.00 in0.0 mm
12:04 PM 54.1°F12.3°C 32.6°F0.3°C 44% 6.3 mph ENE10.1 kmh ENE 20.6 mph33.2 kmh 29.06 in984.1 mb 0.00 in0.0 mm 0.00 in0.0 mm 0.00 in0.0 mm
12:03 PM 54.1°F12.3°C 32.6°F0.3°C 44% 9.8 mph ENE15.8 kmh ENE 20.6 mph33.2 kmh 29.06 in984.1 mb 0.00 in0.0 mm 0.00 in0.0 mm 0.00 in0.0 mm
12:02 PM 54.0°F12.2°C 32.4°F0.2°C 44% 11.4 mph ENE18.3 kmh ENE 20.6 mph33.2 kmh 29.06 in984.1 mb 0.00 in0.0 mm 0.00 in0.0 mm 0.00 in0.0 mm
12:01 PM 54.0°F12.2°C 32.4°F0.2°C 44% 11.0 mph ENE17.7 kmh ENE 20.6 mph33.2 kmh 29.07 in984.4 mb 0.00 in0.0 mm 0.00 in0.0 mm 0.00 in0.0 mm
12:00 PM 54.0°F12.2°C 32.4°F0.2°C 44% 14.1 mph ENE22.7 kmh ENE 22.4 mph36.0 kmh 29.07 in984.4 mb 0.00 in0.0 mm 0.00 in0.0 mm 0.00 in0.0 mm
11:59 AM 53.8°F12.1°C 32.2°F0.1°C 44% 20.6 mph ENE33.2 kmh ENE 22.4 mph36.0 kmh 29.06 in984.1 mb 0.00 in0.0 mm 0.00 in0.0 mm 0.00 in0.0 mm
11:58 AM 53.8°F12.1°C 32.2°F0.1°C 44% 9.6 mph ENE15.4 kmh ENE 22.4 mph36.0 kmh 29.07 in984.4 mb 0.00 in0.0 mm 0.00 in0.0 mm 0.00 in0.0 mm
11:57 AM 53.8°F12.1°C 32.2°F0.1°C 44% 12.8 mph ENE20.6 kmh ENE 23.3 mph37.5 kmh 29.06 in984.1 mb 0.00 in0.0 mm 0.00 in0.0 mm 0.00 in0.0 mm
11:56 AM 53.8°F12.1°C 32.2°F0.1°C 44% 14.1 mph ENE22.7 kmh ENE 23.3 mph37.5 kmh 29.06 in984.1 mb 0.00 in0.0 mm 0.00 in0.0 mm 0.00 in0.0 mm
11:55 AM 53.8°F12.1°C 32.2°F0.1°C 44% 13.0 mph ENE20.9 kmh ENE 23.3 mph37.5 kmh 29.07 in984.4 mb 0.00 in0.0 mm 0.00 in0.0 mm 0.00 in0.0 mm
11:54 AM 53.8°F12.1°C 32.2°F0.1°C 44% 13.4 mph ENE21.6 kmh ENE 23.3 mph37.5 kmh 29.07 in984.4 mb 0.00 in0.0 mm 0.00 in0.0 mm 0.00 in0.0 mm
11:53 AM 53.8°F12.1°C 32.2°F0.1°C 44% 11.2 mph ENE18.0 kmh ENE 23.3 mph37.5 kmh 29.06 in984.1 mb 0.00 in0.0 mm 0.00 in0.0 mm 0.00 in0.0 mm
11:52 AM 53.8°F12.1°C 32.2°F0.1°C 44% 14.3 mph ENE23.0 kmh ENE 23.3 mph37.5 kmh 29.07 in984.4 mb 0.00 in0.0 mm 0.00 in0.0 mm 0.00 in0.0 mm
11:51 AM 53.8°F12.1°C 32.2°F0.1°C 44% 6.7 mph ENE10.8 kmh ENE 23.3 mph37.5 kmh 29.07 in984.4 mb 0.00 in0.0 mm 0.00 in0.0 mm 0.00 in0.0 mm
11:50 AM 53.8°F12.1°C 32.2°F0.1°C 44% 11.0 mph ENE17.7 kmh ENE 23.3 mph37.5 kmh 29.07 in984.4 mb 0.00 in0.0 mm 0.00 in0.0 mm 0.00 in0.0 mm
11:49 AM 53.8°F12.1°C 32.2°F0.1°C 44% 13.9 mph ENE22.4 kmh ENE 23.3 mph37.5 kmh 29.07 in984.4 mb 0.00 in0.0 mm 0.00 in0.0 mm 0.00 in0.0 mm
11:48 AM 53.8°F12.1°C 32.2°F0.1°C 44% 17.4 mph ENE28.0 kmh ENE 23.3 mph37.5 kmh 29.06 in984.1 mb 0.00 in0.0 mm 0.00 in0.0 mm 0.00 in0.0 mm
11:47 AM 53.8°F12.1°C 32.2°F0.1°C 44% 12.5 mph ENE20.1 kmh ENE 22.4 mph36.0 kmh 29.07 in984.4 mb 0.00 in0.0 mm 0.00 in0.0 mm 0.00 in0.0 mm
11:46 AM 53.8°F12.1°C 32.2°F0.1°C 44% 10.5 mph ENE16.9 kmh ENE 22.1 mph35.6 kmh 29.06 in984.1 mb 0.00 in0.0 mm 0.00 in0.0 mm 0.00 in0.0 mm
11:45 AM 53.8°F12.1°C 32.2°F0.1°C 44% 14.1 mph ENE22.7 kmh ENE 22.1 mph35.6 kmh 29.07 in984.4 mb 0.00 in0.0 mm 0.00 in0.0 mm 0.00 in0.0 mm
11:44 AM 53.8°F12.1°C 32.2°F0.1°C 44% 12.5 mph ENE20.1 kmh ENE 23.3 mph37.5 kmh 29.06 in984.1 mb 0.00 in0.0 mm 0.00 in0.0 mm 0.00 in0.0 mm
11:43 AM 53.8°F12.1°C 32.2°F0.1°C 44% 19.9 mph ENE32.0 kmh ENE 23.9 mph38.5 kmh 29.06 in984.1 mb 0.00 in0.0 mm 0.00 in0.0 mm 0.00 in0.0 mm
11:42 AM 53.8°F12.1°C 32.2°F0.1°C 44% 14.3 mph ENE23.0 kmh ENE 23.9 mph38.5 kmh 29.06 in984.1 mb 0.00 in0.0 mm 0.00 in0.0 mm 0.00 in0.0 mm
11:41 AM 53.8°F12.1°C 32.2°F0.1°C 44% 15.7 mph ENE25.3 kmh ENE 23.9 mph38.5 kmh 29.06 in984.1 mb 0.00 in0.0 mm 0.00 in0.0 mm 0.00 in0.0 mm
11:40 AM 53.8°F12.1°C 32.2°F0.1°C 44% 7.4 mph ENE11.9 kmh ENE 23.9 mph38.5 kmh 29.06 in984.1 mb 0.00 in0.0 mm 0.00 in0.0 mm 0.00 in0.0 mm
11:39 AM 53.8°F12.1°C 32.2°F0.1°C 44% 7.8 mph ENE12.6 kmh ENE 23.9 mph38.5 kmh 29.06 in984.1 mb 0.00 in0.0 mm 0.00 in0.0 mm 0.00 in0.0 mm
11:38 AM 53.8°F12.1°C 32.2°F0.1°C 44% 6.3 mph ENE10.1 kmh ENE 23.9 mph38.5 kmh 29.06 in984.1 mb 0.00 in0.0 mm 0.00 in0.0 mm 0.00 in0.0 mm
11:37 AM 53.8°F12.1°C 32.2°F0.1°C 44% 12.1 mph ENE19.5 kmh ENE 23.9 mph38.5 kmh 29.06 in984.1 mb 0.00 in0.0 mm 0.00 in0.0 mm 0.00 in0.0 mm
11:36 AM 53.8°F12.1°C 32.2°F0.1°C 44% 19.7 mph NE31.7 kmh NE 23.9 mph38.5 kmh 29.06 in984.1 mb 0.00 in0.0 mm 0.00 in0.0 mm 0.00 in0.0 mm
11:35 AM 53.6°F12.0°C 32.1°F0.1°C 44% 21.0 mph NE33.8 kmh NE 23.9 mph38.5 kmh 29.06 in984.1 mb 0.00 in0.0 mm 0.00 in0.0 mm 0.00 in0.0 mm
11:34 AM 53.6°F12.0°C 32.1°F0.1°C 44% 23.9 mph NE38.5 kmh NE 23.9 mph38.5 kmh 29.06 in984.1 mb 0.00 in0.0 mm 0.00 in0.0 mm 0.00 in0.0 mm
11:33 AM 53.4°F11.9°C 31.9°F-0.1°C 44% 7.4 mph NE11.9 kmh NE 20.1 mph32.3 kmh 29.06 in984.1 mb 0.00 in0.0 mm 0.00 in0.0 mm 0.00 in0.0 mm
11:32 AM 53.6°F12.0°C 32.6°F0.3°C 45% 13.9 mph NE22.4 kmh NE 21.0 mph33.8 kmh 29.06 in984.1 mb 0.00 in0.0 mm 0.00 in0.0 mm 0.00 in0.0 mm
11:31 AM 53.4°F11.9°C 32.5°F0.3°C 45% 14.5 mph NE23.3 kmh NE 21.0 mph33.8 kmh 29.06 in984.1 mb 0.00 in0.0 mm 0.00 in0.0 mm 0.00 in0.0 mm
11:30 AM 53.4°F11.9°C 32.5°F0.3°C 45% 8.7 mph NE14.0 kmh NE 21.0 mph33.8 kmh 29.06 in984.1 mb 0.00 in0.0 mm 0.00 in0.0 mm 0.00 in0.0 mm
11:29 AM 53.4°F11.9°C 32.5°F0.3°C 45% 15.0 mph NE24.1 kmh NE 21.0 mph33.8 kmh 29.06 in984.1 mb 0.00 in0.0 mm 0.00 in0.0 mm 0.00 in0.0 mm
11:28 AM 53.4°F11.9°C 32.5°F0.3°C 45% 18.8 mph ENE30.3 kmh ENE 21.0 mph33.8 kmh 29.06 in984.1 mb 0.00 in0.0 mm 0.00 in0.0 mm 0.00 in0.0 mm
11:27 AM 53.4°F11.9°C 32.5°F0.3°C 45% 7.6 mph NE12.2 kmh NE 21.0 mph33.8 kmh 29.06 in984.1 mb 0.00 in0.0 mm 0.00 in0.0 mm 0.00 in0.0 mm
11:26 AM 53.4°F11.9°C 32.5°F0.3°C 45% 9.8 mph ENE15.8 kmh ENE 21.0 mph33.8 kmh 29.06 in984.1 mb 0.00 in0.0 mm 0.00 in0.0 mm 0.00 in0.0 mm
11:25 AM 53.4°F11.9°C 32.5°F0.3°C 45% 13.6 mph ENE21.9 kmh ENE 21.0 mph33.8 kmh 29.06 in984.1 mb 0.00 in0.0 mm 0.00 in0.0 mm 0.00 in0.0 mm
11:24 AM 53.4°F11.9°C 32.5°F0.3°C 45% 7.4 mph ENE11.9 kmh ENE 21.9 mph35.2 kmh 29.06 in984.1 mb 0.00 in0.0 mm 0.00 in0.0 mm 0.00 in0.0 mm
11:23 AM 53.4°F11.9°C 32.5°F0.3°C 45% 12.3 mph ENE19.8 kmh ENE 21.9 mph35.2 kmh 29.06 in984.1 mb 0.00 in0.0 mm 0.00 in0.0 mm 0.00 in0.0 mm
11:22 AM 53.4°F11.9°C 32.5°F0.3°C 45% 11.6 mph ENE18.7 kmh ENE 21.9 mph35.2 kmh 29.06 in984.1 mb 0.00 in0.0 mm 0.00 in0.0 mm 0.00 in0.0 mm
11:21 AM 53.4°F11.9°C 32.5°F0.3°C 45% 19.0 mph ENE30.6 kmh ENE 22.1 mph35.6 kmh 29.06 in984.1 mb 0.00 in0.0 mm 0.00 in0.0 mm 0.00 in0.0 mm
11:20 AM 53.4°F11.9°C 32.5°F0.3°C 45% 19.9 mph ENE32.0 kmh ENE 22.1 mph35.6 kmh 29.06 in984.1 mb 0.00 in0.0 mm 0.00 in0.0 mm 0.00 in0.0 mm
11:19 AM 53.4°F11.9°C 32.5°F0.3°C 45% 7.8 mph ENE12.6 kmh ENE 22.1 mph35.6 kmh 29.06 in984.1 mb 0.00 in0.0 mm 0.00 in0.0 mm 0.00 in0.0 mm
11:18 AM 53.4°F11.9°C 32.5°F0.3°C 45% 11.4 mph ENE18.3 kmh ENE 22.1 mph35.6 kmh 29.06 in984.1 mb 0.00 in0.0 mm 0.00 in0.0 mm 0.00 in0.0 mm
11:17 AM 53.4°F11.9°C 32.5°F0.3°C 45% 12.3 mph ENE19.8 kmh ENE 22.1 mph35.6 kmh 29.06 in984.1 mb 0.00 in0.0 mm 0.00 in0.0 mm 0.00 in0.0 mm
11:16 AM 53.6°F12.0°C 32.6°F0.3°C 45% 18.1 mph ENE29.1 kmh ENE 22.1 mph35.6 kmh 29.06 in984.1 mb 0.00 in0.0 mm 0.00 in0.0 mm 0.00 in0.0 mm
11:15 AM 53.8°F12.1°C 32.8°F0.4°C 45% 11.2 mph ENE18.0 kmh ENE 22.1 mph35.6 kmh 29.06 in984.1 mb 0.00 in0.0 mm 0.00 in0.0 mm 0.00 in0.0 mm
11:14 AM 53.8°F12.1°C 32.8°F0.4°C 45% 11.0 mph ENE17.7 kmh ENE 22.1 mph35.6 kmh 29.06 in984.1 mb 0.00 in0.0 mm 0.00 in0.0 mm 0.00 in0.0 mm
11:13 AM 53.8°F12.1°C 32.8°F0.4°C 45% 14.1 mph ENE22.7 kmh ENE 22.1 mph35.6 kmh 29.06 in984.1 mb 0.00 in0.0 mm 0.00 in0.0 mm 0.00 in0.0 mm
11:12 AM 53.8°F12.1°C 32.8°F0.4°C 45% 9.6 mph ENE15.4 kmh ENE 22.1 mph35.6 kmh 29.06 in984.1 mb 0.00 in0.0 mm 0.00 in0.0 mm 0.00 in0.0 mm
11:11 AM 53.8°F12.1°C 33.3°F0.7°C 46% 11.0 mph ENE17.7 kmh ENE 17.7 mph28.5 kmh 29.06 in984.1 mb 0.00 in0.0 mm 0.00 in0.0 mm 0.00 in0.0 mm
11:10 AM 53.8°F12.1°C 33.3°F0.7°C 46% 9.4 mph ENE15.1 kmh ENE 17.7 mph28.5 kmh 29.07 in984.4 mb 0.00 in0.0 mm 0.00 in0.0 mm 0.00 in0.0 mm
11:09 AM 53.8°F12.1°C 33.3°F0.7°C 46% 11.4 mph ENE18.3 kmh ENE 17.7 mph28.5 kmh 29.07 in984.4 mb 0.00 in0.0 mm 0.00 in0.0 mm 0.00 in0.0 mm
11:08 AM 53.8°F12.1°C 33.3°F0.7°C 46% 12.3 mph ENE19.8 kmh ENE 17.7 mph28.5 kmh 29.06 in984.1 mb 0.00 in0.0 mm 0.00 in0.0 mm 0.00 in0.0 mm
11:07 AM 53.8°F12.1°C 33.3°F0.7°C 46% 15.0 mph ENE24.1 kmh ENE 17.7 mph28.5 kmh 29.06 in984.1 mb 0.00 in0.0 mm 0.00 in0.0 mm 0.00 in0.0 mm
11:06 AM 53.8°F12.1°C 33.3°F0.7°C 46% 7.6 mph ENE12.2 kmh ENE 17.7 mph28.5 kmh 29.06 in984.1 mb 0.00 in0.0 mm 0.00 in0.0 mm 0.00 in0.0 mm
11:05 AM 53.8°F12.1°C 33.3°F0.7°C 46% 9.8 mph ENE15.8 kmh ENE 17.7 mph28.5 kmh 29.06 in984.1 mb 0.00 in0.0 mm 0.00 in0.0 mm 0.00 in0.0 mm
11:04 AM 53.8°F12.1°C 33.3°F0.7°C 46% 9.4 mph ENE15.1 kmh ENE 17.7 mph28.5 kmh 29.06 in984.1 mb 0.00 in0.0 mm 0.00 in0.0 mm 0.00 in0.0 mm
11:03 AM 53.8°F12.1°C 33.3°F0.7°C 46% 16.3 mph ENE26.2 kmh ENE 17.0 mph27.4 kmh 29.07 in984.4 mb 0.00 in0.0 mm 0.00 in0.0 mm 0.00 in0.0 mm
11:02 AM 53.8°F12.1°C 33.3°F0.7°C 46% 13.2 mph ENE21.2 kmh ENE 17.0 mph27.4 kmh 29.06 in984.1 mb 0.00 in0.0 mm 0.00 in0.0 mm 0.00 in0.0 mm
11:01 AM 53.8°F12.1°C 33.3°F0.7°C 46% 9.4 mph ENE15.1 kmh ENE 17.0 mph27.4 kmh 29.06 in984.1 mb 0.00 in0.0 mm 0.00 in0.0 mm 0.00 in0.0 mm
11:00 AM 53.8°F12.1°C 33.3°F0.7°C 46% 10.5 mph ENE16.9 kmh ENE 17.0 mph27.4 kmh 29.07 in984.4 mb 0.00 in0.0 mm 0.00 in0.0 mm 0.00 in0.0 mm
10:59 AM 53.8°F12.1°C 33.3°F0.7°C 46% 10.1 mph ENE16.3 kmh ENE 17.4 mph28.0 kmh 29.07 in984.4 mb 0.00 in0.0 mm 0.00 in0.0 mm 0.00 in0.0 mm
10:58 AM 53.8°F12.1°C 33.3°F0.7°C 46% 10.5 mph ENE16.9 kmh ENE 17.4 mph28.0 kmh 29.06 in984.1 mb 0.00 in0.0 mm 0.00 in0.0 mm 0.00 in0.0 mm
10:57 AM 53.8°F12.1°C 33.3°F0.7°C 46% 12.1 mph ENE19.5 kmh ENE 19.5 mph31.4 kmh 29.06 in984.1 mb 0.00 in0.0 mm 0.00 in0.0 mm 0.00 in0.0 mm
10:56 AM 54.0°F12.2°C 33.5°F0.8°C 46% 10.5 mph ENE16.9 kmh ENE 19.5 mph31.4 kmh 29.06 in984.1 mb 0.00 in0.0 mm 0.00 in0.0 mm 0.00 in0.0 mm
10:55 AM 54.0°F12.2°C 33.5°F0.8°C 46% 14.1 mph ENE22.7 kmh ENE 19.5 mph31.4 kmh 29.06 in984.1 mb 0.00 in0.0 mm 0.00 in0.0 mm 0.00 in0.0 mm
10:54 AM 53.8°F12.1°C 33.3°F0.7°C 46% 13.0 mph ENE20.9 kmh ENE 19.5 mph31.4 kmh 29.06 in984.1 mb 0.00 in0.0 mm 0.00 in0.0 mm 0.00 in0.0 mm
10:53 AM 54.0°F12.2°C 33.5°F0.8°C 46% 9.6 mph ENE15.4 kmh ENE 19.5 mph31.4 kmh 29.06 in984.1 mb 0.00 in0.0 mm 0.00 in0.0 mm 0.00 in0.0 mm
10:52 AM 54.0°F12.2°C 33.5°F0.8°C 46% 10.5 mph ENE16.9 kmh ENE 21.5 mph34.6 kmh 29.06 in984.1 mb 0.00 in0.0 mm 0.00 in0.0 mm 0.00 in0.0 mm
10:51 AM 54.0°F12.2°C 33.5°F0.8°C 46% 8.3 mph ENE13.4 kmh ENE 21.5 mph34.6 kmh 29.06 in984.1 mb 0.00 in0.0 mm 0.00 in0.0 mm 0.00 in0.0 mm
10:50 AM 54.0°F12.2°C 33.5°F0.8°C 46% 8.7 mph ENE14.0 kmh ENE 21.5 mph34.6 kmh 29.06 in984.1 mb 0.00 in0.0 mm 0.00 in0.0 mm 0.00 in0.0 mm
10:49 AM 54.0°F12.2°C 33.5°F0.8°C 46% 14.3 mph ENE23.0 kmh ENE 21.5 mph34.6 kmh 29.06 in984.1 mb 0.00 in0.0 mm 0.00 in0.0 mm 0.00 in0.0 mm
10:48 AM 54.0°F12.2°C 33.5°F0.8°C 46% 7.8 mph ENE12.6 kmh ENE 21.5 mph34.6 kmh 29.07 in984.4 mb 0.00 in0.0 mm 0.00 in0.0 mm 0.00 in0.0 mm
10:47 AM 54.1°F12.3°C 33.7°F0.9°C 46% 13.9 mph ENE22.4 kmh ENE 23.5 mph37.8 kmh 29.06 in984.1 mb 0.00 in0.0 mm 0.00 in0.0 mm 0.00 in0.0 mm
10:46 AM 54.1°F12.3°C 33.7°F0.9°C 46% 9.8 mph ENE15.8 kmh ENE 23.5 mph37.8 kmh 29.07 in984.4 mb 0.00 in0.0 mm 0.00 in0.0 mm 0.00 in0.0 mm
10:45 AM 54.1°F12.3°C 33.7°F0.9°C 46% 6.7 mph ENE10.8 kmh ENE 23.5 mph37.8 kmh 29.06 in984.1 mb 0.00 in0.0 mm 0.00 in0.0 mm 0.00 in0.0 mm
10:44 AM 54.1°F12.3°C 33.7°F0.9°C 46% 15.9 mph ENE25.6 kmh ENE 23.5 mph37.8 kmh 29.06 in984.1 mb 0.00 in0.0 mm 0.00 in0.0 mm 0.00 in0.0 mm
10:43 AM 54.1°F12.3°C 34.2°F1.2°C 47% 15.2 mph ENE24.5 kmh ENE 23.5 mph37.8 kmh 29.06 in984.1 mb 0.00 in0.0 mm 0.00 in0.0 mm 0.00 in0.0 mm
10:42 AM 54.1°F12.3°C 34.2°F1.2°C 47% 7.2 mph ENE11.6 kmh ENE 23.5 mph37.8 kmh 29.06 in984.1 mb 0.00 in0.0 mm 0.00 in0.0 mm 0.00 in0.0 mm
10:41 AM 54.1°F12.3°C 34.2°F1.2°C 47% 12.3 mph ENE19.8 kmh ENE 23.5 mph37.8 kmh 29.06 in984.1 mb 0.00 in0.0 mm 0.00 in0.0 mm 0.00 in0.0 mm
10:40 AM 54.1°F12.3°C 34.2°F1.2°C 47% 14.3 mph ENE23.0 kmh ENE 23.5 mph37.8 kmh 29.06 in984.1 mb 0.00 in0.0 mm 0.00 in0.0 mm 0.00 in0.0 mm
10:39 AM 54.1°F12.3°C 34.2°F1.2°C 47% 11.9 mph ENE19.2 kmh ENE 23.5 mph37.8 kmh 29.06 in984.1 mb 0.00 in0.0 mm 0.00 in0.0 mm 0.00 in0.0 mm
10:38 AM 54.1°F12.3°C 34.2°F1.2°C 47% 15.9 mph ENE25.6 kmh ENE 23.5 mph37.8 kmh 29.06 in984.1 mb 0.00 in0.0 mm 0.00 in0.0 mm 0.00 in0.0 mm
10:37 AM 54.1°F12.3°C 34.2°F1.2°C 47% 19.7 mph ENE31.7 kmh ENE 22.4 mph36.0 kmh 29.05 in983.7 mb 0.00 in0.0 mm 0.00 in0.0 mm 0.00 in0.0 mm
10:36 AM 54.1°F12.3°C 34.2°F1.2°C 47% 19.5 mph ENE31.4 kmh ENE 23.9 mph38.5 kmh 29.06 in984.1 mb 0.00 in0.0 mm 0.00 in0.0 mm 0.00 in0.0 mm
10:35 AM 54.1°F12.3°C 34.2°F1.2°C 47% 8.9 mph ENE14.3 kmh ENE 23.9 mph38.5 kmh 29.05 in983.7 mb 0.00 in0.0 mm 0.00 in0.0 mm 0.00 in0.0 mm
10:34 AM 54.0°F12.2°C 34.1°F1.2°C 47% 10.1 mph ENE16.3 kmh ENE 23.9 mph38.5 kmh 29.06 in984.1 mb 0.00 in0.0 mm 0.00 in0.0 mm 0.00 in0.0 mm
10:33 AM 54.0°F12.2°C 34.1°F1.2°C 47% 12.5 mph ENE20.1 kmh ENE 23.9 mph38.5 kmh 29.05 in983.7 mb 0.00 in0.0 mm 0.00 in0.0 mm 0.00 in0.0 mm
10:32 AM 54.0°F12.2°C 34.1°F1.2°C 47% 13.2 mph ENE21.2 kmh ENE 23.9 mph38.5 kmh 29.05 in983.7 mb 0.00 in0.0 mm 0.00 in0.0 mm 0.00 in0.0 mm
10:31 AM 54.0°F12.2°C 34.1°F1.2°C 47% 15.0 mph ENE24.1 kmh ENE 23.9 mph38.5 kmh 29.05 in983.7 mb 0.00 in0.0 mm 0.00 in0.0 mm 0.00 in0.0 mm
10:30 AM 53.8°F12.1°C 33.9°F1.1°C 47% 18.1 mph NE29.1 kmh NE 23.9 mph38.5 kmh 29.05 in983.7 mb 0.00 in0.0 mm 0.00 in0.0 mm 0.00 in0.0 mm
10:29 AM 53.8°F12.1°C 33.9°F1.1°C 47% 17.4 mph NE28.0 kmh NE 23.9 mph38.5 kmh 29.05 in983.7 mb 0.00 in0.0 mm 0.00 in0.0 mm 0.00 in0.0 mm
10:28 AM 53.8°F12.1°C 34.5°F1.4°C 48% 19.2 mph NE30.9 kmh NE 23.9 mph38.5 kmh 29.05 in983.7 mb 0.00 in0.0 mm 0.00 in0.0 mm 0.00 in0.0 mm
10:27 AM 53.8°F12.1°C 34.5°F1.4°C 48% 11.2 mph NE18.0 kmh NE 23.9 mph38.5 kmh 29.05 in983.7 mb 0.00 in0.0 mm 0.00 in0.0 mm 0.00 in0.0 mm
10:26 AM 53.6°F12.0°C 34.3°F1.3°C 48% 20.8 mph NE33.5 kmh NE 24.2 mph38.9 kmh 29.05 in983.7 mb 0.00 in0.0 mm 0.00 in0.0 mm 0.00 in0.0 mm
10:25 AM 53.4°F11.9°C 34.1°F1.2°C 48% 14.1 mph NE22.7 kmh NE 24.2 mph38.9 kmh 29.05 in983.7 mb 0.00 in0.0 mm 0.00 in0.0 mm 0.00 in0.0 mm
10:24 AM 53.4°F11.9°C 34.1°F1.2°C 48% 10.1 mph NE16.3 kmh NE 24.2 mph38.9 kmh 29.04 in983.4 mb 0.00 in0.0 mm 0.00 in0.0 mm 0.00 in0.0 mm
10:23 AM 53.2°F11.8°C 34.0°F1.1°C 48% 17.0 mph NE27.4 kmh NE 24.2 mph38.9 kmh 29.05 in983.7 mb 0.00 in0.0 mm 0.00 in0.0 mm 0.00 in0.0 mm
10:22 AM 53.2°F11.8°C 34.0°F1.1°C 48% 20.6 mph ENE33.2 kmh ENE 24.2 mph38.9 kmh 29.05 in983.7 mb 0.00 in0.0 mm 0.00 in0.0 mm 0.00 in0.0 mm
10:21 AM 53.2°F11.8°C 34.5°F1.4°C 49% 17.4 mph ENE28.0 kmh ENE 24.2 mph38.9 kmh 29.05 in983.7 mb 0.00 in0.0 mm 0.00 in0.0 mm 0.00 in0.0 mm
10:20 AM 53.1°F11.7°C 34.4°F1.3°C 49% 19.0 mph ENE30.6 kmh ENE 24.2 mph38.9 kmh 29.05 in983.7 mb 0.00 in0.0 mm 0.00 in0.0 mm 0.00 in0.0 mm
10:19 AM 52.9°F11.6°C 34.2°F1.2°C 49% 19.2 mph ENE30.9 kmh ENE 24.2 mph38.9 kmh 29.04 in983.4 mb 0.00 in0.0 mm 0.00 in0.0 mm 0.00 in0.0 mm
10:18 AM 52.9°F11.6°C 34.2°F1.2°C 49% 15.9 mph ENE25.6 kmh ENE 24.2 mph38.9 kmh 29.04 in983.4 mb 0.00 in0.0 mm 0.00 in0.0 mm 0.00 in0.0 mm
10:17 AM 52.5°F11.4°C 33.9°F1.1°C 49% 9.6 mph ENE15.4 kmh ENE 24.2 mph38.9 kmh 29.05 in983.7 mb 0.00 in0.0 mm 0.00 in0.0 mm 0.00 in0.0 mm
10:16 AM 52.5°F11.4°C 33.9°F1.1°C 49% 15.2 mph ENE24.5 kmh ENE 19.5 mph31.4 kmh 29.05 in983.7 mb 0.00 in0.0 mm 0.00 in0.0 mm 0.00 in0.0 mm
10:15 AM 52.3°F11.3°C 33.7°F0.9°C 49% 10.1 mph ENE16.3 kmh ENE 19.5 mph31.4 kmh 29.04 in983.4 mb 0.00 in0.0 mm 0.00 in0.0 mm 0.00 in0.0 mm
10:14 AM 52.3°F11.3°C 33.7°F0.9°C 49% 12.8 mph ENE20.6 kmh ENE 17.4 mph28.0 kmh 29.05 in983.7 mb 0.00 in0.0 mm 0.00 in0.0 mm 0.00 in0.0 mm
10:13 AM 52.2°F11.2°C 33.6°F0.9°C 49% 10.3 mph ENE16.6 kmh ENE 17.4 mph28.0 kmh 29.05 in983.7 mb 0.00 in0.0 mm 0.00 in0.0 mm 0.00 in0.0 mm
10:12 AM 52.0°F11.1°C 33.4°F0.8°C 49% 7.8 mph ENE12.6 kmh ENE 17.4 mph28.0 kmh 29.04 in983.4 mb 0.00 in0.0 mm 0.00 in0.0 mm 0.00 in0.0 mm
10:11 AM 51.8°F11.0°C 33.2°F0.7°C 49% 9.4 mph ENE15.1 kmh ENE 17.4 mph28.0 kmh 29.04 in983.4 mb 0.00 in0.0 mm 0.00 in0.0 mm 0.00 in0.0 mm
10:10 AM 51.6°F10.9°C 33.6°F0.9°C 50% 12.5 mph ENE20.1 kmh ENE 16.1 mph25.9 kmh 29.04 in983.4 mb 0.00 in0.0 mm 0.00 in0.0 mm 0.00 in0.0 mm
10:09 AM 51.6°F10.9°C 33.6°F0.9°C 50% 10.1 mph ENE16.3 kmh ENE 16.1 mph25.9 kmh 29.04 in983.4 mb 0.00 in0.0 mm 0.00 in0.0 mm 0.00 in0.0 mm
10:08 AM 51.6°F10.9°C 33.6°F0.9°C 50% 9.8 mph ENE15.8 kmh ENE 16.1 mph25.9 kmh 29.04 in983.4 mb 0.00 in0.0 mm 0.00 in0.0 mm 0.00 in0.0 mm
10:07 AM 51.4°F10.8°C 33.5°F0.8°C 50% 8.3 mph ENE13.4 kmh ENE 16.1 mph25.9 kmh 29.04 in983.4 mb 0.00 in0.0 mm 0.00 in0.0 mm 0.00 in0.0 mm
10:06 AM 51.3°F10.7°C 33.3°F0.7°C 50% 10.7 mph ENE17.2 kmh ENE 19.0 mph30.6 kmh 29.04 in983.4 mb 0.00 in0.0 mm 0.00 in0.0 mm 0.00 in0.0 mm
10:05 AM 51.1°F10.6°C 33.2°F0.7°C 50% 9.2 mph ENE14.8 kmh ENE 19.0 mph30.6 kmh 29.04 in983.4 mb 0.00 in0.0 mm 0.00 in0.0 mm 0.00 in0.0 mm
10:04 AM 50.9°F10.5°C 33.0°F0.6°C 50% 10.1 mph ENE16.3 kmh ENE 19.0 mph30.6 kmh 29.04 in983.4 mb 0.00 in0.0 mm 0.00 in0.0 mm 0.00 in0.0 mm
10:03 AM 50.7°F10.4°C 33.3°F0.7°C 51% 14.1 mph ENE22.7 kmh ENE 19.0 mph30.6 kmh 29.04 in983.4 mb 0.00 in0.0 mm 0.00 in0.0 mm 0.00 in0.0 mm
10:02 AM 50.7°F10.4°C 33.3°F0.7°C 51% 8.1 mph ENE13.0 kmh ENE 19.0 mph30.6 kmh 29.04 in983.4 mb 0.00 in0.0 mm 0.00 in0.0 mm 0.00 in0.0 mm
10:01 AM 50.7°F10.4°C 33.3°F0.7°C 51% 14.5 mph ENE23.3 kmh ENE 19.0 mph30.6 kmh 29.04 in983.4 mb 0.00 in0.0 mm 0.00 in0.0 mm 0.00 in0.0 mm
10:00 AM 50.5°F10.3°C 33.1°F0.6°C 51% 16.1 mph ENE25.9 kmh ENE 19.0 mph30.6 kmh 29.04 in983.4 mb 0.00 in0.0 mm 0.00 in0.0 mm 0.00 in0.0 mm
09:59 AM 50.4°F10.2°C 33.0°F0.6°C 51% 11.9 mph ENE19.2 kmh ENE 19.0 mph30.6 kmh 29.04 in983.4 mb 0.00 in0.0 mm 0.00 in0.0 mm 0.00 in0.0 mm
09:58 AM 50.2°F10.1°C 32.8°F0.4°C 51% 11.0 mph ENE17.7 kmh ENE 19.0 mph30.6 kmh 29.04 in983.4 mb 0.00 in0.0 mm 0.00 in0.0 mm 0.00 in0.0 mm
09:57 AM 50.2°F10.1°C 32.8°F0.4°C 51% 14.8 mph ENE23.8 kmh ENE 19.0 mph30.6 kmh 29.05 in983.7 mb 0.00 in0.0 mm 0.00 in0.0 mm 0.00 in0.0 mm
09:56 AM 49.8°F9.9°C 32.9°F0.5°C 52% 12.5 mph ENE20.1 kmh ENE 17.7 mph28.5 kmh 29.04 in983.4 mb 0.00 in0.0 mm 0.00 in0.0 mm 0.00 in0.0 mm
09:55 AM 49.8°F9.9°C 32.9°F0.5°C 52% 11.0 mph ENE17.7 kmh ENE 17.7 mph28.5 kmh 29.04 in983.4 mb 0.00 in0.0 mm 0.00 in0.0 mm 0.00 in0.0 mm
09:54 AM 49.8°F9.9°C 32.9°F0.5°C 52% 15.7 mph ENE25.3 kmh ENE 17.7 mph28.5 kmh 29.04 in983.4 mb 0.00 in0.0 mm 0.00 in0.0 mm 0.00 in0.0 mm
09:53 AM 49.6°F9.8°C 32.7°F0.4°C 52% 10.3 mph ENE16.6 kmh ENE 17.7 mph28.5 kmh 29.04 in983.4 mb 0.00 in0.0 mm 0.00 in0.0 mm 0.00 in0.0 mm
09:52 AM 49.6°F9.8°C 32.7°F0.4°C 52% 11.4 mph ENE18.3 kmh ENE 17.7 mph28.5 kmh 29.04 in983.4 mb 0.00 in0.0 mm 0.00 in0.0 mm 0.00 in0.0 mm
09:51 AM 49.6°F9.8°C 32.7°F0.4°C 52% 10.5 mph ENE16.9 kmh ENE 17.7 mph28.5 kmh 29.04 in983.4 mb 0.00 in0.0 mm 0.00 in0.0 mm 0.00 in0.0 mm
09:50 AM 49.3°F9.6°C 32.4°F0.2°C 52% 10.7 mph ENE17.2 kmh ENE 15.2 mph24.5 kmh 29.04 in983.4 mb 0.00 in0.0 mm 0.00 in0.0 mm 0.00 in0.0 mm
09:49 AM 49.3°F9.6°C 32.4°F0.2°C 52% 12.8 mph ENE20.6 kmh ENE 14.8 mph23.8 kmh 29.04 in983.4 mb 0.00 in0.0 mm 0.00 in0.0 mm 0.00 in0.0 mm
09:48 AM 49.1°F9.5°C 32.2°F0.1°C 52% 7.4 mph ENE11.9 kmh ENE 14.8 mph23.8 kmh 29.04 in983.4 mb 0.00 in0.0 mm 0.00 in0.0 mm 0.00 in0.0 mm
09:47 AM 48.9°F9.4°C 32.5°F0.3°C 53% 10.7 mph ENE17.2 kmh ENE 14.8 mph23.8 kmh 29.04 in983.4 mb 0.00 in0.0 mm 0.00 in0.0 mm 0.00 in0.0 mm
09:46 AM 48.7°F9.3°C 32.3°F0.2°C 53% 14.5 mph ENE23.3 kmh ENE 14.8 mph23.8 kmh 29.04 in983.4 mb 0.00 in0.0 mm 0.00 in0.0 mm 0.00 in0.0 mm
09:45 AM 48.6°F9.2°C 32.1°F0.1°C 53% 9.2 mph ENE14.8 kmh ENE 14.8 mph23.8 kmh 29.05 in983.7 mb 0.00 in0.0 mm 0.00 in0.0 mm 0.00 in0.0 mm
09:44 AM 48.0°F8.9°C 32.1°F0.1°C 54% 8.1 mph ENE13.0 kmh ENE 14.8 mph23.8 kmh 29.05 in983.7 mb 0.00 in0.0 mm 0.00 in0.0 mm 0.00 in0.0 mm
09:43 AM 47.8°F8.8°C 31.9°F-0.1°C 54% 10.5 mph ENE16.9 kmh ENE 14.8 mph23.8 kmh 29.05 in983.7 mb 0.00 in0.0 mm 0.00 in0.0 mm 0.00 in0.0 mm
09:42 AM 47.8°F8.8°C 31.9°F-0.1°C 54% 10.5 mph ENE16.9 kmh ENE 14.8 mph23.8 kmh 29.05 in983.7 mb 0.00 in0.0 mm 0.00 in0.0 mm 0.00 in0.0 mm
09:41 AM 47.3°F8.5°C 31.4°F-0.3°C 54% 8.3 mph ENE13.4 kmh ENE 14.8 mph23.8 kmh 29.05 in983.7 mb 0.00 in0.0 mm 0.00 in0.0 mm 0.00 in0.0 mm
09:40 AM 47.1°F8.4°C 31.7°F-0.2°C 55% 14.5 mph ENE23.3 kmh ENE 14.5 mph23.3 kmh 29.05 in983.7 mb 0.00 in0.0 mm 0.00 in0.0 mm 0.00 in0.0 mm
09:39 AM 46.8°F8.2°C 31.4°F-0.3°C 55% 6.0 mph ENE9.7 kmh ENE 14.1 mph22.7 kmh 29.05 in983.7 mb 0.00 in0.0 mm 0.00 in0.0 mm 0.00 in0.0 mm
09:38 AM 46.4°F8.0°C 31.0°F-0.6°C 55% 7.4 mph ENE11.9 kmh ENE 12.1 mph19.5 kmh 29.05 in983.7 mb 0.00 in0.0 mm 0.00 in0.0 mm 0.00 in0.0 mm
09:37 AM 46.2°F7.9°C 30.8°F-0.7°C 55% 5.4 mph E8.7 kmh E 12.1 mph19.5 kmh 29.05 in983.7 mb 0.00 in0.0 mm 0.00 in0.0 mm 0.00 in0.0 mm
09:36 AM 46.0°F7.8°C 30.7°F-0.7°C 55% 11.0 mph E17.7 kmh E 11.6 mph18.7 kmh 29.05 in983.7 mb 0.00 in0.0 mm 0.00 in0.0 mm 0.00 in0.0 mm
09:35 AM 45.7°F7.6°C 30.4°F-0.9°C 55% 5.6 mph E9.0 kmh E 11.6 mph18.7 kmh 29.05 in983.7 mb 0.00 in0.0 mm 0.00 in0.0 mm 0.00 in0.0 mm
09:34 AM 45.5°F7.5°C 30.2°F-1.0°C 55% 5.6 mph E9.0 kmh E 11.6 mph18.7 kmh 29.05 in983.7 mb 0.00 in0.0 mm 0.00 in0.0 mm 0.00 in0.0 mm
09:33 AM 45.3°F7.4°C 30.0°F-1.1°C 55% 9.6 mph E15.4 kmh E 11.6 mph18.7 kmh 29.05 in983.7 mb 0.00 in0.0 mm 0.00 in0.0 mm 0.00 in0.0 mm
09:32 AM 45.1°F7.3°C 29.9°F-1.2°C 55% 11.6 mph E18.7 kmh E 11.6 mph18.7 kmh 29.05 in983.7 mb 0.00 in0.0 mm 0.00 in0.0 mm 0.00 in0.0 mm
09:31 AM 45.1°F7.3°C 29.9°F-1.2°C 55% 4.9 mph ENE7.9 kmh ENE 11.6 mph18.7 kmh 29.05 in983.7 mb 0.00 in0.0 mm 0.00 in0.0 mm 0.00 in0.0 mm
09:30 AM 45.0°F7.2°C 30.2°F-1.0°C 56% 7.2 mph ENE11.6 kmh ENE 11.6 mph18.7 kmh 29.05 in983.7 mb 0.00 in0.0 mm 0.00 in0.0 mm 0.00 in0.0 mm
09:29 AM 45.0°F7.2°C 30.2°F-1.0°C 56% 7.4 mph ENE11.9 kmh ENE 11.6 mph18.7 kmh 29.05 in983.7 mb 0.00 in0.0 mm 0.00 in0.0 mm 0.00 in0.0 mm
09:28 AM 45.0°F7.2°C 30.2°F-1.0°C 56% 3.8 mph ENE6.1 kmh ENE 11.6 mph18.7 kmh 29.05 in983.7 mb 0.00 in0.0 mm 0.00 in0.0 mm 0.00 in0.0 mm
09:27 AM 44.8°F7.1°C 30.0°F-1.1°C 56% 7.4 mph ENE11.9 kmh ENE 11.6 mph18.7 kmh 29.05 in983.7 mb 0.00 in0.0 mm 0.00 in0.0 mm 0.00 in0.0 mm
09:26 AM 44.8°F7.1°C 30.0°F-1.1°C 56% 7.6 mph ENE12.2 kmh ENE 11.6 mph18.7 kmh 29.05 in983.7 mb 0.00 in0.0 mm 0.00 in0.0 mm 0.00 in0.0 mm
09:25 AM 44.6°F7.0°C 29.8°F-1.2°C 56% 7.8 mph ENE12.6 kmh ENE 11.6 mph18.7 kmh 29.04 in983.4 mb 0.00 in0.0 mm 0.00 in0.0 mm 0.00 in0.0 mm
09:24 AM 44.4°F6.9°C 29.7°F-1.3°C 56% 6.5 mph ENE10.5 kmh ENE 13.2 mph21.2 kmh 29.04 in983.4 mb 0.00 in0.0 mm 0.00 in0.0 mm 0.00 in0.0 mm
09:23 AM 44.4°F6.9°C 29.7°F-1.3°C 56% 8.1 mph ENE13.0 kmh ENE 13.2 mph21.2 kmh 29.04 in983.4 mb 0.00 in0.0 mm 0.00 in0.0 mm 0.00 in0.0 mm
09:22 AM 44.4°F6.9°C 29.7°F-1.3°C 56% 11.2 mph ENE18.0 kmh ENE 13.2 mph21.2 kmh 29.04 in983.4 mb 0.00 in0.0 mm 0.00 in0.0 mm 0.00 in0.0 mm
09:21 AM 44.4°F6.9°C 29.7°F-1.3°C 56% 7.2 mph ENE11.6 kmh ENE 13.2 mph21.2 kmh 29.04 in983.4 mb 0.00 in0.0 mm 0.00 in0.0 mm 0.00 in0.0 mm
09:20 AM 44.4°F6.9°C 30.1°F-1.1°C 57% 7.6 mph ENE12.2 kmh ENE 13.2 mph21.2 kmh 29.04 in983.4 mb 0.00 in0.0 mm 0.00 in0.0 mm 0.00 in0.0 mm
09:19 AM 44.2°F6.8°C 29.9°F-1.2°C 57% 11.6 mph ENE18.7 kmh ENE 13.2 mph21.2 kmh 29.05 in983.7 mb 0.00 in0.0 mm 0.00 in0.0 mm 0.00 in0.0 mm
09:18 AM 44.2°F6.8°C 29.9°F-1.2°C 57% 5.6 mph ENE9.0 kmh ENE 13.2 mph21.2 kmh 29.05 in983.7 mb 0.00 in0.0 mm 0.00 in0.0 mm 0.00 in0.0 mm
09:17 AM 44.2°F6.8°C 29.9°F-1.2°C 57% 8.5 mph ENE13.7 kmh ENE 13.2 mph21.2 kmh 29.05 in983.7 mb 0.00 in0.0 mm 0.00 in0.0 mm 0.00 in0.0 mm
09:16 AM 44.2°F6.8°C 29.9°F-1.2°C 57% 5.1 mph ENE8.2 kmh ENE 13.2 mph21.2 kmh 29.05 in983.7 mb 0.00 in0.0 mm 0.00 in0.0 mm 0.00 in0.0 mm
09:15 AM 44.1°F6.7°C 29.8°F-1.2°C 57% 7.4 mph ENE11.9 kmh ENE 13.2 mph21.2 kmh 29.05 in983.7 mb 0.00 in0.0 mm 0.00 in0.0 mm 0.00 in0.0 mm
09:14 AM 43.9°F6.6°C 29.6°F-1.3°C 57% 7.4 mph ENE11.9 kmh ENE 13.0 mph20.9 kmh 29.05 in983.7 mb 0.00 in0.0 mm 0.00 in0.0 mm 0.00 in0.0 mm
09:13 AM 43.9°F6.6°C 29.6°F-1.3°C 57% 7.6 mph ENE12.2 kmh ENE 13.0 mph20.9 kmh 29.05 in983.7 mb 0.00 in0.0 mm 0.00 in0.0 mm 0.00 in0.0 mm
09:12 AM 43.9°F6.6°C 29.6°F-1.3°C 57% 7.6 mph ENE12.2 kmh ENE 13.0 mph20.9 kmh 29.05 in983.7 mb 0.00 in0.0 mm 0.00 in0.0 mm 0.00 in0.0 mm
09:11 AM 43.7°F6.5°C 29.4°F-1.4°C 57% 8.1 mph ENE13.0 kmh ENE 13.0 mph20.9 kmh 29.05 in983.7 mb 0.00 in0.0 mm 0.00 in0.0 mm 0.00 in0.0 mm
09:10 AM 43.7°F6.5°C 29.4°F-1.4°C 57% 7.8 mph ENE12.6 kmh ENE 12.3 mph19.8 kmh 29.05 in983.7 mb 0.00 in0.0 mm 0.00 in0.0 mm 0.00 in0.0 mm
09:09 AM 43.7°F6.5°C 29.4°F-1.4°C 57% 6.5 mph ENE10.5 kmh ENE 11.4 mph18.3 kmh 29.04 in983.4 mb 0.00 in0.0 mm 0.00 in0.0 mm 0.00 in0.0 mm
09:08 AM 43.5°F6.4°C 29.2°F-1.6°C 57% 7.8 mph ENE12.6 kmh ENE 11.4 mph18.3 kmh 29.04 in983.4 mb 0.00 in0.0 mm 0.00 in0.0 mm 0.00 in0.0 mm
09:07 AM 43.5°F6.4°C 29.2°F-1.6°C 57% 6.7 mph ENE10.8 kmh ENE 11.4 mph18.3 kmh 29.04 in983.4 mb 0.00 in0.0 mm 0.00 in0.0 mm 0.00 in0.0 mm
09:06 AM 43.5°F6.4°C 29.2°F-1.6°C 57% 9.2 mph ENE14.8 kmh ENE 11.4 mph18.3 kmh 29.04 in983.4 mb 0.00 in0.0 mm 0.00 in0.0 mm 0.00 in0.0 mm
09:05 AM 43.5°F6.4°C 29.7°F-1.3°C 58% 7.2 mph ENE11.6 kmh ENE 10.5 mph16.9 kmh 29.04 in983.4 mb 0.00 in0.0 mm 0.00 in0.0 mm 0.00 in0.0 mm
09:04 AM 43.3°F6.3°C 29.5°F-1.4°C 58% 6.5 mph ENE10.5 kmh ENE 10.5 mph16.9 kmh 29.04 in983.4 mb 0.00 in0.0 mm 0.00 in0.0 mm 0.00 in0.0 mm
09:03 AM 43.3°F6.3°C 29.5°F-1.4°C 58% 5.1 mph ENE8.2 kmh ENE 10.5 mph16.9 kmh 29.04 in983.4 mb 0.00 in0.0 mm 0.00 in0.0 mm 0.00 in0.0 mm
09:02 AM 43.3°F6.3°C 29.5°F-1.4°C 58% 3.6 mph ENE5.8 kmh ENE 10.5 mph16.9 kmh 29.04 in983.4 mb 0.00 in0.0 mm 0.00 in0.0 mm 0.00 in0.0 mm
09:01 AM 43.2°F6.2°C 29.3°F-1.5°C 58% 4.3 mph ENE6.9 kmh ENE 10.5 mph16.9 kmh 29.04 in983.4 mb 0.00 in0.0 mm 0.00 in0.0 mm 0.00 in0.0 mm
09:00 AM 43.2°F6.2°C 29.3°F-1.5°C 58% 6.0 mph ENE9.7 kmh ENE 10.5 mph16.9 kmh 29.04 in983.4 mb 0.00 in0.0 mm 0.00 in0.0 mm 0.00 in0.0 mm
08:59 AM 43.0°F6.1°C 29.1°F-1.6°C 58% 5.6 mph ENE9.0 kmh ENE 10.5 mph16.9 kmh 29.04 in983.4 mb 0.00 in0.0 mm 0.00 in0.0 mm 0.00 in0.0 mm
08:58 AM 43.0°F6.1°C 29.1°F-1.6°C 58% 6.0 mph ENE9.7 kmh ENE 10.1 mph16.3 kmh 29.04 in983.4 mb 0.00 in0.0 mm 0.00 in0.0 mm 0.00 in0.0 mm
08:57 AM 43.0°F6.1°C 29.1°F-1.6°C 58% 6.7 mph ENE10.8 kmh ENE 10.1 mph16.3 kmh 29.04 in983.4 mb 0.00 in0.0 mm 0.00 in0.0 mm 0.00 in0.0 mm
08:56 AM 42.8°F6.0°C 29.0°F-1.7°C 58% 5.1 mph ENE8.2 kmh ENE 10.1 mph16.3 kmh 29.04 in983.4 mb 0.00 in0.0 mm 0.00 in0.0 mm 0.00 in0.0 mm
08:55 AM 42.6°F5.9°C 28.8°F-1.8°C 58% 6.0 mph ENE9.7 kmh ENE 10.1 mph16.3 kmh 29.04 in983.4 mb 0.00 in0.0 mm 0.00 in0.0 mm 0.00 in0.0 mm
08:54 AM 42.6°F5.9°C 28.8°F-1.8°C 58% 3.1 mph ENE5.0 kmh ENE 10.1 mph16.3 kmh 29.04 in983.4 mb 0.00 in0.0 mm 0.00 in0.0 mm 0.00 in0.0 mm
08:53 AM 42.6°F5.9°C 28.8°F-1.8°C 58% 6.9 mph ENE11.1 kmh ENE 9.8 mph15.8 kmh 29.04 in983.4 mb 0.00 in0.0 mm 0.00 in0.0 mm 0.00 in0.0 mm
08:52 AM 42.6°F5.9°C 28.8°F-1.8°C 58% 5.6 mph ENE9.0 kmh ENE 9.8 mph15.8 kmh 29.04 in983.4 mb 0.00 in0.0 mm 0.00 in0.0 mm 0.00 in0.0 mm
08:51 AM 42.4°F5.8°C 28.6°F-1.9°C 58% 7.2 mph ENE11.6 kmh ENE 9.8 mph15.8 kmh 29.04 in983.4 mb 0.00 in0.0 mm 0.00 in0.0 mm 0.00 in0.0 mm
08:50 AM 42.4°F5.8°C 28.6°F-1.9°C 58% 6.0 mph ENE9.7 kmh ENE 9.8 mph15.8 kmh 29.04 in983.4 mb 0.00 in0.0 mm 0.00 in0.0 mm 0.00 in0.0 mm
08:49 AM 42.4°F5.8°C 28.6°F-1.9°C 58% 7.6 mph ENE12.2 kmh ENE 9.8 mph15.8 kmh 29.04 in983.4 mb 0.00 in0.0 mm 0.00 in0.0 mm 0.00 in0.0 mm
08:48 AM 42.1°F5.6°C 28.3°F-2.1°C 58% 6.7 mph ENE10.8 kmh ENE 9.8 mph15.8 kmh 29.04 in983.4 mb 0.00 in0.0 mm 0.00 in0.0 mm 0.00 in0.0 mm
08:47 AM 42.1°F5.6°C 28.3°F-2.1°C 58% 6.9 mph ENE11.1 kmh ENE 9.8 mph15.8 kmh 29.04 in983.4 mb 0.00 in0.0 mm 0.00 in0.0 mm 0.00 in0.0 mm
08:46 AM 42.1°F5.6°C 28.3°F-2.1°C 58% 4.3 mph ENE6.9 kmh ENE 9.8 mph15.8 kmh 29.04 in983.4 mb 0.00 in0.0 mm 0.00 in0.0 mm 0.00 in0.0 mm
08:45 AM 42.1°F5.6°C 28.3°F-2.1°C 58% 7.4 mph ENE11.9 kmh ENE 9.8 mph15.8 kmh 29.04 in983.4 mb 0.00 in0.0 mm 0.00 in0.0 mm 0.00 in0.0 mm
08:44 AM 41.9°F5.5°C 28.1°F-2.2°C 58% 4.5 mph ENE7.2 kmh ENE 9.8 mph15.8 kmh 29.04 in983.4 mb 0.00 in0.0 mm 0.00 in0.0 mm 0.00 in0.0 mm
08:43 AM 41.9°F5.5°C 28.1°F-2.2°C 58% 5.8 mph ENE9.3 kmh ENE 8.7 mph14.0 kmh 29.04 in983.4 mb 0.00 in0.0 mm 0.00 in0.0 mm 0.00 in0.0 mm
08:42 AM 41.7°F5.4°C 28.0°F-2.2°C 58% 6.9 mph ENE11.1 kmh ENE 8.7 mph14.0 kmh 29.04 in983.4 mb 0.00 in0.0 mm 0.00 in0.0 mm 0.00 in0.0 mm
08:41 AM 41.7°F5.4°C 28.0°F-2.2°C 58% 7.2 mph ENE11.6 kmh ENE 8.7 mph14.0 kmh 29.04 in983.4 mb 0.00 in0.0 mm 0.00 in0.0 mm 0.00 in0.0 mm
08:40 AM 41.7°F5.4°C 28.0°F-2.2°C 58% 6.5 mph ENE10.5 kmh ENE 8.7 mph14.0 kmh 29.04 in983.4 mb 0.00 in0.0 mm 0.00 in0.0 mm 0.00 in0.0 mm
08:39 AM 41.5°F5.3°C 27.8°F-2.3°C 58% 2.7 mph ENE4.3 kmh ENE 8.7 mph14.0 kmh 29.04 in983.4 mb 0.00 in0.0 mm 0.00 in0.0 mm 0.00 in0.0 mm
08:38 AM 41.5°F5.3°C 27.8°F-2.3°C 58% 2.9 mph ENE4.7 kmh ENE 8.7 mph14.0 kmh 29.04 in983.4 mb 0.00 in0.0 mm 0.00 in0.0 mm 0.00 in0.0 mm
08:37 AM 41.5°F5.3°C 27.8°F-2.3°C 58% 5.6 mph ENE9.0 kmh ENE 8.7 mph14.0 kmh 29.04 in983.4 mb 0.00 in0.0 mm 0.00 in0.0 mm 0.00 in0.0 mm
08:36 AM 41.5°F5.3°C 27.8°F-2.3°C 58% 5.1 mph ENE8.2 kmh ENE 8.1 mph13.0 kmh 29.04 in983.4 mb 0.00 in0.0 mm 0.00 in0.0 mm 0.00 in0.0 mm
08:35 AM 41.5°F5.3°C 27.8°F-2.3°C 58% 5.6 mph ENE9.0 kmh ENE 8.1 mph13.0 kmh 29.04 in983.4 mb 0.00 in0.0 mm 0.00 in0.0 mm 0.00 in0.0 mm
08:34 AM 41.4°F5.2°C 27.6°F-2.4°C 58% 3.1 mph ENE5.0 kmh ENE 8.1 mph13.0 kmh 29.04 in983.4 mb 0.00 in0.0 mm 0.00 in0.0 mm 0.00 in0.0 mm
08:33 AM 41.4°F5.2°C 27.6°F-2.4°C 58% 2.2 mph ENE3.5 kmh ENE 8.1 mph13.0 kmh 29.04 in983.4 mb 0.00 in0.0 mm 0.00 in0.0 mm 0.00 in0.0 mm
08:32 AM 41.2°F5.1°C 27.5°F-2.5°C 58% 6.0 mph ENE9.7 kmh ENE 8.1 mph13.0 kmh 29.04 in983.4 mb 0.00 in0.0 mm 0.00 in0.0 mm 0.00 in0.0 mm
08:31 AM 41.2°F5.1°C 27.5°F-2.5°C 58% 6.7 mph ENE10.8 kmh ENE 8.1 mph13.0 kmh 29.04 in983.4 mb 0.00 in0.0 mm 0.00 in0.0 mm 0.00 in0.0 mm
08:30 AM 41.2°F5.1°C 27.5°F-2.5°C 58% 4.9 mph ENE7.9 kmh ENE 8.1 mph13.0 kmh 29.04 in983.4 mb 0.00 in0.0 mm 0.00 in0.0 mm 0.00 in0.0 mm
08:29 AM 41.2°F5.1°C 27.5°F-2.5°C 58% 5.1 mph ENE8.2 kmh ENE 8.1 mph13.0 kmh 29.04 in983.4 mb 0.00 in0.0 mm 0.00 in0.0 mm 0.00 in0.0 mm
08:28 AM 41.2°F5.1°C 27.5°F-2.5°C 58% 4.9 mph ENE7.9 kmh ENE 8.1 mph13.0 kmh 29.04 in983.4 mb 0.00 in0.0 mm 0.00 in0.0 mm 0.00 in0.0 mm
08:27 AM 41.0°F5.0°C 27.3°F-2.6°C 58% 5.6 mph ENE9.0 kmh ENE 8.1 mph13.0 kmh 29.04 in983.4 mb 0.00 in0.0 mm 0.00 in0.0 mm 0.00 in0.0 mm
08:26 AM 41.0°F5.0°C 27.3°F-2.6°C 58% 3.6 mph ENE5.8 kmh ENE 7.4 mph11.9 kmh 29.04 in983.4 mb 0.00 in0.0 mm 0.00 in0.0 mm 0.00 in0.0 mm
08:25 AM 40.8°F4.9°C 27.1°F-2.7°C 58% 4.9 mph ENE7.9 kmh ENE 7.4 mph11.9 kmh 29.04 in983.4 mb 0.00 in0.0 mm 0.00 in0.0 mm 0.00 in0.0 mm
08:24 AM 40.8°F4.9°C 27.1°F-2.7°C 58% 2.5 mph ENE4.0 kmh ENE 7.4 mph11.9 kmh 29.04 in983.4 mb 0.00 in0.0 mm 0.00 in0.0 mm 0.00 in0.0 mm
08:23 AM 40.8°F4.9°C 27.1°F-2.7°C 58% 2.7 mph ENE4.3 kmh ENE 7.4 mph11.9 kmh 29.04 in983.4 mb 0.00 in0.0 mm 0.00 in0.0 mm 0.00 in0.0 mm
08:22 AM 40.8°F4.9°C 27.1°F-2.7°C 58% 3.8 mph ENE6.1 kmh ENE 6.7 mph10.8 kmh 29.04 in983.4 mb 0.00 in0.0 mm 0.00 in0.0 mm 0.00 in0.0 mm
08:21 AM 40.8°F4.9°C 27.1°F-2.7°C 58% 3.8 mph ENE6.1 kmh ENE 6.7 mph10.8 kmh 29.04 in983.4 mb 0.00 in0.0 mm 0.00 in0.0 mm 0.00 in0.0 mm
08:20 AM 40.8°F4.9°C 27.1°F-2.7°C 58% 4.5 mph E7.2 kmh E 6.7 mph10.8 kmh 29.04 in983.4 mb 0.00 in0.0 mm 0.00 in0.0 mm 0.00 in0.0 mm
08:19 AM 40.8°F4.9°C 27.1°F-2.7°C 58% 1.8 mph E2.9 kmh E 6.7 mph10.8 kmh 29.04 in983.4 mb 0.00 in0.0 mm 0.00 in0.0 mm 0.00 in0.0 mm
08:18 AM 40.8°F4.9°C 27.1°F-2.7°C 58% 4.3 mph E6.9 kmh E 6.7 mph10.8 kmh 29.04 in983.4 mb 0.00 in0.0 mm 0.00 in0.0 mm 0.00 in0.0 mm
08:17 AM 40.8°F4.9°C 27.1°F-2.7°C 58% 3.6 mph E5.8 kmh E 6.5 mph10.5 kmh 29.04 in983.4 mb 0.00 in0.0 mm 0.00 in0.0 mm 0.00 in0.0 mm
08:16 AM 40.8°F4.9°C 27.1°F-2.7°C 58% 1.3 mph E2.1 kmh E 6.5 mph10.5 kmh 29.04 in983.4 mb 0.00 in0.0 mm 0.00 in0.0 mm 0.00 in0.0 mm
08:15 AM 40.8°F4.9°C 27.1°F-2.7°C 58% 2.9 mph E4.7 kmh E 6.5 mph10.5 kmh 29.04 in983.4 mb 0.00 in0.0 mm 0.00 in0.0 mm 0.00 in0.0 mm
08:14 AM 40.6°F4.8°C 27.0°F-2.8°C 58% 5.4 mph E8.7 kmh E 6.5 mph10.5 kmh 29.04 in983.4 mb 0.00 in0.0 mm 0.00 in0.0 mm 0.00 in0.0 mm
08:13 AM 40.8°F4.9°C 27.1°F-2.7°C 58% 2.2 mph E3.5 kmh E 6.5 mph10.5 kmh 29.04 in983.4 mb 0.00 in0.0 mm 0.00 in0.0 mm 0.00 in0.0 mm
08:12 AM 40.6°F4.8°C 27.0°F-2.8°C 58% 1.3 mph E2.1 kmh E 6.5 mph10.5 kmh 29.04 in983.4 mb 0.00 in0.0 mm 0.00 in0.0 mm 0.00 in0.0 mm
08:11 AM 40.6°F4.8°C 27.0°F-2.8°C 58% 4.9 mph E7.9 kmh E 6.5 mph10.5 kmh 29.04 in983.4 mb 0.00 in0.0 mm 0.00 in0.0 mm 0.00 in0.0 mm
08:10 AM 40.6°F4.8°C 27.0°F-2.8°C 58% 4.3 mph E6.9 kmh E 5.8 mph9.3 kmh 29.04 in983.4 mb 0.00 in0.0 mm 0.00 in0.0 mm 0.00 in0.0 mm
08:09 AM 40.6°F4.8°C 27.0°F-2.8°C 58% 1.8 mph E2.9 kmh E 5.8 mph9.3 kmh 29.04 in983.4 mb 0.00 in0.0 mm 0.00 in0.0 mm 0.00 in0.0 mm
08:08 AM 40.6°F4.8°C 27.0°F-2.8°C 58% 5.8 mph E9.3 kmh E 5.8 mph9.3 kmh 29.04 in983.4 mb 0.00 in0.0 mm 0.00 in0.0 mm 0.00 in0.0 mm
08:07 AM 40.6°F4.8°C 27.0°F-2.8°C 58% 1.1 mph E1.8 kmh E 5.1 mph8.2 kmh 29.03 in983.1 mb 0.00 in0.0 mm 0.00 in0.0 mm 0.00 in0.0 mm
08:06 AM 40.6°F4.8°C 27.0°F-2.8°C 58% 2.0 mph E3.2 kmh E 5.1 mph8.2 kmh 29.03 in983.1 mb 0.00 in0.0 mm 0.00 in0.0 mm 0.00 in0.0 mm
08:05 AM 40.6°F4.8°C 27.0°F-2.8°C 58% 2.2 mph E3.5 kmh E 5.1 mph8.2 kmh 29.03 in983.1 mb 0.00 in0.0 mm 0.00 in0.0 mm 0.00 in0.0 mm
08:04 AM 40.6°F4.8°C 27.0°F-2.8°C 58% 1.8 mph E2.9 kmh E 5.1 mph8.2 kmh 29.03 in983.1 mb 0.00 in0.0 mm 0.00 in0.0 mm 0.00 in0.0 mm
08:03 AM 40.6°F4.8°C 27.0°F-2.8°C 58% 1.1 mph E1.8 kmh E 5.1 mph8.2 kmh 29.03 in983.1 mb 0.00 in0.0 mm 0.00 in0.0 mm 0.00 in0.0 mm
08:02 AM 40.5°F4.7°C 26.8°F-2.9°C 58% 2.7 mph E4.3 kmh E 5.6 mph9.0 kmh 29.03 in983.1 mb 0.00 in0.0 mm 0.00 in0.0 mm 0.00 in0.0 mm
08:01 AM 40.5°F4.7°C 26.8°F-2.9°C 58% 3.1 mph E5.0 kmh E 5.6 mph9.0 kmh 29.03 in983.1 mb 0.00 in0.0 mm 0.00 in0.0 mm 0.00 in0.0 mm
08:00 AM 40.5°F4.7°C 26.8°F-2.9°C 58% 2.2 mph E3.5 kmh E 5.6 mph9.0 kmh 29.03 in983.1 mb 0.00 in0.0 mm 0.00 in0.0 mm 0.00 in0.0 mm
07:59 AM 40.5°F4.7°C 26.8°F-2.9°C 58% 3.4 mph E5.5 kmh E 5.6 mph9.0 kmh 29.03 in983.1 mb 0.00 in0.0 mm 0.00 in0.0 mm 0.00 in0.0 mm
07:58 AM 40.5°F4.7°C 26.8°F-2.9°C 58% 2.5 mph E4.0 kmh E 5.6 mph9.0 kmh 29.03 in983.1 mb 0.00 in0.0 mm 0.00 in0.0 mm 0.00 in0.0 mm
07:57 AM 40.5°F4.7°C 26.8°F-2.9°C 58% 2.0 mph E3.2 kmh E 5.6 mph9.0 kmh 29.03 in983.1 mb 0.00 in0.0 mm 0.00 in0.0 mm 0.00 in0.0 mm
07:56 AM 40.5°F4.7°C 26.8°F-2.9°C 58% 2.9 mph E4.7 kmh E 5.6 mph9.0 kmh 29.03 in983.1 mb 0.00 in0.0 mm 0.00 in0.0 mm 0.00 in0.0 mm
07:55 AM 40.3°F4.6°C 26.6°F-3.0°C 58% 2.0 mph E3.2 kmh E 6.9 mph11.1 kmh 29.03 in983.1 mb 0.00 in0.0 mm 0.00 in0.0 mm 0.00 in0.0 mm
07:54 AM 40.3°F4.6°C 26.6°F-3.0°C 58% 2.0 mph E3.2 kmh E 6.9 mph11.1 kmh 29.03 in983.1 mb 0.00 in0.0 mm 0.00 in0.0 mm 0.00 in0.0 mm
07:53 AM 40.3°F4.6°C 26.6°F-3.0°C 58% 1.8 mph E2.9 kmh E 6.9 mph11.1 kmh 29.03 in983.1 mb 0.00 in0.0 mm 0.00 in0.0 mm 0.00 in0.0 mm
07:52 AM 40.3°F4.6°C 26.6°F-3.0°C 58% 4.3 mph E6.9 kmh E 6.9 mph11.1 kmh 29.03 in983.1 mb 0.00 in0.0 mm 0.00 in0.0 mm 0.00 in0.0 mm
07:51 AM 40.3°F4.6°C 26.6°F-3.0°C 58% 2.7 mph E4.3 kmh E 6.9 mph11.1 kmh 29.03 in983.1 mb 0.00 in0.0 mm 0.00 in0.0 mm 0.00 in0.0 mm
07:50 AM 40.3°F4.6°C 26.6°F-3.0°C 58% 2.5 mph E4.0 kmh E 6.9 mph11.1 kmh 29.03 in983.1 mb 0.00 in0.0 mm 0.00 in0.0 mm 0.00 in0.0 mm
07:49 AM 40.3°F4.6°C 26.6°F-3.0°C 58% 4.3 mph E6.9 kmh E 6.9 mph11.1 kmh 29.03 in983.1 mb 0.00 in0.0 mm 0.00 in0.0 mm 0.00 in0.0 mm
07:48 AM 40.3°F4.6°C 26.6°F-3.0°C 58% 3.6 mph E5.8 kmh E 6.9 mph11.1 kmh 29.03 in983.1 mb 0.00 in0.0 mm 0.00 in0.0 mm 0.00 in0.0 mm
07:47 AM 40.3°F4.6°C 26.6°F-3.0°C 58% 0.9 mph E1.4 kmh E 6.9 mph11.1 kmh 29.03 in983.1 mb 0.00 in0.0 mm 0.00 in0.0 mm 0.00 in0.0 mm
07:46 AM 40.3°F4.6°C 26.6°F-3.0°C 58% 6.9 mph E11.1 kmh E 6.9 mph11.1 kmh 29.03 in983.1 mb 0.00 in0.0 mm 0.00 in0.0 mm 0.00 in0.0 mm
07:45 AM 40.3°F4.6°C 26.6°F-3.0°C 58% 1.3 mph E2.1 kmh E 6.3 mph10.1 kmh 29.03 in983.1 mb 0.00 in0.0 mm 0.00 in0.0 mm 0.00 in0.0 mm
07:44 AM 40.3°F4.6°C 26.6°F-3.0°C 58% 3.4 mph E5.5 kmh E 6.9 mph11.1 kmh 29.03 in983.1 mb 0.00 in0.0 mm 0.00 in0.0 mm 0.00 in0.0 mm
07:43 AM 40.3°F4.6°C 26.6°F-3.0°C 58% 3.1 mph E5.0 kmh E 6.9 mph11.1 kmh 29.03 in983.1 mb 0.00 in0.0 mm 0.00 in0.0 mm 0.00 in0.0 mm
07:42 AM 40.1°F4.5°C 26.4°F-3.1°C 58% 4.3 mph E6.9 kmh E 6.9 mph11.1 kmh 29.03 in983.1 mb 0.00 in0.0 mm 0.00 in0.0 mm 0.00 in0.0 mm
07:41 AM 40.1°F4.5°C 26.4°F-3.1°C 58% 4.9 mph E7.9 kmh E 6.9 mph11.1 kmh 29.03 in983.1 mb 0.00 in0.0 mm 0.00 in0.0 mm 0.00 in0.0 mm
07:40 AM 40.1°F4.5°C 26.4°F-3.1°C 58% 3.8 mph E6.1 kmh E 6.9 mph11.1 kmh 29.03 in983.1 mb 0.00 in0.0 mm 0.00 in0.0 mm 0.00 in0.0 mm
07:39 AM 40.1°F4.5°C 26.4°F-3.1°C 58% 4.9 mph E7.9 kmh E 6.9 mph11.1 kmh 29.03 in983.1 mb 0.00 in0.0 mm 0.00 in0.0 mm 0.00 in0.0 mm
07:38 AM 40.1°F4.5°C 26.4°F-3.1°C 58% 6.0 mph E9.7 kmh E 6.9 mph11.1 kmh 29.03 in983.1 mb 0.00 in0.0 mm 0.00 in0.0 mm 0.00 in0.0 mm
07:37 AM 40.3°F4.6°C 26.6°F-3.0°C 58% 4.3 mph E6.9 kmh E 6.9 mph11.1 kmh 29.03 in983.1 mb 0.00 in0.0 mm 0.00 in0.0 mm 0.00 in0.0 mm
07:36 AM 40.1°F4.5°C 26.4°F-3.1°C 58% 3.4 mph E5.5 kmh E 6.9 mph11.1 kmh 29.03 in983.1 mb 0.00 in0.0 mm 0.00 in0.0 mm 0.00 in0.0 mm
07:35 AM 40.1°F4.5°C 26.4°F-3.1°C 58% 4.7 mph E7.6 kmh E 6.9 mph11.1 kmh 29.02 in982.7 mb 0.00 in0.0 mm 0.00 in0.0 mm 0.00 in0.0 mm
07:34 AM 40.1°F4.5°C 26.4°F-3.1°C 58% 5.1 mph E8.2 kmh E 5.4 mph8.7 kmh 29.02 in982.7 mb 0.00 in0.0 mm 0.00 in0.0 mm 0.00 in0.0 mm
07:33 AM 40.1°F4.5°C 26.4°F-3.1°C 58% 2.5 mph E4.0 kmh E 5.4 mph8.7 kmh 29.02 in982.7 mb 0.00 in0.0 mm 0.00 in0.0 mm 0.00 in0.0 mm
07:32 AM 40.1°F4.5°C 26.4°F-3.1°C 58% 2.5 mph E4.0 kmh E 5.4 mph8.7 kmh 29.02 in982.7 mb 0.00 in0.0 mm 0.00 in0.0 mm 0.00 in0.0 mm
07:31 AM 40.1°F4.5°C 26.4°F-3.1°C 58% 3.4 mph E5.5 kmh E 5.4 mph8.7 kmh 29.02 in982.7 mb 0.00 in0.0 mm 0.00 in0.0 mm 0.00 in0.0 mm
07:30 AM 40.1°F4.5°C 26.4°F-3.1°C 58% 1.3 mph E2.1 kmh E 5.4 mph8.7 kmh 29.02 in982.7 mb 0.00 in0.0 mm 0.00 in0.0 mm 0.00 in0.0 mm
07:29 AM 40.1°F4.5°C 26.4°F-3.1°C 58% Calm Calm 5.4 mph8.7 kmh 29.02 in982.7 mb 0.00 in0.0 mm 0.00 in0.0 mm 0.00 in0.0 mm
07:28 AM 40.1°F4.5°C 26.4°F-3.1°C 58% Calm Calm 5.4 mph8.7 kmh 29.02 in982.7 mb 0.00 in0.0 mm 0.00 in0.0 mm 0.00 in0.0 mm
07:27 AM 40.1°F4.5°C 26.4°F-3.1°C 58% 2.5 mph E4.0 kmh E 5.4 mph8.7 kmh 29.02 in982.7 mb 0.00 in0.0 mm 0.00 in0.0 mm 0.00 in0.0 mm
07:26 AM 40.1°F4.5°C 26.4°F-3.1°C 58% Calm Calm 6.5 mph10.5 kmh 29.02 in982.7 mb 0.00 in0.0 mm 0.00 in0.0 mm 0.00 in0.0 mm
07:25 AM 40.1°F4.5°C 26.4°F-3.1°C 58% 2.7 mph E4.3 kmh E 6.5 mph10.5 kmh 29.02 in982.7 mb 0.00 in0.0 mm 0.00 in0.0 mm 0.00 in0.0 mm
07:24 AM 40.1°F4.5°C 26.4°F-3.1°C 58% Calm Calm 7.4 mph11.9 kmh 29.02 in982.7 mb 0.00 in0.0 mm 0.00 in0.0 mm 0.00 in0.0 mm
07:23 AM 40.1°F4.5°C 26.4°F-3.1°C 58% Calm Calm 7.4 mph11.9 kmh 29.02 in982.7 mb 0.00 in0.0 mm 0.00 in0.0 mm 0.00 in0.0 mm
07:22 AM 40.1°F4.5°C 26.4°F-3.1°C 58% 1.6 mph E2.6 kmh E 7.4 mph11.9 kmh 29.03 in983.1 mb 0.00 in0.0 mm 0.00 in0.0 mm 0.00 in0.0 mm
07:21 AM 40.1°F4.5°C 26.4°F-3.1°C 58% 3.4 mph E5.5 kmh E 7.4 mph11.9 kmh 29.02 in982.7 mb 0.00 in0.0 mm 0.00 in0.0 mm 0.00 in0.0 mm
07:20 AM 40.1°F4.5°C 26.4°F-3.1°C 58% 2.9 mph E4.7 kmh E 7.4 mph11.9 kmh 29.02 in982.7 mb 0.00 in0.0 mm 0.00 in0.0 mm 0.00 in0.0 mm
07:19 AM 40.1°F4.5°C 26.4°F-3.1°C 58% 2.7 mph E4.3 kmh E 7.4 mph11.9 kmh 29.02 in982.7 mb 0.00 in0.0 mm 0.00 in0.0 mm 0.00 in0.0 mm
07:18 AM 40.1°F4.5°C 26.4°F-3.1°C 58% Calm Calm 7.4 mph11.9 kmh 29.02 in982.7 mb 0.00 in0.0 mm 0.00 in0.0 mm 0.00 in0.0 mm
07:17 AM 40.1°F4.5°C 26.4°F-3.1°C 58% 4.0 mph E6.4 kmh E 7.4 mph11.9 kmh 29.02 in982.7 mb 0.00 in0.0 mm 0.00 in0.0 mm 0.00 in0.0 mm
07:16 AM 40.1°F4.5°C 26.4°F-3.1°C 58% 5.6 mph E9.0 kmh E 7.4 mph11.9 kmh 29.02 in982.7 mb 0.00 in0.0 mm 0.00 in0.0 mm 0.00 in0.0 mm
07:15 AM 40.1°F4.5°C 26.4°F-3.1°C 58% 3.1 mph E5.0 kmh E 7.4 mph11.9 kmh 29.02 in982.7 mb 0.00 in0.0 mm 0.00 in0.0 mm 0.00 in0.0 mm
07:14 AM 40.1°F4.5°C 26.4°F-3.1°C 58% 3.6 mph E5.8 kmh E 7.4 mph11.9 kmh 29.02 in982.7 mb 0.00 in0.0 mm 0.00 in0.0 mm 0.00 in0.0 mm
07:13 AM 40.1°F4.5°C 26.4°F-3.1°C 58% 4.0 mph E6.4 kmh E 7.4 mph11.9 kmh 29.01 in982.4 mb 0.00 in0.0 mm 0.00 in0.0 mm 0.00 in0.0 mm
07:12 AM 39.9°F4.4°C 26.3°F-3.2°C 58% 1.1 mph E1.8 kmh E 7.4 mph11.9 kmh 29.02 in982.7 mb 0.00 in0.0 mm 0.00 in0.0 mm 0.00 in0.0 mm
07:11 AM 39.9°F4.4°C 26.3°F-3.2°C 58% 2.7 mph E4.3 kmh E 7.6 mph12.2 kmh 29.01 in982.4 mb 0.00 in0.0 mm 0.00 in0.0 mm 0.00 in0.0 mm
07:10 AM 40.1°F4.5°C 26.4°F-3.1°C 58% 6.7 mph E10.8 kmh E 7.6 mph12.2 kmh 29.01 in982.4 mb 0.00 in0.0 mm 0.00 in0.0 mm 0.00 in0.0 mm
07:09 AM 40.1°F4.5°C 26.4°F-3.1°C 58% 1.8 mph E2.9 kmh E 7.6 mph12.2 kmh 29.01 in982.4 mb 0.00 in0.0 mm 0.00 in0.0 mm 0.00 in0.0 mm
07:08 AM 39.9°F4.4°C 26.3°F-3.2°C 58% 7.4 mph E11.9 kmh E 7.6 mph12.2 kmh 29.01 in982.4 mb 0.00 in0.0 mm 0.00 in0.0 mm 0.00 in0.0 mm
07:07 AM 39.9°F4.4°C 26.3°F-3.2°C 58% 4.3 mph E6.9 kmh E 7.6 mph12.2 kmh 29.01 in982.4 mb 0.00 in0.0 mm 0.00 in0.0 mm 0.00 in0.0 mm
07:06 AM 39.9°F4.4°C 26.3°F-3.2°C 58% 1.8 mph E2.9 kmh E 7.6 mph12.2 kmh 29.01 in982.4 mb 0.00 in0.0 mm 0.00 in0.0 mm 0.00 in0.0 mm
07:05 AM 39.9°F4.4°C 26.3°F-3.2°C 58% 2.2 mph E3.5 kmh E 7.6 mph12.2 kmh 29.01 in982.4 mb 0.00 in0.0 mm 0.00 in0.0 mm 0.00 in0.0 mm
07:04 AM 39.9°F4.4°C 26.3°F-3.2°C 58% 3.8 mph E6.1 kmh E 7.6 mph12.2 kmh 29.01 in982.4 mb 0.00 in0.0 mm 0.00 in0.0 mm 0.00 in0.0 mm
07:03 AM 39.9°F4.4°C 26.3°F-3.2°C 58% 3.8 mph E6.1 kmh E 7.6 mph12.2 kmh 29.01 in982.4 mb 0.00 in0.0 mm 0.00 in0.0 mm 0.00 in0.0 mm
07:02 AM 39.9°F4.4°C 26.3°F-3.2°C 58% 5.8 mph E9.3 kmh E 7.6 mph12.2 kmh 29.01 in982.4 mb 0.00 in0.0 mm 0.00 in0.0 mm 0.00 in0.0 mm
07:01 AM 39.9°F4.4°C 26.3°F-3.2°C 58% 1.3 mph E2.1 kmh E 6.0 mph9.7 kmh 29.01 in982.4 mb 0.00 in0.0 mm 0.00 in0.0 mm 0.00 in0.0 mm
07:00 AM 39.9°F4.4°C 26.3°F-3.2°C 58% 2.2 mph E3.5 kmh E 6.5 mph10.5 kmh 29.01 in982.4 mb 0.00 in0.0 mm 0.00 in0.0 mm 0.00 in0.0 mm
06:59 AM 39.9°F4.4°C 26.3°F-3.2°C 58% 1.1 mph E1.8 kmh E 6.5 mph10.5 kmh 29.01 in982.4 mb 0.00 in0.0 mm 0.00 in0.0 mm 0.00 in0.0 mm
06:58 AM 39.9°F4.4°C 26.3°F-3.2°C 58% 4.3 mph E6.9 kmh E 6.5 mph10.5 kmh 29.01 in982.4 mb 0.00 in0.0 mm 0.00 in0.0 mm 0.00 in0.0 mm
06:57 AM 39.9°F4.4°C 26.3°F-3.2°C 58% 4.0 mph E6.4 kmh E 6.5 mph10.5 kmh 29.01 in982.4 mb 0.00 in0.0 mm 0.00 in0.0 mm 0.00 in0.0 mm
06:56 AM 39.9°F4.4°C 26.3°F-3.2°C 58% 3.6 mph E5.8 kmh E 6.5 mph10.5 kmh 29.01 in982.4 mb 0.00 in0.0 mm 0.00 in0.0 mm 0.00 in0.0 mm
06:55 AM 39.9°F4.4°C 26.3°F-3.2°C 58% 3.1 mph E5.0 kmh E 6.5 mph10.5 kmh 29.01 in982.4 mb 0.00 in0.0 mm 0.00 in0.0 mm 0.00 in0.0 mm
06:54 AM 39.9°F4.4°C 26.3°F-3.2°C 58% 2.2 mph E3.5 kmh E 6.5 mph10.5 kmh 29.01 in982.4 mb 0.00 in0.0 mm 0.00 in0.0 mm 0.00 in0.0 mm
06:53 AM 39.9°F4.4°C 26.3°F-3.2°C 58% 3.8 mph E6.1 kmh E 6.5 mph10.5 kmh 29.01 in982.4 mb 0.00 in0.0 mm 0.00 in0.0 mm 0.00 in0.0 mm
06:52 AM 39.9°F4.4°C 26.3°F-3.2°C 58% 2.5 mph E4.0 kmh E 6.5 mph10.5 kmh 29.01 in982.4 mb 0.00 in0.0 mm 0.00 in0.0 mm 0.00 in0.0 mm
06:51 AM 39.9°F4.4°C 26.3°F-3.2°C 58% 5.4 mph E8.7 kmh E 6.5 mph10.5 kmh 29.01 in982.4 mb 0.00 in0.0 mm 0.00 in0.0 mm 0.00 in0.0 mm
06:50 AM 39.9°F4.4°C 26.3°F-3.2°C 58% 1.8 mph E2.9 kmh E 6.5 mph10.5 kmh 29.01 in982.4 mb 0.00 in0.0 mm 0.00 in0.0 mm 0.00 in0.0 mm
06:49 AM 39.9°F4.4°C 26.3°F-3.2°C 58% 4.9 mph E7.9 kmh E 6.5 mph10.5 kmh 29.01 in982.4 mb 0.00 in0.0 mm 0.00 in0.0 mm 0.00 in0.0 mm
06:48 AM 39.9°F4.4°C 26.3°F-3.2°C 58% 3.1 mph E5.0 kmh E 6.5 mph10.5 kmh 29.01 in982.4 mb 0.00 in0.0 mm 0.00 in0.0 mm 0.00 in0.0 mm
06:47 AM 39.9°F4.4°C 26.3°F-3.2°C 58% 2.9 mph E4.7 kmh E 6.3 mph10.1 kmh 29.01 in982.4 mb 0.00 in0.0 mm 0.00 in0.0 mm 0.00 in0.0 mm
06:46 AM 39.9°F4.4°C 26.3°F-3.2°C 58% 4.5 mph E7.2 kmh E 6.3 mph10.1 kmh 29.00 in982.1 mb 0.00 in0.0 mm 0.00 in0.0 mm 0.00 in0.0 mm
06:45 AM 39.9°F4.4°C 26.3°F-3.2°C 58% 1.8 mph E2.9 kmh E 6.3 mph10.1 kmh 29.00 in982.1 mb 0.00 in0.0 mm 0.00 in0.0 mm 0.00 in0.0 mm
06:44 AM 39.9°F4.4°C 26.3°F-3.2°C 58% 3.8 mph E6.1 kmh E 6.3 mph10.1 kmh 29.00 in982.1 mb 0.00 in0.0 mm 0.00 in0.0 mm 0.00 in0.0 mm
06:43 AM 39.9°F4.4°C 26.3°F-3.2°C 58% 4.5 mph E7.2 kmh E 6.3 mph10.1 kmh 29.00 in982.1 mb 0.00 in0.0 mm 0.00 in0.0 mm 0.00 in0.0 mm
06:42 AM 39.9°F4.4°C 26.3°F-3.2°C 58% 0.9 mph E1.4 kmh E 6.0 mph9.7 kmh 29.00 in982.1 mb 0.00 in0.0 mm 0.00 in0.0 mm 0.00 in0.0 mm
06:41 AM 39.9°F4.4°C 26.3°F-3.2°C 58% 1.8 mph E2.9 kmh E 6.0 mph9.7 kmh 29.00 in982.1 mb 0.00 in0.0 mm 0.00 in0.0 mm 0.00 in0.0 mm
06:40 AM 39.9°F4.4°C 26.3°F-3.2°C 58% 3.6 mph E5.8 kmh E 6.0 mph9.7 kmh 29.00 in982.1 mb 0.00 in0.0 mm 0.00 in0.0 mm 0.00 in0.0 mm
06:39 AM 39.9°F4.4°C 26.3°F-3.2°C 58% 3.1 mph E5.0 kmh E 6.0 mph9.7 kmh 29.00 in982.1 mb 0.00 in0.0 mm 0.00 in0.0 mm 0.00 in0.0 mm
06:38 AM 39.9°F4.4°C 26.3°F-3.2°C 58% 2.7 mph E4.3 kmh E 6.0 mph9.7 kmh 28.99 in981.7 mb 0.00 in0.0 mm 0.00 in0.0 mm 0.00 in0.0 mm
06:37 AM 39.9°F4.4°C 26.3°F-3.2°C 58% Calm Calm 6.9 mph11.1 kmh 29.00 in982.1 mb 0.00 in0.0 mm 0.00 in0.0 mm 0.00 in0.0 mm
06:36 AM 39.9°F4.4°C 26.3°F-3.2°C 58% 1.3 mph E2.1 kmh E 6.9 mph11.1 kmh 29.00 in982.1 mb 0.00 in0.0 mm 0.00 in0.0 mm 0.00 in0.0 mm
06:35 AM 39.9°F4.4°C 26.3°F-3.2°C 58% 1.8 mph E2.9 kmh E 7.6 mph12.2 kmh 29.00 in982.1 mb 0.00 in0.0 mm 0.00 in0.0 mm 0.00 in0.0 mm
06:34 AM 39.9°F4.4°C 26.3°F-3.2°C 58% 2.9 mph E4.7 kmh E 7.6 mph12.2 kmh 29.00 in982.1 mb 0.00 in0.0 mm 0.00 in0.0 mm 0.00 in0.0 mm
06:33 AM 40.1°F4.5°C 26.4°F-3.1°C 58% 5.4 mph E8.7 kmh E 7.6 mph12.2 kmh 29.00 in982.1 mb 0.00 in0.0 mm 0.00 in0.0 mm 0.00 in0.0 mm
06:32 AM 39.9°F4.4°C 26.3°F-3.2°C 58% 3.8 mph E6.1 kmh E 7.6 mph12.2 kmh 29.00 in982.1 mb 0.00 in0.0 mm 0.00 in0.0 mm 0.00 in0.0 mm
06:31 AM 39.9°F4.4°C 26.3°F-3.2°C 58% Calm Calm 7.6 mph12.2 kmh 29.00 in982.1 mb 0.00 in0.0 mm 0.00 in0.0 mm 0.00 in0.0 mm
06:30 AM 39.9°F4.4°C 26.3°F-3.2°C 58% Calm Calm 7.6 mph12.2 kmh 29.00 in982.1 mb 0.00 in0.0 mm 0.00 in0.0 mm 0.00 in0.0 mm
06:29 AM 40.1°F4.5°C 26.4°F-3.1°C 58% 2.9 mph E4.7 kmh E 7.6 mph12.2 kmh 29.00 in982.1 mb 0.00 in0.0 mm 0.00 in0.0 mm 0.00 in0.0 mm
06:28 AM 40.1°F4.5°C 26.4°F-3.1°C 58% 2.9 mph E4.7 kmh E 7.6 mph12.2 kmh 29.00 in982.1 mb 0.00 in0.0 mm 0.00 in0.0 mm 0.00 in0.0 mm
06:27 AM 39.9°F4.4°C 26.3°F-3.2°C 58% 5.8 mph E9.3 kmh E 7.6 mph12.2 kmh 29.00 in982.1 mb 0.00 in0.0 mm 0.00 in0.0 mm 0.00 in0.0 mm
06:26 AM 39.9°F4.4°C 26.3°F-3.2°C 58% 6.0 mph E9.7 kmh E 7.6 mph12.2 kmh 29.00 in982.1 mb 0.00 in0.0 mm 0.00 in0.0 mm 0.00 in0.0 mm
06:25 AM 40.1°F4.5°C 26.4°F-3.1°C 58% 4.3 mph E6.9 kmh E 7.6 mph12.2 kmh 29.00 in982.1 mb 0.00 in0.0 mm 0.00 in0.0 mm 0.00 in0.0 mm
06:24 AM 39.9°F4.4°C 26.3°F-3.2°C 58% 2.5 mph E4.0 kmh E 7.6 mph12.2 kmh 29.00 in982.1 mb 0.00 in0.0 mm 0.00 in0.0 mm 0.00 in0.0 mm
06:23 AM 39.9°F4.4°C 26.3°F-3.2°C 58% 1.1 mph E1.8 kmh E 7.6 mph12.2 kmh 29.00 in982.1 mb 0.00 in0.0 mm 0.00 in0.0 mm 0.00 in0.0 mm
06:22 AM 39.9°F4.4°C 26.3°F-3.2°C 58% 7.6 mph E12.2 kmh E 7.6 mph12.2 kmh 29.00 in982.1 mb 0.00 in0.0 mm 0.00 in0.0 mm 0.00 in0.0 mm
06:21 AM 39.9°F4.4°C 26.3°F-3.2°C 58% 4.0 mph E6.4 kmh E 7.2 mph11.6 kmh 29.00 in982.1 mb 0.00 in0.0 mm 0.00 in0.0 mm 0.00 in0.0 mm
06:20 AM 39.9°F4.4°C 26.3°F-3.2°C 58% 6.5 mph E10.5 kmh E 7.4 mph11.9 kmh 28.99 in981.7 mb 0.00 in0.0 mm 0.00 in0.0 mm 0.00 in0.0 mm
06:19 AM 39.9°F4.4°C 26.3°F-3.2°C 58% 4.3 mph E6.9 kmh E 7.4 mph11.9 kmh 28.99 in981.7 mb 0.00 in0.0 mm 0.00 in0.0 mm 0.00 in0.0 mm
06:18 AM 39.9°F4.4°C 26.3°F-3.2°C 58% 3.6 mph E5.8 kmh E 9.4 mph15.1 kmh 28.98 in981.4 mb 0.00 in0.0 mm 0.00 in0.0 mm 0.00 in0.0 mm
06:17 AM 39.9°F4.4°C 26.3°F-3.2°C 58% 1.3 mph E2.1 kmh E 9.4 mph15.1 kmh 28.98 in981.4 mb 0.00 in0.0 mm 0.00 in0.0 mm 0.00 in0.0 mm
06:16 AM 39.9°F4.4°C 26.3°F-3.2°C 58% 2.2 mph E3.5 kmh E 9.4 mph15.1 kmh 28.98 in981.4 mb 0.00 in0.0 mm 0.00 in0.0 mm 0.00 in0.0 mm
06:15 AM 39.9°F4.4°C 26.3°F-3.2°C 58% 1.1 mph E1.8 kmh E 9.4 mph15.1 kmh 28.98 in981.4 mb 0.00 in0.0 mm 0.00 in0.0 mm 0.00 in0.0 mm
06:14 AM 39.9°F4.4°C 26.3°F-3.2°C 58% 2.7 mph E4.3 kmh E 9.4 mph15.1 kmh 28.98 in981.4 mb 0.00 in0.0 mm 0.00 in0.0 mm 0.00 in0.0 mm
06:13 AM 39.9°F4.4°C 26.3°F-3.2°C 58% 2.7 mph E4.3 kmh E 9.4 mph15.1 kmh 28.98 in981.4 mb 0.00 in0.0 mm 0.00 in0.0 mm 0.00 in0.0 mm
06:12 AM 39.9°F4.4°C 26.3°F-3.2°C 58% 4.7 mph E7.6 kmh E 9.4 mph15.1 kmh 28.99 in981.7 mb 0.00 in0.0 mm 0.00 in0.0 mm 0.00 in0.0 mm
06:11 AM 39.9°F4.4°C 26.3°F-3.2°C 58% 7.4 mph E11.9 kmh E 9.4 mph15.1 kmh 28.99 in981.7 mb 0.00 in0.0 mm 0.00 in0.0 mm 0.00 in0.0 mm
06:10 AM 39.9°F4.4°C 26.3°F-3.2°C 58% 6.0 mph E9.7 kmh E 9.4 mph15.1 kmh 28.98 in981.4 mb 0.00 in0.0 mm 0.00 in0.0 mm 0.00 in0.0 mm
06:09 AM 39.9°F4.4°C 26.3°F-3.2°C 58% 9.4 mph E15.1 kmh E 9.4 mph15.1 kmh 28.98 in981.4 mb 0.00 in0.0 mm 0.00 in0.0 mm 0.00 in0.0 mm
06:08 AM 39.9°F4.4°C 26.3°F-3.2°C 58% 3.4 mph E5.5 kmh E 9.2 mph14.8 kmh 28.98 in981.4 mb 0.00 in0.0 mm 0.00 in0.0 mm 0.00 in0.0 mm
06:07 AM 39.9°F4.4°C 26.3°F-3.2°C 58% 6.0 mph E9.7 kmh E 9.2 mph14.8 kmh 28.98 in981.4 mb 0.00 in0.0 mm 0.00 in0.0 mm 0.00 in0.0 mm
06:06 AM 39.9°F4.4°C 26.3°F-3.2°C 58% 4.7 mph E7.6 kmh E 9.2 mph14.8 kmh 28.98 in981.4 mb 0.00 in0.0 mm 0.00 in0.0 mm 0.00 in0.0 mm
06:05 AM 39.9°F4.4°C 26.3°F-3.2°C 58% 4.9 mph E7.9 kmh E 11.4 mph18.3 kmh 28.98 in981.4 mb 0.00 in0.0 mm 0.00 in0.0 mm 0.00 in0.0 mm
06:04 AM 39.9°F4.4°C 26.3°F-3.2°C 58% 3.6 mph E5.8 kmh E 11.4 mph18.3 kmh 28.98 in981.4 mb 0.00 in0.0 mm 0.00 in0.0 mm 0.00 in0.0 mm
06:03 AM 39.9°F4.4°C 26.3°F-3.2°C 58% 7.8 mph E12.6 kmh E 11.4 mph18.3 kmh 28.98 in981.4 mb 0.00 in0.0 mm 0.00 in0.0 mm 0.00 in0.0 mm
06:02 AM 39.9°F4.4°C 26.3°F-3.2°C 58% 4.0 mph E6.4 kmh E 11.4 mph18.3 kmh 28.98 in981.4 mb 0.00 in0.0 mm 0.00 in0.0 mm 0.00 in0.0 mm
06:01 AM 39.9°F4.4°C 26.3°F-3.2°C 58% 4.5 mph E7.2 kmh E 11.4 mph18.3 kmh 28.99 in981.7 mb 0.00 in0.0 mm 0.00 in0.0 mm 0.00 in0.0 mm
06:00 AM 39.7°F4.3°C 26.1°F-3.3°C 58% 2.5 mph E4.0 kmh E 11.4 mph18.3 kmh 28.99 in981.7 mb 0.00 in0.0 mm 0.00 in0.0 mm 0.00 in0.0 mm
05:59 AM 39.9°F4.4°C 26.3°F-3.2°C 58% 3.4 mph E5.5 kmh E 11.4 mph18.3 kmh 28.99 in981.7 mb 0.00 in0.0 mm 0.00 in0.0 mm 0.00 in0.0 mm
05:58 AM 39.9°F4.4°C 26.3°F-3.2°C 58% 4.5 mph E7.2 kmh E 11.4 mph18.3 kmh 28.99 in981.7 mb 0.00 in0.0 mm 0.00 in0.0 mm 0.00 in0.0 mm
05:57 AM 39.9°F4.4°C 26.3°F-3.2°C 58% 3.4 mph E5.5 kmh E 11.4 mph18.3 kmh 28.99 in981.7 mb 0.00 in0.0 mm 0.00 in0.0 mm 0.00 in0.0 mm
05:56 AM 39.9°F4.4°C 26.3°F-3.2°C 58% 7.2 mph E11.6 kmh E 11.4 mph18.3 kmh 28.99 in981.7 mb 0.00 in0.0 mm 0.00 in0.0 mm 0.00 in0.0 mm
05:55 AM 39.9°F4.4°C 26.3°F-3.2°C 58% 1.3 mph E2.1 kmh E 8.7 mph14.0 kmh 28.99 in981.7 mb 0.00 in0.0 mm 0.00 in0.0 mm 0.00 in0.0 mm
05:54 AM 39.9°F4.4°C 26.3°F-3.2°C 58% 8.3 mph E13.4 kmh E 8.7 mph14.0 kmh 28.99 in981.7 mb 0.00 in0.0 mm 0.00 in0.0 mm 0.00 in0.0 mm
05:53 AM 39.9°F4.4°C 26.3°F-3.2°C 58% 4.9 mph E7.9 kmh E 8.7 mph14.0 kmh 28.99 in981.7 mb 0.00 in0.0 mm 0.00 in0.0 mm 0.00 in0.0 mm
05:52 AM 39.9°F4.4°C 26.3°F-3.2°C 58% 8.5 mph E13.7 kmh E 9.2 mph14.8 kmh 28.99 in981.7 mb 0.00 in0.0 mm 0.00 in0.0 mm 0.00 in0.0 mm
05:51 AM 39.9°F4.4°C 26.3°F-3.2°C 58% 3.8 mph E6.1 kmh E 9.2 mph14.8 kmh 28.99 in981.7 mb 0.00 in0.0 mm 0.00 in0.0 mm 0.00 in0.0 mm
05:50 AM 39.9°F4.4°C 26.3°F-3.2°C 58% 4.7 mph E7.6 kmh E 9.2 mph14.8 kmh 28.99 in981.7 mb 0.00 in0.0 mm 0.00 in0.0 mm 0.00 in0.0 mm
05:49 AM 39.9°F4.4°C 26.3°F-3.2°C 58% 3.1 mph E5.0 kmh E 9.2 mph14.8 kmh 28.99 in981.7 mb 0.00 in0.0 mm 0.00 in0.0 mm 0.00 in0.0 mm
05:48 AM 39.9°F4.4°C 26.3°F-3.2°C 58% 7.4 mph E11.9 kmh E 10.7 mph17.2 kmh 28.99 in981.7 mb 0.00 in0.0 mm 0.00 in0.0 mm 0.00 in0.0 mm
05:47 AM 39.9°F4.4°C 26.3°F-3.2°C 58% 4.5 mph E7.2 kmh E 10.7 mph17.2 kmh 28.99 in981.7 mb 0.00 in0.0 mm 0.00 in0.0 mm 0.00 in0.0 mm
05:46 AM 39.9°F4.4°C 26.3°F-3.2°C 58% 5.6 mph E9.0 kmh E 10.7 mph17.2 kmh 28.99 in981.7 mb 0.00 in0.0 mm 0.00 in0.0 mm 0.00 in0.0 mm
05:45 AM 39.9°F4.4°C 26.3°F-3.2°C 58% 6.0 mph E9.7 kmh E 10.7 mph17.2 kmh 28.99 in981.7 mb 0.00 in0.0 mm 0.00 in0.0 mm 0.00 in0.0 mm
05:44 AM 39.9°F4.4°C 26.3°F-3.2°C 58% 5.8 mph E9.3 kmh E 10.7 mph17.2 kmh 28.99 in981.7 mb 0.00 in0.0 mm 0.00 in0.0 mm 0.00 in0.0 mm
05:43 AM 39.7°F4.3°C 26.1°F-3.3°C 58% 7.8 mph E12.6 kmh E 10.7 mph17.2 kmh 28.99 in981.7 mb 0.00 in0.0 mm 0.00 in0.0 mm 0.00 in0.0 mm
05:42 AM 39.7°F4.3°C 26.1°F-3.3°C 58% 5.6 mph E9.0 kmh E 10.7 mph17.2 kmh 28.99 in981.7 mb 0.00 in0.0 mm 0.00 in0.0 mm 0.00 in0.0 mm
05:41 AM 39.7°F4.3°C 26.1°F-3.3°C 58% 3.1 mph E5.0 kmh E 10.7 mph17.2 kmh 28.99 in981.7 mb 0.00 in0.0 mm 0.00 in0.0 mm 0.00 in0.0 mm
05:40 AM 39.7°F4.3°C 26.1°F-3.3°C 58% 6.9 mph E11.1 kmh E 10.7 mph17.2 kmh 28.99 in981.7 mb 0.00 in0.0 mm 0.00 in0.0 mm 0.00 in0.0 mm
05:39 AM 39.7°F4.3°C 26.1°F-3.3°C 58% 5.8 mph E9.3 kmh E 10.7 mph17.2 kmh 28.99 in981.7 mb 0.00 in0.0 mm 0.00 in0.0 mm 0.00 in0.0 mm
05:38 AM 39.7°F4.3°C 26.1°F-3.3°C 58% 6.3 mph E10.1 kmh E 8.9 mph14.3 kmh 28.99 in981.7 mb 0.00 in0.0 mm 0.00 in0.0 mm 0.00 in0.0 mm
05:37 AM 39.7°F4.3°C 26.1°F-3.3°C 58% 2.0 mph E3.2 kmh E 8.9 mph14.3 kmh 28.99 in981.7 mb 0.00 in0.0 mm 0.00 in0.0 mm 0.00 in0.0 mm
05:36 AM 39.7°F4.3°C 26.1°F-3.3°C 58% 5.4 mph E8.7 kmh E 8.9 mph14.3 kmh 28.99 in981.7 mb 0.00 in0.0 mm 0.00 in0.0 mm 0.00 in0.0 mm
05:35 AM 39.7°F4.3°C 26.1°F-3.3°C 58% 8.9 mph ESE14.3 kmh ESE 8.9 mph14.3 kmh 28.99 in981.7 mb 0.00 in0.0 mm 0.00 in0.0 mm 0.00 in0.0 mm
05:34 AM 39.7°F4.3°C 26.1°F-3.3°C 58% 2.5 mph ESE4.0 kmh ESE 8.1 mph13.0 kmh 28.99 in981.7 mb 0.00 in0.0 mm 0.00 in0.0 mm 0.00 in0.0 mm
05:33 AM 39.7°F4.3°C 26.1°F-3.3°C 58% 3.6 mph ESE5.8 kmh ESE 8.1 mph13.0 kmh 28.99 in981.7 mb 0.00 in0.0 mm 0.00 in0.0 mm 0.00 in0.0 mm
05:32 AM 39.7°F4.3°C 26.1°F-3.3°C 58% 5.1 mph ESE8.2 kmh ESE 8.1 mph13.0 kmh 28.98 in981.4 mb 0.00 in0.0 mm 0.00 in0.0 mm 0.00 in0.0 mm
05:31 AM 39.7°F4.3°C 26.1°F-3.3°C 58% 2.9 mph ESE4.7 kmh ESE 8.1 mph13.0 kmh 28.99 in981.7 mb 0.00 in0.0 mm 0.00 in0.0 mm 0.00 in0.0 mm
05:30 AM 39.7°F4.3°C 26.1°F-3.3°C 58% 7.2 mph ESE11.6 kmh ESE 8.1 mph13.0 kmh 28.99 in981.7 mb 0.00 in0.0 mm 0.00 in0.0 mm 0.00 in0.0 mm
05:29 AM 39.7°F4.3°C 26.1°F-3.3°C 58% 3.1 mph ESE5.0 kmh ESE 7.4 mph11.9 kmh 28.98 in981.4 mb 0.00 in0.0 mm 0.00 in0.0 mm 0.00 in0.0 mm
05:28 AM 39.7°F4.3°C 26.1°F-3.3°C 58% 3.8 mph ESE6.1 kmh ESE 10.1 mph16.3 kmh 28.98 in981.4 mb 0.00 in0.0 mm 0.00 in0.0 mm 0.00 in0.0 mm
05:27 AM 39.7°F4.3°C 26.1°F-3.3°C 58% 3.1 mph ESE5.0 kmh ESE 10.1 mph16.3 kmh 28.99 in981.7 mb 0.00 in0.0 mm 0.00 in0.0 mm 0.00 in0.0 mm
05:26 AM 39.7°F4.3°C 26.1°F-3.3°C 58% 4.5 mph SE7.2 kmh SE 10.1 mph16.3 kmh 28.98 in981.4 mb 0.00 in0.0 mm 0.00 in0.0 mm 0.00 in0.0 mm
05:25 AM 39.7°F4.3°C 26.1°F-3.3°C 58% 5.4 mph SE8.7 kmh SE 10.1 mph16.3 kmh 28.99 in981.7 mb 0.00 in0.0 mm 0.00 in0.0 mm 0.00 in0.0 mm
05:24 AM 39.7°F4.3°C 26.1°F-3.3°C 58% 1.3 mph SE2.1 kmh SE 10.7 mph17.2 kmh 28.98 in981.4 mb 0.00 in0.0 mm 0.00 in0.0 mm 0.00 in0.0 mm
05:23 AM 39.7°F4.3°C 26.1°F-3.3°C 58% 0.9 mph SE1.4 kmh SE 10.7 mph17.2 kmh 28.99 in981.7 mb 0.00 in0.0 mm 0.00 in0.0 mm 0.00 in0.0 mm
05:22 AM 39.7°F4.3°C 26.1°F-3.3°C 58% 2.5 mph SE4.0 kmh SE 10.7 mph17.2 kmh 28.99 in981.7 mb 0.00 in0.0 mm 0.00 in0.0 mm 0.00 in0.0 mm
05:21 AM 39.7°F4.3°C 26.1°F-3.3°C 58% Calm Calm 10.7 mph17.2 kmh 28.99 in981.7 mb 0.00 in0.0 mm 0.00 in0.0 mm 0.00 in0.0 mm
05:20 AM 39.9°F4.4°C 26.3°F-3.2°C 58% 0.9 mph SE1.4 kmh SE 10.7 mph17.2 kmh 28.99 in981.7 mb 0.00 in0.0 mm 0.00 in0.0 mm 0.00 in0.0 mm
05:19 AM 39.7°F4.3°C 26.1°F-3.3°C 58% 4.3 mph SE6.9 kmh SE 10.7 mph17.2 kmh 28.99 in981.7 mb 0.00 in0.0 mm 0.00 in0.0 mm 0.00 in0.0 mm
05:18 AM 39.7°F4.3°C 26.1°F-3.3°C 58% 3.1 mph SE5.0 kmh SE 11.9 mph19.2 kmh 28.99 in981.7 mb 0.00 in0.0 mm 0.00 in0.0 mm 0.00 in0.0 mm
05:17 AM 39.7°F4.3°C 26.1°F-3.3°C 58% 3.4 mph SE5.5 kmh SE 11.9 mph19.2 kmh 28.99 in981.7 mb 0.00 in0.0 mm 0.00 in0.0 mm 0.00 in0.0 mm
05:16 AM 39.7°F4.3°C 26.1°F-3.3°C 58% 4.0 mph SE6.4 kmh SE 11.9 mph19.2 kmh 28.99 in981.7 mb 0.00 in0.0 mm 0.00 in0.0 mm 0.00 in0.0 mm
05:15 AM 39.7°F4.3°C 26.1°F-3.3°C 58% 3.6 mph SE5.8 kmh SE 11.9 mph19.2 kmh 28.99 in981.7 mb 0.00 in0.0 mm 0.00 in0.0 mm 0.00 in0.0 mm
05:14 AM 39.9°F4.4°C 26.3°F-3.2°C 58% 4.5 mph SE7.2 kmh SE 14.3 mph23.0 kmh 28.99 in981.7 mb 0.00 in0.0 mm 0.00 in0.0 mm 0.00 in0.0 mm
05:13 AM 39.7°F4.3°C 26.1°F-3.3°C 58% 5.1 mph SE8.2 kmh SE 14.3 mph23.0 kmh 28.99 in981.7 mb 0.00 in0.0 mm 0.00 in0.0 mm 0.00 in0.0 mm
05:12 AM 39.7°F4.3°C 26.1°F-3.3°C 58% 5.1 mph SE8.2 kmh SE 14.3 mph23.0 kmh 28.98 in981.4 mb 0.00 in0.0 mm 0.00 in0.0 mm 0.00 in0.0 mm
05:11 AM 39.7°F4.3°C 26.1°F-3.3°C 58% 8.5 mph SE13.7 kmh SE 14.3 mph23.0 kmh 28.98 in981.4 mb 0.00 in0.0 mm 0.00 in0.0 mm 0.00 in0.0 mm
05:10 AM 39.7°F4.3°C 26.1°F-3.3°C 58% 6.9 mph SE11.1 kmh SE 14.3 mph23.0 kmh 28.98 in981.4 mb 0.00 in0.0 mm 0.00 in0.0 mm 0.00 in0.0 mm
05:09 AM 39.7°F4.3°C 26.1°F-3.3°C 58% 7.6 mph SE12.2 kmh SE 14.3 mph23.0 kmh 28.99 in981.7 mb 0.00 in0.0 mm 0.00 in0.0 mm 0.00 in0.0 mm
05:08 AM 39.7°F4.3°C 26.1°F-3.3°C 58% 11.9 mph SE19.2 kmh SE 14.3 mph23.0 kmh 28.99 in981.7 mb 0.00 in0.0 mm 0.00 in0.0 mm 0.00 in0.0 mm
05:07 AM 39.7°F4.3°C 26.1°F-3.3°C 58% 2.5 mph SE4.0 kmh SE 14.3 mph23.0 kmh 28.98 in981.4 mb 0.00 in0.0 mm 0.00 in0.0 mm 0.00 in0.0 mm
05:06 AM 39.7°F4.3°C 26.1°F-3.3°C 58% 6.0 mph SE9.7 kmh SE 14.3 mph23.0 kmh 28.98 in981.4 mb 0.00 in0.0 mm 0.00 in0.0 mm 0.00 in0.0 mm
05:05 AM 39.7°F4.3°C 26.1°F-3.3°C 58% 11.9 mph SE19.2 kmh SE 14.3 mph23.0 kmh 28.98 in981.4 mb 0.00 in0.0 mm 0.00 in0.0 mm 0.00 in0.0 mm
05:04 AM 39.7°F4.3°C 26.1°F-3.3°C 58% 6.7 mph SE10.8 kmh SE 16.6 mph26.7 kmh 28.98 in981.4 mb 0.00 in0.0 mm 0.00 in0.0 mm 0.00 in0.0 mm
05:03 AM 39.7°F4.3°C 26.1°F-3.3°C 58% 10.5 mph SE16.9 kmh SE 16.6 mph26.7 kmh 28.98 in981.4 mb 0.00 in0.0 mm 0.00 in0.0 mm 0.00 in0.0 mm
05:02 AM 39.7°F4.3°C 26.1°F-3.3°C 58% 3.8 mph SE6.1 kmh SE 16.6 mph26.7 kmh 28.98 in981.4 mb 0.00 in0.0 mm 0.00 in0.0 mm 0.00 in0.0 mm
05:01 AM 39.7°F4.3°C 26.1°F-3.3°C 58% 4.7 mph SE7.6 kmh SE 16.6 mph26.7 kmh 28.98 in981.4 mb 0.00 in0.0 mm 0.00 in0.0 mm 0.00 in0.0 mm
05:00 AM 39.7°F4.3°C 26.1°F-3.3°C 58% 4.0 mph SE6.4 kmh SE 16.6 mph26.7 kmh 28.98 in981.4 mb 0.00 in0.0 mm 0.00 in0.0 mm 0.00 in0.0 mm
04:59 AM 39.7°F4.3°C 26.1°F-3.3°C 58% 4.5 mph SE7.2 kmh SE 16.6 mph26.7 kmh 28.98 in981.4 mb 0.00 in0.0 mm 0.00 in0.0 mm 0.00 in0.0 mm
04:58 AM 39.7°F4.3°C 26.1°F-3.3°C 58% 3.8 mph SE6.1 kmh SE 16.6 mph26.7 kmh 28.98 in981.4 mb 0.00 in0.0 mm 0.00 in0.0 mm 0.00 in0.0 mm
04:57 AM 39.7°F4.3°C 26.1°F-3.3°C 58% 7.2 mph SSE11.6 kmh SSE 16.6 mph26.7 kmh 28.98 in981.4 mb 0.00 in0.0 mm 0.00 in0.0 mm 0.00 in0.0 mm
04:56 AM 39.7°F4.3°C 26.1°F-3.3°C 58% 8.7 mph SE14.0 kmh SE 16.6 mph26.7 kmh 28.98 in981.4 mb 0.00 in0.0 mm 0.00 in0.0 mm 0.00 in0.0 mm
04:55 AM 39.7°F4.3°C 26.1°F-3.3°C 58% 11.2 mph SE18.0 kmh SE 16.6 mph26.7 kmh 28.98 in981.4 mb 0.00 in0.0 mm 0.00 in0.0 mm 0.00 in0.0 mm
04:54 AM 39.7°F4.3°C 26.1°F-3.3°C 58% 9.8 mph SSE15.8 kmh SSE 16.6 mph26.7 kmh 28.98 in981.4 mb 0.00 in0.0 mm 0.00 in0.0 mm 0.00 in0.0 mm
04:53 AM 39.7°F4.3°C 26.1°F-3.3°C 58% 11.9 mph SE19.2 kmh SE 16.6 mph26.7 kmh 28.98 in981.4 mb 0.00 in0.0 mm 0.00 in0.0 mm 0.00 in0.0 mm
04:52 AM 39.7°F4.3°C 26.1°F-3.3°C 58% 16.6 mph SE26.7 kmh SE 16.6 mph26.7 kmh 28.98 in981.4 mb 0.00 in0.0 mm 0.00 in0.0 mm 0.00 in0.0 mm
04:51 AM 39.6°F4.2°C 25.9°F-3.4°C 58% 6.9 mph SE11.1 kmh SE 16.6 mph26.7 kmh 28.98 in981.4 mb 0.00 in0.0 mm 0.00 in0.0 mm 0.00 in0.0 mm
04:50 AM 39.6°F4.2°C 25.9°F-3.4°C 58% 5.6 mph SE9.0 kmh SE 16.6 mph26.7 kmh 28.98 in981.4 mb 0.00 in0.0 mm 0.00 in0.0 mm 0.00 in0.0 mm
04:49 AM 39.6°F4.2°C 25.9°F-3.4°C 58% 6.3 mph SSE10.1 kmh SSE 16.6 mph26.7 kmh 28.98 in981.4 mb 0.00 in0.0 mm 0.00 in0.0 mm 0.00 in0.0 mm
04:48 AM 39.6°F4.2°C 25.9°F-3.4°C 58% 8.5 mph SE13.7 kmh SE 16.6 mph26.7 kmh 28.99 in981.7 mb 0.00 in0.0 mm 0.00 in0.0 mm 0.00 in0.0 mm
04:47 AM 39.6°F4.2°C 25.9°F-3.4°C 58% 6.0 mph SE9.7 kmh SE 16.6 mph26.7 kmh 28.98 in981.4 mb 0.00 in0.0 mm 0.00 in0.0 mm 0.00 in0.0 mm
04:46 AM 39.6°F4.2°C 25.9°F-3.4°C 58% 5.1 mph SE8.2 kmh SE 16.6 mph26.7 kmh 28.98 in981.4 mb 0.00 in0.0 mm 0.00 in0.0 mm 0.00 in0.0 mm
04:45 AM 39.6°F4.2°C 25.9°F-3.4°C 58% 3.6 mph SSE5.8 kmh SSE 17.2 mph27.7 kmh 28.98 in981.4 mb 0.00 in0.0 mm 0.00 in0.0 mm 0.00 in0.0 mm
04:44 AM 39.6°F4.2°C 25.9°F-3.4°C 58% 6.9 mph SE11.1 kmh SE 17.2 mph27.7 kmh 28.98 in981.4 mb 0.00 in0.0 mm 0.00 in0.0 mm 0.00 in0.0 mm
04:43 AM 39.4°F4.1°C 25.7°F-3.5°C 58% 8.9 mph SE14.3 kmh SE 17.2 mph27.7 kmh 28.98 in981.4 mb 0.00 in0.0 mm 0.00 in0.0 mm 0.00 in0.0 mm
04:42 AM 39.6°F4.2°C 25.9°F-3.4°C 58% 11.9 mph SE19.2 kmh SE 17.2 mph27.7 kmh 28.98 in981.4 mb 0.00 in0.0 mm 0.00 in0.0 mm 0.00 in0.0 mm
04:41 AM 39.6°F4.2°C 25.9°F-3.4°C 58% 10.3 mph SE16.6 kmh SE 17.2 mph27.7 kmh 28.98 in981.4 mb 0.00 in0.0 mm 0.00 in0.0 mm 0.00 in0.0 mm
04:40 AM 39.4°F4.1°C 25.7°F-3.5°C 58% 10.1 mph SE16.3 kmh SE 17.2 mph27.7 kmh 28.98 in981.4 mb 0.00 in0.0 mm 0.00 in0.0 mm 0.00 in0.0 mm
04:39 AM 39.4°F4.1°C 25.7°F-3.5°C 58% 16.1 mph SE25.9 kmh SE 17.2 mph27.7 kmh 28.98 in981.4 mb 0.00 in0.0 mm 0.00 in0.0 mm 0.00 in0.0 mm
04:38 AM 39.4°F4.1°C 25.7°F-3.5°C 58% 12.3 mph SE19.8 kmh SE 17.2 mph27.7 kmh 28.98 in981.4 mb 0.00 in0.0 mm 0.00 in0.0 mm 0.00 in0.0 mm
04:37 AM 39.4°F4.1°C 25.7°F-3.5°C 58% 10.1 mph SE16.3 kmh SE 17.2 mph27.7 kmh 28.98 in981.4 mb 0.00 in0.0 mm 0.00 in0.0 mm 0.00 in0.0 mm
04:36 AM 39.4°F4.1°C 25.7°F-3.5°C 58% 9.2 mph SE14.8 kmh SE 17.2 mph27.7 kmh 28.98 in981.4 mb 0.00 in0.0 mm 0.00 in0.0 mm 0.00 in0.0 mm
04:35 AM 39.4°F4.1°C 25.7°F-3.5°C 58% 6.3 mph SE10.1 kmh SE 15.9 mph25.6 kmh 28.98 in981.4 mb 0.00 in0.0 mm 0.00 in0.0 mm 0.00 in0.0 mm
04:34 AM 39.4°F4.1°C 25.7°F-3.5°C 58% 10.5 mph SE16.9 kmh SE 15.9 mph25.6 kmh 28.98 in981.4 mb 0.00 in0.0 mm 0.00 in0.0 mm 0.00 in0.0 mm
04:33 AM 39.4°F4.1°C 25.7°F-3.5°C 58% 9.4 mph SE15.1 kmh SE 15.9 mph25.6 kmh 28.98 in981.4 mb 0.00 in0.0 mm 0.00 in0.0 mm 0.00 in0.0 mm
04:32 AM 39.4°F4.1°C 25.7°F-3.5°C 58% 8.7 mph SE14.0 kmh SE 15.9 mph25.6 kmh 28.98 in981.4 mb 0.00 in0.0 mm 0.00 in0.0 mm 0.00 in0.0 mm
04:31 AM 39.4°F4.1°C 25.7°F-3.5°C 58% 10.3 mph SE16.6 kmh SE 15.9 mph25.6 kmh 28.98 in981.4 mb 0.00 in0.0 mm 0.00 in0.0 mm 0.00 in0.0 mm
04:30 AM 39.4°F4.1°C 25.7°F-3.5°C 58% 10.3 mph SE16.6 kmh SE 15.9 mph25.6 kmh 28.98 in981.4 mb 0.00 in0.0 mm 0.00 in0.0 mm 0.00 in0.0 mm
04:29 AM 39.4°F4.1°C 25.7°F-3.5°C 58% 9.4 mph SE15.1 kmh SE 15.9 mph25.6 kmh 28.98 in981.4 mb 0.00 in0.0 mm 0.00 in0.0 mm 0.00 in0.0 mm
04:28 AM 39.4°F4.1°C 25.7°F-3.5°C 58% 6.3 mph SE10.1 kmh SE 14.1 mph22.7 kmh 28.98 in981.4 mb 0.00 in0.0 mm 0.00 in0.0 mm 0.00 in0.0 mm
04:27 AM 39.4°F4.1°C 25.7°F-3.5°C 58% 5.4 mph SE8.7 kmh SE 14.1 mph22.7 kmh 28.98 in981.4 mb 0.00 in0.0 mm 0.00 in0.0 mm 0.00 in0.0 mm
04:26 AM 39.2°F4.0°C 25.6°F-3.6°C 58% 12.1 mph SE19.5 kmh SE 14.1 mph22.7 kmh 28.98 in981.4 mb 0.00 in0.0 mm 0.00 in0.0 mm 0.00 in0.0 mm
04:25 AM 39.2°F4.0°C 25.6°F-3.6°C 58% 12.1 mph SSE19.5 kmh SSE 14.1 mph22.7 kmh 28.98 in981.4 mb 0.00 in0.0 mm 0.00 in0.0 mm 0.00 in0.0 mm
04:24 AM 39.0°F3.9°C 25.4°F-3.7°C 58% 12.1 mph SSE19.5 kmh SSE 14.3 mph23.0 kmh 28.98 in981.4 mb 0.00 in0.0 mm 0.00 in0.0 mm 0.00 in0.0 mm
04:23 AM 39.0°F3.9°C 25.4°F-3.7°C 58% 13.9 mph SSE22.4 kmh SSE 14.3 mph23.0 kmh 28.98 in981.4 mb 0.00 in0.0 mm 0.00 in0.0 mm 0.00 in0.0 mm
04:22 AM 39.0°F3.9°C 25.4°F-3.7°C 58% 8.7 mph SE14.0 kmh SE 14.3 mph23.0 kmh 28.98 in981.4 mb 0.00 in0.0 mm 0.00 in0.0 mm 0.00 in0.0 mm
04:21 AM 39.0°F3.9°C 25.4°F-3.7°C 58% 13.4 mph SE21.6 kmh SE 14.3 mph23.0 kmh 28.98 in981.4 mb 0.00 in0.0 mm 0.00 in0.0 mm 0.00 in0.0 mm
04:20 AM 39.0°F3.9°C 25.4°F-3.7°C 58% 10.1 mph SE16.3 kmh SE 14.3 mph23.0 kmh 28.98 in981.4 mb 0.00 in0.0 mm 0.00 in0.0 mm 0.00 in0.0 mm
04:19 AM 39.0°F3.9°C 25.4°F-3.7°C 58% 12.3 mph SE19.8 kmh SE 14.3 mph23.0 kmh 28.98 in981.4 mb 0.00 in0.0 mm 0.00 in0.0 mm 0.00 in0.0 mm
04:18 AM 39.0°F3.9°C 25.4°F-3.7°C 58% 6.3 mph SSE10.1 kmh SSE 14.3 mph23.0 kmh 28.98 in981.4 mb 0.00 in0.0 mm 0.00 in0.0 mm 0.00 in0.0 mm
04:17 AM 39.0°F3.9°C 25.4°F-3.7°C 58% 8.9 mph SE14.3 kmh SE 14.3 mph23.0 kmh 28.98 in981.4 mb 0.00 in0.0 mm 0.00 in0.0 mm 0.00 in0.0 mm
04:16 AM 39.0°F3.9°C 25.4°F-3.7°C 58% 11.9 mph SE19.2 kmh SE 14.3 mph23.0 kmh 28.98 in981.4 mb 0.00 in0.0 mm 0.00 in0.0 mm 0.00 in0.0 mm
04:15 AM 39.0°F3.9°C 25.4°F-3.7°C 58% 7.6 mph SE12.2 kmh SE 14.3 mph23.0 kmh 28.98 in981.4 mb 0.00 in0.0 mm 0.00 in0.0 mm 0.00 in0.0 mm
04:14 AM 39.0°F3.9°C 25.4°F-3.7°C 58% 7.2 mph SE11.6 kmh SE 13.4 mph21.6 kmh 28.98 in981.4 mb 0.00 in0.0 mm 0.00 in0.0 mm 0.00 in0.0 mm
04:13 AM 39.0°F3.9°C 25.4°F-3.7°C 58% 12.3 mph SE19.8 kmh SE 13.4 mph21.6 kmh 28.98 in981.4 mb 0.00 in0.0 mm 0.00 in0.0 mm 0.00 in0.0 mm
04:12 AM 39.0°F3.9°C 25.4°F-3.7°C 58% 7.6 mph SE12.2 kmh SE 13.4 mph21.6 kmh 28.98 in981.4 mb 0.00 in0.0 mm 0.00 in0.0 mm 0.00 in0.0 mm
04:11 AM 39.0°F3.9°C 25.4°F-3.7°C 58% 9.6 mph SE15.4 kmh SE 13.4 mph21.6 kmh 28.98 in981.4 mb 0.00 in0.0 mm 0.00 in0.0 mm 0.00 in0.0 mm
04:10 AM 39.0°F3.9°C 25.4°F-3.7°C 58% 4.9 mph SE7.9 kmh SE 13.4 mph21.6 kmh 28.98 in981.4 mb 0.00 in0.0 mm 0.00 in0.0 mm 0.00 in0.0 mm
04:09 AM 39.0°F3.9°C 25.4°F-3.7°C 58% 4.3 mph SE6.9 kmh SE 13.4 mph21.6 kmh 28.98 in981.4 mb 0.00 in0.0 mm 0.00 in0.0 mm 0.00 in0.0 mm
04:08 AM 39.0°F3.9°C 25.4°F-3.7°C 58% 5.6 mph SE9.0 kmh SE 13.2 mph21.2 kmh 28.98 in981.4 mb 0.00 in0.0 mm 0.00 in0.0 mm 0.00 in0.0 mm
04:07 AM 39.0°F3.9°C 25.4°F-3.7°C 58% 6.3 mph SE10.1 kmh SE 13.2 mph21.2 kmh 28.98 in981.4 mb 0.00 in0.0 mm 0.00 in0.0 mm 0.00 in0.0 mm
04:06 AM 39.0°F3.9°C 25.4°F-3.7°C 58% 6.3 mph SE10.1 kmh SE 17.0 mph27.4 kmh 28.98 in981.4 mb 0.00 in0.0 mm 0.00 in0.0 mm 0.00 in0.0 mm
04:05 AM 39.0°F3.9°C 25.4°F-3.7°C 58% 8.9 mph SE14.3 kmh SE 17.0 mph27.4 kmh 28.98 in981.4 mb 0.00 in0.0 mm 0.00 in0.0 mm 0.00 in0.0 mm
04:04 AM 38.8°F3.8°C 25.2°F-3.8°C 58% 3.8 mph SE6.1 kmh SE 17.0 mph27.4 kmh 28.98 in981.4 mb 0.00 in0.0 mm 0.00 in0.0 mm 0.00 in0.0 mm
04:03 AM 38.8°F3.8°C 25.7°F-3.5°C 59% 8.3 mph SSE13.4 kmh SSE 17.0 mph27.4 kmh 28.98 in981.4 mb 0.00 in0.0 mm 0.00 in0.0 mm 0.00 in0.0 mm
04:02 AM 38.8°F3.8°C 25.7°F-3.5°C 59% 7.6 mph SSE12.2 kmh SSE 17.0 mph27.4 kmh 28.98 in981.4 mb 0.00 in0.0 mm 0.00 in0.0 mm 0.00 in0.0 mm
04:01 AM 38.8°F3.8°C 25.7°F-3.5°C 59% 11.6 mph SSE18.7 kmh SSE 17.0 mph27.4 kmh 28.98 in981.4 mb 0.00 in0.0 mm 0.00 in0.0 mm 0.00 in0.0 mm
04:00 AM 38.8°F3.8°C 25.7°F-3.5°C 59% 11.0 mph SSE17.7 kmh SSE 17.0 mph27.4 kmh 28.98 in981.4 mb 0.00 in0.0 mm 0.00 in0.0 mm 0.00 in0.0 mm
03:59 AM 38.8°F3.8°C 25.7°F-3.5°C 59% 6.0 mph SSE9.7 kmh SSE 17.0 mph27.4 kmh 28.98 in981.4 mb 0.00 in0.0 mm 0.00 in0.0 mm 0.00 in0.0 mm
03:58 AM 38.8°F3.8°C 25.7°F-3.5°C 59% 9.8 mph SSE15.8 kmh SSE 17.0 mph27.4 kmh 28.98 in981.4 mb 0.00 in0.0 mm 0.00 in0.0 mm 0.00 in0.0 mm
03:57 AM 38.8°F3.8°C 25.7°F-3.5°C 59% 8.3 mph SSE13.4 kmh SSE 17.0 mph27.4 kmh 28.98 in981.4 mb 0.00 in0.0 mm 0.00 in0.0 mm 0.00 in0.0 mm
03:56 AM 38.8°F3.8°C 25.7°F-3.5°C 59% 9.4 mph SSE15.1 kmh SSE 13.9 mph22.4 kmh 28.98 in981.4 mb 0.00 in0.0 mm 0.00 in0.0 mm 0.00 in0.0 mm
03:55 AM 38.8°F3.8°C 25.7°F-3.5°C 59% 5.8 mph SSE9.3 kmh SSE 13.9 mph22.4 kmh 28.98 in981.4 mb 0.00 in0.0 mm 0.00 in0.0 mm 0.00 in0.0 mm
03:54 AM 38.8°F3.8°C 25.7°F-3.5°C 59% 8.5 mph SSE13.7 kmh SSE 13.9 mph22.4 kmh 28.98 in981.4 mb 0.00 in0.0 mm 0.00 in0.0 mm 0.00 in0.0 mm
03:53 AM 38.8°F3.8°C 25.7°F-3.5°C 59% 9.4 mph SSE15.1 kmh SSE 13.9 mph22.4 kmh 28.98 in981.4 mb 0.00 in0.0 mm 0.00 in0.0 mm 0.00 in0.0 mm
03:52 AM 38.8°F3.8°C 25.7°F-3.5°C 59% 2.7 mph SSE4.3 kmh SSE 13.9 mph22.4 kmh 28.98 in981.4 mb 0.00 in0.0 mm 0.00 in0.0 mm 0.00 in0.0 mm
03:51 AM 38.8°F3.8°C 25.7°F-3.5°C 59% 13.9 mph SSE22.4 kmh SSE 13.9 mph22.4 kmh 28.98 in981.4 mb 0.00 in0.0 mm 0.00 in0.0 mm 0.00 in0.0 mm
03:50 AM 38.8°F3.8°C 25.7°F-3.5°C 59% 5.8 mph SSE9.3 kmh SSE 13.2 mph21.2 kmh 28.97 in981.0 mb 0.00 in0.0 mm 0.00 in0.0 mm 0.00 in0.0 mm
03:49 AM 38.8°F3.8°C 25.7°F-3.5°C 59% 6.5 mph SSE10.5 kmh SSE 13.2 mph21.2 kmh 28.97 in981.0 mb 0.00 in0.0 mm 0.00 in0.0 mm 0.00 in0.0 mm
03:48 AM 38.7°F3.7°C 25.5°F-3.6°C 59% 10.1 mph SSE16.3 kmh SSE 13.2 mph21.2 kmh 28.98 in981.4 mb 0.00 in0.0 mm 0.00 in0.0 mm 0.00 in0.0 mm
03:47 AM 38.7°F3.7°C 25.5°F-3.6°C 59% 9.2 mph SSE14.8 kmh SSE 13.2 mph21.2 kmh 28.98 in981.4 mb 0.00 in0.0 mm 0.00 in0.0 mm 0.00 in0.0 mm
03:46 AM 38.7°F3.7°C 25.5°F-3.6°C 59% 8.3 mph SSE13.4 kmh SSE 13.2 mph21.2 kmh 28.98 in981.4 mb 0.00 in0.0 mm 0.00 in0.0 mm 0.00 in0.0 mm
03:45 AM 38.5°F3.6°C 25.3°F-3.7°C 59% 7.4 mph SSE11.9 kmh SSE 13.0 mph20.9 kmh 28.98 in981.4 mb 0.00 in0.0 mm 0.00 in0.0 mm 0.00 in0.0 mm
03:44 AM 38.5°F3.6°C 25.3°F-3.7°C 59% 6.9 mph SSE11.1 kmh SSE 13.0 mph20.9 kmh 28.97 in981.0 mb 0.00 in0.0 mm 0.00 in0.0 mm 0.00 in0.0 mm
03:43 AM 38.5°F3.6°C 25.3°F-3.7°C 59% 6.3 mph SSE10.1 kmh SSE 13.0 mph20.9 kmh 28.98 in981.4 mb 0.00 in0.0 mm 0.00 in0.0 mm 0.00 in0.0 mm
03:42 AM 38.5°F3.6°C 25.3°F-3.7°C 59% 11.6 mph SSE18.7 kmh SSE 13.0 mph20.9 kmh 28.98 in981.4 mb 0.00 in0.0 mm 0.00 in0.0 mm 0.00 in0.0 mm
03:41 AM 38.5°F3.6°C 25.3°F-3.7°C 59% 6.5 mph SSE10.5 kmh SSE 13.0 mph20.9 kmh 28.98 in981.4 mb 0.00 in0.0 mm 0.00 in0.0 mm 0.00 in0.0 mm
03:40 AM 38.5°F3.6°C 25.3°F-3.7°C 59% 5.6 mph SSE9.0 kmh SSE 9.8 mph15.8 kmh 28.98 in981.4 mb 0.00 in0.0 mm 0.00 in0.0 mm 0.00 in0.0 mm
03:39 AM 38.7°F3.7°C 25.5°F-3.6°C 59% 5.8 mph SSE9.3 kmh SSE 9.8 mph15.8 kmh 28.98 in981.4 mb 0.00 in0.0 mm 0.00 in0.0 mm 0.00 in0.0 mm
03:38 AM 38.7°F3.7°C 25.5°F-3.6°C 59% Calm Calm 9.8 mph15.8 kmh 28.98 in981.4 mb 0.00 in0.0 mm 0.00 in0.0 mm 0.00 in0.0 mm
03:37 AM 38.7°F3.7°C 25.5°F-3.6°C 59% 3.6 mph SSE5.8 kmh SSE 9.8 mph15.8 kmh 28.98 in981.4 mb 0.00 in0.0 mm 0.00 in0.0 mm 0.00 in0.0 mm
03:36 AM 38.7°F3.7°C 25.5°F-3.6°C 59% 4.7 mph SSE7.6 kmh SSE 14.3 mph23.0 kmh 28.98 in981.4 mb 0.00 in0.0 mm 0.00 in0.0 mm 0.00 in0.0 mm
03:35 AM 38.5°F3.6°C 25.3°F-3.7°C 59% 4.9 mph SSE7.9 kmh SSE 14.3 mph23.0 kmh 28.98 in981.4 mb 0.00 in0.0 mm 0.00 in0.0 mm 0.00 in0.0 mm
03:34 AM 38.5°F3.6°C 25.3°F-3.7°C 59% 3.6 mph S5.8 kmh S 14.3 mph23.0 kmh 28.98 in981.4 mb 0.00 in0.0 mm 0.00 in0.0 mm 0.00 in0.0 mm
03:33 AM 38.5°F3.6°C 25.3°F-3.7°C 59% 6.9 mph S11.1 kmh S 14.3 mph23.0 kmh 28.98 in981.4 mb 0.00 in0.0 mm 0.00 in0.0 mm 0.00 in0.0 mm
03:32 AM 38.5°F3.6°C 25.3°F-3.7°C 59% 4.9 mph S7.9 kmh S 14.3 mph23.0 kmh 28.98 in981.4 mb 0.00 in0.0 mm 0.00 in0.0 mm 0.00 in0.0 mm
03:31 AM 38.5°F3.6°C 25.3°F-3.7°C 59% 8.5 mph S13.7 kmh S 14.3 mph23.0 kmh 28.97 in981.0 mb 0.00 in0.0 mm 0.00 in0.0 mm 0.00 in0.0 mm
03:30 AM 38.5°F3.6°C 25.3°F-3.7°C 59% 5.4 mph S8.7 kmh S 14.3 mph23.0 kmh 28.97 in981.0 mb 0.00 in0.0 mm 0.00 in0.0 mm 0.00 in0.0 mm
03:29 AM 38.5°F3.6°C 25.3°F-3.7°C 59% 6.9 mph S11.1 kmh S 14.3 mph23.0 kmh 28.97 in981.0 mb 0.00 in0.0 mm 0.00 in0.0 mm 0.00 in0.0 mm
03:28 AM 38.5°F3.6°C 25.3°F-3.7°C 59% 6.3 mph S10.1 kmh S 14.3 mph23.0 kmh 28.97 in981.0 mb 0.00 in0.0 mm 0.00 in0.0 mm 0.00 in0.0 mm
03:27 AM 38.5°F3.6°C 25.3°F-3.7°C 59% 6.0 mph S9.7 kmh S 14.3 mph23.0 kmh 28.97 in981.0 mb 0.00 in0.0 mm 0.00 in0.0 mm 0.00 in0.0 mm
03:26 AM 38.5°F3.6°C 25.3°F-3.7°C 59% 12.1 mph S19.5 kmh S 12.8 mph20.6 kmh 28.97 in981.0 mb 0.00 in0.0 mm 0.00 in0.0 mm 0.00 in0.0 mm
03:25 AM 38.5°F3.6°C 25.3°F-3.7°C 59% 3.6 mph S5.8 kmh S 12.8 mph20.6 kmh 28.97 in981.0 mb 0.00 in0.0 mm 0.00 in0.0 mm 0.00 in0.0 mm
03:24 AM 38.5°F3.6°C 25.3°F-3.7°C 59% 11.2 mph S18.0 kmh S 12.8 mph20.6 kmh 28.97 in981.0 mb 0.00 in0.0 mm 0.00 in0.0 mm 0.00 in0.0 mm
03:23 AM 38.5°F3.6°C 25.3°F-3.7°C 59% 8.7 mph S14.0 kmh S 11.9 mph19.2 kmh 28.97 in981.0 mb 0.00 in0.0 mm 0.00 in0.0 mm 0.00 in0.0 mm
03:22 AM 38.5°F3.6°C 25.3°F-3.7°C 59% 4.3 mph S6.9 kmh S 15.2 mph24.5 kmh 28.97 in981.0 mb 0.00 in0.0 mm 0.00 in0.0 mm 0.00 in0.0 mm
03:21 AM 38.5°F3.6°C 25.3°F-3.7°C 59% 5.6 mph S9.0 kmh S 15.2 mph24.5 kmh 28.97 in981.0 mb 0.00 in0.0 mm 0.00 in0.0 mm 0.00 in0.0 mm
03:20 AM 38.5°F3.6°C 25.3°F-3.7°C 59% 10.5 mph S16.9 kmh S 15.2 mph24.5 kmh 28.97 in981.0 mb 0.00 in0.0 mm 0.00 in0.0 mm 0.00 in0.0 mm
03:19 AM 38.5°F3.6°C 25.3°F-3.7°C 59% 8.9 mph S14.3 kmh S 15.2 mph24.5 kmh 28.97 in981.0 mb 0.00 in0.0 mm 0.00 in0.0 mm 0.00 in0.0 mm
03:18 AM 38.5°F3.6°C 25.3°F-3.7°C 59% 7.8 mph S12.6 kmh S 15.2 mph24.5 kmh 28.97 in981.0 mb 0.00 in0.0 mm 0.00 in0.0 mm 0.00 in0.0 mm
03:17 AM 38.5°F3.6°C 25.3°F-3.7°C 59% 7.6 mph S12.2 kmh S 15.2 mph24.5 kmh 28.97 in981.0 mb 0.00 in0.0 mm 0.00 in0.0 mm 0.00 in0.0 mm
03:16 AM 38.5°F3.6°C 25.3°F-3.7°C 59% 9.4 mph S15.1 kmh S 15.2 mph24.5 kmh 28.97 in981.0 mb 0.00 in0.0 mm 0.00 in0.0 mm 0.00 in0.0 mm
03:15 AM 38.5°F3.6°C 25.3°F-3.7°C 59% 7.6 mph S12.2 kmh S 15.2 mph24.5 kmh 28.97 in981.0 mb 0.00 in0.0 mm 0.00 in0.0 mm 0.00 in0.0 mm
03:14 AM 38.3°F3.5°C 25.2°F-3.8°C 59% 11.2 mph S18.0 kmh S 15.2 mph24.5 kmh 28.97 in981.0 mb 0.00 in0.0 mm 0.00 in0.0 mm 0.00 in0.0 mm
03:13 AM 38.3°F3.5°C 25.2°F-3.8°C 59% 9.6 mph S15.4 kmh S 15.2 mph24.5 kmh 28.97 in981.0 mb 0.00 in0.0 mm 0.00 in0.0 mm 0.00 in0.0 mm
03:12 AM 38.3°F3.5°C 24.7°F-4.1°C 58% 9.8 mph S15.8 kmh S 14.3 mph23.0 kmh 28.98 in981.4 mb 0.00 in0.0 mm 0.00 in0.0 mm 0.00 in0.0 mm
03:11 AM 38.1°F3.4°C 24.6°F-4.1°C 58% 8.3 mph S13.4 kmh S 14.3 mph23.0 kmh 28.97 in981.0 mb 0.00 in0.0 mm 0.00 in0.0 mm 0.00 in0.0 mm
03:10 AM 38.3°F3.5°C 24.7°F-4.1°C 58% 8.7 mph S14.0 kmh S 14.3 mph23.0 kmh 28.97 in981.0 mb 0.00 in0.0 mm 0.00 in0.0 mm 0.00 in0.0 mm
03:09 AM 38.1°F3.4°C 24.6°F-4.1°C 58% 8.1 mph S13.0 kmh S 14.3 mph23.0 kmh 28.98 in981.4 mb 0.00 in0.0 mm 0.00 in0.0 mm 0.00 in0.0 mm
03:08 AM 38.1°F3.4°C 24.6°F-4.1°C 58% 8.1 mph S13.0 kmh S 14.3 mph23.0 kmh 28.98 in981.4 mb 0.00 in0.0 mm 0.00 in0.0 mm 0.00 in0.0 mm
03:07 AM 38.1°F3.4°C 24.6°F-4.1°C 58% 8.9 mph S14.3 kmh S 14.3 mph23.0 kmh 28.98 in981.4 mb 0.00 in0.0 mm 0.00 in0.0 mm 0.00 in0.0 mm
03:06 AM 38.1°F3.4°C 24.6°F-4.1°C 58% 10.1 mph S16.3 kmh S 14.3 mph23.0 kmh 28.98 in981.4 mb 0.00 in0.0 mm 0.00 in0.0 mm 0.00 in0.0 mm
03:05 AM 38.1°F3.4°C 24.6°F-4.1°C 58% 10.3 mph S16.6 kmh S 14.3 mph23.0 kmh 28.98 in981.4 mb 0.00 in0.0 mm 0.00 in0.0 mm 0.00 in0.0 mm
03:04 AM 38.1°F3.4°C 24.6°F-4.1°C 58% 12.3 mph S19.8 kmh S 12.3 mph19.8 kmh 28.98 in981.4 mb 0.00 in0.0 mm 0.00 in0.0 mm 0.00 in0.0 mm
03:03 AM 38.1°F3.4°C 24.6°F-4.1°C 58% 4.3 mph S6.9 kmh S 10.1 mph16.3 kmh 28.99 in981.7 mb 0.00 in0.0 mm 0.00 in0.0 mm 0.00 in0.0 mm
03:02 AM 38.1°F3.4°C 24.6°F-4.1°C 58% 9.4 mph S15.1 kmh S 10.1 mph16.3 kmh 28.99 in981.7 mb 0.00 in0.0 mm 0.00 in0.0 mm 0.00 in0.0 mm
03:01 AM 38.1°F3.4°C 24.6°F-4.1°C 58% 6.0 mph S9.7 kmh S 12.1 mph19.5 kmh 28.99 in981.7 mb 0.00 in0.0 mm 0.00 in0.0 mm 0.00 in0.0 mm
03:00 AM 38.1°F3.4°C 24.6°F-4.1°C 58% 5.6 mph S9.0 kmh S 12.1 mph19.5 kmh 28.99 in981.7 mb 0.00 in0.0 mm 0.00 in0.0 mm 0.00 in0.0 mm
02:59 AM 38.1°F3.4°C 24.6°F-4.1°C 58% 4.5 mph S7.2 kmh S 12.1 mph19.5 kmh 28.99 in981.7 mb 0.00 in0.0 mm 0.00 in0.0 mm 0.00 in0.0 mm
02:58 AM 38.1°F3.4°C 24.6°F-4.1°C 58% 2.7 mph S4.3 kmh S 12.1 mph19.5 kmh 28.99 in981.7 mb 0.00 in0.0 mm 0.00 in0.0 mm 0.00 in0.0 mm
02:57 AM 38.1°F3.4°C 24.6°F-4.1°C 58% 4.7 mph S7.6 kmh S 12.1 mph19.5 kmh 28.99 in981.7 mb 0.00 in0.0 mm 0.00 in0.0 mm 0.00 in0.0 mm
02:56 AM 38.1°F3.4°C 24.6°F-4.1°C 58% 8.3 mph S13.4 kmh S 12.5 mph20.1 kmh 28.99 in981.7 mb 0.00 in0.0 mm 0.00 in0.0 mm 0.00 in0.0 mm
02:55 AM 38.1°F3.4°C 24.6°F-4.1°C 58% 7.8 mph S12.6 kmh S 12.5 mph20.1 kmh 28.99 in981.7 mb 0.00 in0.0 mm 0.00 in0.0 mm 0.00 in0.0 mm
02:54 AM 38.1°F3.4°C 24.6°F-4.1°C 58% 10.1 mph S16.3 kmh S 12.5 mph20.1 kmh 28.99 in981.7 mb 0.00 in0.0 mm 0.00 in0.0 mm 0.00 in0.0 mm
02:53 AM 38.1°F3.4°C 24.6°F-4.1°C 58% 5.4 mph S8.7 kmh S 12.5 mph20.1 kmh 28.99 in981.7 mb 0.00 in0.0 mm 0.00 in0.0 mm 0.00 in0.0 mm
02:52 AM 38.1°F3.4°C 24.6°F-4.1°C 58% 7.4 mph S11.9 kmh S 12.5 mph20.1 kmh 28.99 in981.7 mb 0.00 in0.0 mm 0.00 in0.0 mm 0.00 in0.0 mm
02:51 AM 38.1°F3.4°C 24.6°F-4.1°C 58% 8.9 mph S14.3 kmh S 12.5 mph20.1 kmh 28.99 in981.7 mb 0.00 in0.0 mm 0.00 in0.0 mm 0.00 in0.0 mm
02:50 AM 38.1°F3.4°C 24.6°F-4.1°C 58% 7.4 mph S11.9 kmh S 12.5 mph20.1 kmh 28.99 in981.7 mb 0.00 in0.0 mm 0.00 in0.0 mm 0.00 in0.0 mm
02:49 AM 38.1°F3.4°C 24.6°F-4.1°C 58% 5.8 mph S9.3 kmh S 12.5 mph20.1 kmh 28.99 in981.7 mb 0.00 in0.0 mm 0.00 in0.0 mm 0.00 in0.0 mm
02:48 AM 38.1°F3.4°C 24.6°F-4.1°C 58% 8.7 mph S14.0 kmh S 12.5 mph20.1 kmh 28.99 in981.7 mb 0.00 in0.0 mm 0.00 in0.0 mm 0.00 in0.0 mm
02:47 AM 38.1°F3.4°C 24.6°F-4.1°C 58% 7.6 mph S12.2 kmh S 12.5 mph20.1 kmh 28.99 in981.7 mb 0.00 in0.0 mm 0.00 in0.0 mm 0.00 in0.0 mm
02:46 AM 38.1°F3.4°C 24.6°F-4.1°C 58% 7.2 mph S11.6 kmh S 11.2 mph18.0 kmh 28.99 in981.7 mb 0.00 in0.0 mm 0.00 in0.0 mm 0.00 in0.0 mm
02:45 AM 38.1°F3.4°C 24.6°F-4.1°C 58% 7.2 mph S11.6 kmh S 11.2 mph18.0 kmh 28.99 in981.7 mb 0.00 in0.0 mm 0.00 in0.0 mm 0.00 in0.0 mm
02:44 AM 38.1°F3.4°C 24.6°F-4.1°C 58% 8.7 mph S14.0 kmh S 11.2 mph18.0 kmh 28.99 in981.7 mb 0.00 in0.0 mm 0.00 in0.0 mm 0.00 in0.0 mm
02:43 AM 38.1°F3.4°C 24.6°F-4.1°C 58% 5.4 mph S8.7 kmh S 11.2 mph18.0 kmh 28.99 in981.7 mb 0.00 in0.0 mm 0.00 in0.0 mm 0.00 in0.0 mm
02:42 AM 38.1°F3.4°C 24.6°F-4.1°C 58% 6.0 mph S9.7 kmh S 11.2 mph18.0 kmh 29.00 in982.1 mb 0.00 in0.0 mm 0.00 in0.0 mm 0.00 in0.0 mm
02:41 AM 38.1°F3.4°C 24.6°F-4.1°C 58% 8.5 mph S13.7 kmh S 11.2 mph18.0 kmh 29.00 in982.1 mb 0.00 in0.0 mm 0.00 in0.0 mm 0.00 in0.0 mm
02:40 AM 38.1°F3.4°C 24.6°F-4.1°C 58% 5.4 mph S8.7 kmh S 11.4 mph18.3 kmh 29.00 in982.1 mb 0.00 in0.0 mm 0.00 in0.0 mm 0.00 in0.0 mm
02:39 AM 38.1°F3.4°C 24.6°F-4.1°C 58% 8.7 mph S14.0 kmh S 11.4 mph18.3 kmh 29.00 in982.1 mb 0.00 in0.0 mm 0.00 in0.0 mm 0.00 in0.0 mm
02:38 AM 38.1°F3.4°C 24.6°F-4.1°C 58% 10.3 mph S16.6 kmh S 11.4 mph18.3 kmh 29.00 in982.1 mb 0.00 in0.0 mm 0.00 in0.0 mm 0.00 in0.0 mm
02:37 AM 38.1°F3.4°C 24.6°F-4.1°C 58% 9.2 mph S14.8 kmh S 11.4 mph18.3 kmh 29.00 in982.1 mb 0.00 in0.0 mm 0.00 in0.0 mm 0.00 in0.0 mm
02:36 AM 38.1°F3.4°C 24.6°F-4.1°C 58% 10.1 mph S16.3 kmh S 11.4 mph18.3 kmh 29.00 in982.1 mb 0.00 in0.0 mm 0.00 in0.0 mm 0.00 in0.0 mm
02:35 AM 38.1°F3.4°C 24.6°F-4.1°C 58% 8.3 mph S13.4 kmh S 11.4 mph18.3 kmh 29.00 in982.1 mb 0.00 in0.0 mm 0.00 in0.0 mm 0.00 in0.0 mm
02:34 AM 38.1°F3.4°C 24.6°F-4.1°C 58% 6.5 mph S10.5 kmh S 11.4 mph18.3 kmh 29.00 in982.1 mb 0.00 in0.0 mm 0.00 in0.0 mm 0.00 in0.0 mm
02:33 AM 38.1°F3.4°C 24.6°F-4.1°C 58% 5.1 mph S8.2 kmh S 14.1 mph22.7 kmh 29.00 in982.1 mb 0.00 in0.0 mm 0.00 in0.0 mm 0.00 in0.0 mm
02:32 AM 38.1°F3.4°C 24.6°F-4.1°C 58% 7.8 mph S12.6 kmh S 14.1 mph22.7 kmh 29.00 in982.1 mb 0.00 in0.0 mm 0.00 in0.0 mm 0.00 in0.0 mm
02:31 AM 38.1°F3.4°C 24.6°F-4.1°C 58% 9.2 mph S14.8 kmh S 14.1 mph22.7 kmh 29.00 in982.1 mb 0.00 in0.0 mm 0.00 in0.0 mm 0.00 in0.0 mm
02:30 AM 38.1°F3.4°C 24.6°F-4.1°C 58% 6.9 mph S11.1 kmh S 14.1 mph22.7 kmh 29.00 in982.1 mb 0.00 in0.0 mm 0.00 in0.0 mm 0.00 in0.0 mm
02:29 AM 38.1°F3.4°C 24.6°F-4.1°C 58% 7.2 mph S11.6 kmh S 14.1 mph22.7 kmh 29.00 in982.1 mb 0.00 in0.0 mm 0.00 in0.0 mm 0.00 in0.0 mm
02:28 AM 38.1°F3.4°C 24.6°F-4.1°C 58% 8.3 mph S13.4 kmh S 14.1 mph22.7 kmh 29.00 in982.1 mb 0.00 in0.0 mm 0.00 in0.0 mm 0.00 in0.0 mm
02:27 AM 38.1°F3.4°C 24.6°F-4.1°C 58% 5.8 mph S9.3 kmh S 14.1 mph22.7 kmh 29.00 in982.1 mb 0.00 in0.0 mm 0.00 in0.0 mm 0.00 in0.0 mm
02:26 AM 38.1°F3.4°C 24.6°F-4.1°C 58% 6.5 mph S10.5 kmh S 14.1 mph22.7 kmh 29.00 in982.1 mb 0.00 in0.0 mm 0.00 in0.0 mm 0.00 in0.0 mm
02:25 AM 38.1°F3.4°C 24.6°F-4.1°C 58% 7.4 mph S11.9 kmh S 14.1 mph22.7 kmh 29.01 in982.4 mb 0.00 in0.0 mm 0.00 in0.0 mm 0.00 in0.0 mm
02:24 AM 38.1°F3.4°C 24.6°F-4.1°C 58% 9.2 mph S14.8 kmh S 14.1 mph22.7 kmh 29.01 in982.4 mb 0.00 in0.0 mm 0.00 in0.0 mm 0.00 in0.0 mm
02:23 AM 38.1°F3.4°C 24.6°F-4.1°C 58% 14.1 mph S22.7 kmh S 14.1 mph22.7 kmh 29.01 in982.4 mb 0.00 in0.0 mm 0.00 in0.0 mm 0.00 in0.0 mm
02:22 AM 38.1°F3.4°C 24.6°F-4.1°C 58% 6.9 mph S11.1 kmh S 11.4 mph18.3 kmh 29.00 in982.1 mb 0.00 in0.0 mm 0.00 in0.0 mm 0.00 in0.0 mm
02:21 AM 38.1°F3.4°C 24.6°F-4.1°C 58% 6.7 mph S10.8 kmh S 11.4 mph18.3 kmh 29.00 in982.1 mb 0.00 in0.0 mm 0.00 in0.0 mm 0.00 in0.0 mm
02:20 AM 38.1°F3.4°C 24.6°F-4.1°C 58% 8.3 mph S13.4 kmh S 11.4 mph18.3 kmh 29.01 in982.4 mb 0.00 in0.0 mm 0.00 in0.0 mm 0.00 in0.0 mm
02:19 AM 38.1°F3.4°C 24.6°F-4.1°C 58% 9.8 mph S15.8 kmh S 11.4 mph18.3 kmh 29.01 in982.4 mb 0.00 in0.0 mm 0.00 in0.0 mm 0.00 in0.0 mm
02:18 AM 38.1°F3.4°C 24.6°F-4.1°C 58% 6.7 mph S10.8 kmh S 11.4 mph18.3 kmh 29.01 in982.4 mb 0.00 in0.0 mm 0.00 in0.0 mm 0.00 in0.0 mm
02:17 AM 38.1°F3.4°C 24.6°F-4.1°C 58% 6.9 mph S11.1 kmh S 11.4 mph18.3 kmh 29.01 in982.4 mb 0.00 in0.0 mm 0.00 in0.0 mm 0.00 in0.0 mm
02:16 AM 38.1°F3.4°C 24.6°F-4.1°C 58% 6.9 mph S11.1 kmh S 11.4 mph18.3 kmh 29.01 in982.4 mb 0.00 in0.0 mm 0.00 in0.0 mm 0.00 in0.0 mm
02:15 AM 38.1°F3.4°C 24.6°F-4.1°C 58% 6.0 mph S9.7 kmh S 11.4 mph18.3 kmh 29.01 in982.4 mb 0.00 in0.0 mm 0.00 in0.0 mm 0.00 in0.0 mm
02:14 AM 38.1°F3.4°C 24.6°F-4.1°C 58% 7.6 mph S12.2 kmh S 13.0 mph20.9 kmh 29.01 in982.4 mb 0.00 in0.0 mm 0.00 in0.0 mm 0.00 in0.0 mm
02:13 AM 38.1°F3.4°C 24.6°F-4.1°C 58% 6.3 mph S10.1 kmh S 14.1 mph22.7 kmh 29.01 in982.4 mb 0.00 in0.0 mm 0.00 in0.0 mm 0.00 in0.0 mm
02:12 AM 38.1°F3.4°C 24.6°F-4.1°C 58% 8.1 mph S13.0 kmh S 14.1 mph22.7 kmh 29.01 in982.4 mb 0.00 in0.0 mm 0.00 in0.0 mm 0.00 in0.0 mm
02:11 AM 38.1°F3.4°C 24.6°F-4.1°C 58% 5.4 mph S8.7 kmh S 14.1 mph22.7 kmh 29.01 in982.4 mb 0.00 in0.0 mm 0.00 in0.0 mm 0.00 in0.0 mm
02:10 AM 38.1°F3.4°C 24.6°F-4.1°C 58% 8.1 mph S13.0 kmh S 14.3 mph23.0 kmh 29.01 in982.4 mb 0.00 in0.0 mm 0.00 in0.0 mm 0.00 in0.0 mm
02:09 AM 38.1°F3.4°C 24.6°F-4.1°C 58% 6.7 mph S10.8 kmh S 14.3 mph23.0 kmh 29.01 in982.4 mb 0.00 in0.0 mm 0.00 in0.0 mm 0.00 in0.0 mm
02:08 AM 38.1°F3.4°C 24.6°F-4.1°C 58% 6.9 mph S11.1 kmh S 14.3 mph23.0 kmh 29.01 in982.4 mb 0.00 in0.0 mm 0.00 in0.0 mm 0.00 in0.0 mm
02:07 AM 38.1°F3.4°C 24.6°F-4.1°C 58% 8.3 mph S13.4 kmh S 14.3 mph23.0 kmh 29.01 in982.4 mb 0.00 in0.0 mm 0.00 in0.0 mm 0.00 in0.0 mm
02:06 AM 38.1°F3.4°C 24.6°F-4.1°C 58% 9.4 mph S15.1 kmh S 14.3 mph23.0 kmh 29.01 in982.4 mb 0.00 in0.0 mm 0.00 in0.0 mm 0.00 in0.0 mm
02:05 AM 38.1°F3.4°C 24.6°F-4.1°C 58% 5.4 mph S8.7 kmh S 14.3 mph23.0 kmh 29.01 in982.4 mb 0.00 in0.0 mm 0.00 in0.0 mm 0.00 in0.0 mm
02:04 AM 38.1°F3.4°C 24.6°F-4.1°C 58% 12.3 mph S19.8 kmh S 14.3 mph23.0 kmh 29.01 in982.4 mb 0.00 in0.0 mm 0.00 in0.0 mm 0.00 in0.0 mm
02:03 AM 38.1°F3.4°C 24.6°F-4.1°C 58% 6.5 mph S10.5 kmh S 14.3 mph23.0 kmh 29.01 in982.4 mb 0.00 in0.0 mm 0.00 in0.0 mm 0.00 in0.0 mm
02:02 AM 38.1°F3.4°C 24.6°F-4.1°C 58% 9.8 mph S15.8 kmh S 14.3 mph23.0 kmh 29.01 in982.4 mb 0.00 in0.0 mm 0.00 in0.0 mm 0.00 in0.0 mm
02:01 AM 38.1°F3.4°C 24.6°F-4.1°C 58% 14.3 mph S23.0 kmh S 14.3 mph23.0 kmh 29.01 in982.4 mb 0.00 in0.0 mm 0.00 in0.0 mm 0.00 in0.0 mm
02:00 AM 38.1°F3.4°C 24.6°F-4.1°C 58% 8.7 mph S14.0 kmh S 14.3 mph23.0 kmh 29.01 in982.4 mb 0.00 in0.0 mm 0.00 in0.0 mm 0.00 in0.0 mm
01:59 AM 38.1°F3.4°C 24.6°F-4.1°C 58% 10.3 mph S16.6 kmh S 14.3 mph23.0 kmh 29.01 in982.4 mb 0.00 in0.0 mm 0.00 in0.0 mm 0.00 in0.0 mm
01:58 AM 38.3°F3.5°C 24.7°F-4.1°C 58% 10.3 mph S16.6 kmh S 13.2 mph21.2 kmh 29.01 in982.4 mb 0.00 in0.0 mm 0.00 in0.0 mm 0.00 in0.0 mm
01:57 AM 38.1°F3.4°C 24.6°F-4.1°C 58% 7.2 mph S11.6 kmh S 13.2 mph21.2 kmh 29.01 in982.4 mb 0.00 in0.0 mm 0.00 in0.0 mm 0.00 in0.0 mm
01:56 AM 38.3°F3.5°C 24.7°F-4.1°C 58% 5.4 mph S8.7 kmh S 13.4 mph21.6 kmh 29.02 in982.7 mb 0.00 in0.0 mm 0.00 in0.0 mm 0.00 in0.0 mm
01:55 AM 38.1°F3.4°C 24.6°F-4.1°C 58% 9.6 mph S15.4 kmh S 13.4 mph21.6 kmh 29.01 in982.4 mb 0.00 in0.0 mm 0.00 in0.0 mm 0.00 in0.0 mm
01:54 AM 38.3°F3.5°C 24.7°F-4.1°C 58% 11.2 mph S18.0 kmh S 13.4 mph21.6 kmh 29.01 in982.4 mb 0.00 in0.0 mm 0.00 in0.0 mm 0.00 in0.0 mm
01:53 AM 38.1°F3.4°C 24.6°F-4.1°C 58% 7.6 mph S12.2 kmh S 13.4 mph21.6 kmh 29.02 in982.7 mb 0.00 in0.0 mm 0.00 in0.0 mm 0.00 in0.0 mm
01:52 AM 38.1°F3.4°C 24.2°F-4.3°C 57% 9.4 mph S15.1 kmh S 13.4 mph21.6 kmh 29.02 in982.7 mb 0.00 in0.0 mm 0.00 in0.0 mm 0.00 in0.0 mm
01:51 AM 38.3°F3.5°C 24.7°F-4.1°C 58% 8.5 mph S13.7 kmh S 13.4 mph21.6 kmh 29.01 in982.4 mb 0.00 in0.0 mm 0.00 in0.0 mm 0.00 in0.0 mm
01:50 AM 38.3°F3.5°C 24.3°F-4.3°C 57% 10.3 mph S16.6 kmh S 13.4 mph21.6 kmh 29.01 in982.4 mb 0.00 in0.0 mm 0.00 in0.0 mm 0.00 in0.0 mm
01:49 AM 38.3°F3.5°C 24.7°F-4.1°C 58% 9.8 mph S15.8 kmh S 13.4 mph21.6 kmh 29.01 in982.4 mb 0.00 in0.0 mm 0.00 in0.0 mm 0.00 in0.0 mm
01:48 AM 38.3°F3.5°C 24.3°F-4.3°C 57% 8.3 mph S13.4 kmh S 13.4 mph21.6 kmh 29.02 in982.7 mb 0.00 in0.0 mm 0.00 in0.0 mm 0.00 in0.0 mm
01:47 AM 38.3°F3.5°C 24.7°F-4.1°C 58% 10.1 mph S16.3 kmh S 13.4 mph21.6 kmh 29.01 in982.4 mb 0.00 in0.0 mm 0.00 in0.0 mm 0.00 in0.0 mm
01:46 AM 38.3°F3.5°C 24.3°F-4.3°C 57% 8.1 mph S13.0 kmh S 14.3 mph23.0 kmh 29.01 in982.4 mb 0.00 in0.0 mm 0.00 in0.0 mm 0.00 in0.0 mm
01:45 AM 38.3°F3.5°C 24.3°F-4.3°C 57% 8.3 mph S13.4 kmh S 14.3 mph23.0 kmh 29.01 in982.4 mb 0.00 in0.0 mm 0.00 in0.0 mm 0.00 in0.0 mm
01:44 AM 38.3°F3.5°C 24.3°F-4.3°C 57% 7.2 mph S11.6 kmh S 14.3 mph23.0 kmh 29.01 in982.4 mb 0.00 in0.0 mm 0.00 in0.0 mm 0.00 in0.0 mm
01:43 AM 38.3°F3.5°C 24.3°F-4.3°C 57% 11.6 mph S18.7 kmh S 14.3 mph23.0 kmh 29.01 in982.4 mb 0.00 in0.0 mm 0.00 in0.0 mm 0.00 in0.0 mm
01:42 AM 38.3°F3.5°C 24.3°F-4.3°C 57% 11.2 mph S18.0 kmh S 14.3 mph23.0 kmh 29.01 in982.4 mb 0.00 in0.0 mm 0.00 in0.0 mm 0.00 in0.0 mm
01:41 AM 38.3°F3.5°C 24.3°F-4.3°C 57% 4.7 mph S7.6 kmh S 14.3 mph23.0 kmh 29.01 in982.4 mb 0.00 in0.0 mm 0.00 in0.0 mm 0.00 in0.0 mm
01:40 AM 38.3°F3.5°C 24.3°F-4.3°C 57% 10.1 mph S16.3 kmh S 14.3 mph23.0 kmh 29.01 in982.4 mb 0.00 in0.0 mm 0.00 in0.0 mm 0.00 in0.0 mm
01:39 AM 38.3°F3.5°C 24.3°F-4.3°C 57% 6.9 mph S11.1 kmh S 14.3 mph23.0 kmh 29.01 in982.4 mb 0.00 in0.0 mm 0.00 in0.0 mm 0.00 in0.0 mm
01:38 AM 38.3°F3.5°C 24.3°F-4.3°C 57% 10.7 mph S17.2 kmh S 14.5 mph23.3 kmh 29.01 in982.4 mb 0.00 in0.0 mm 0.00 in0.0 mm 0.00 in0.0 mm
01:37 AM 38.3°F3.5°C 24.3°F-4.3°C 57% 10.5 mph S16.9 kmh S 14.5 mph23.3 kmh 29.01 in982.4 mb 0.00 in0.0 mm 0.00 in0.0 mm 0.00 in0.0 mm
01:36 AM 38.3°F3.5°C 24.3°F-4.3°C 57% 8.7 mph S14.0 kmh S 15.7 mph25.3 kmh 29.01 in982.4 mb 0.00 in0.0 mm 0.00 in0.0 mm 0.00 in0.0 mm
01:35 AM 38.3°F3.5°C 24.3°F-4.3°C 57% 9.8 mph S15.8 kmh S 15.7 mph25.3 kmh 29.01 in982.4 mb 0.00 in0.0 mm 0.00 in0.0 mm 0.00 in0.0 mm
01:34 AM 38.3°F3.5°C 24.3°F-4.3°C 57% 6.9 mph S11.1 kmh S 15.7 mph25.3 kmh 29.02 in982.7 mb 0.00 in0.0 mm 0.00 in0.0 mm 0.00 in0.0 mm
01:33 AM 38.3°F3.5°C 24.3°F-4.3°C 57% 11.0 mph S17.7 kmh S 15.7 mph25.3 kmh 29.02 in982.7 mb 0.00 in0.0 mm 0.00 in0.0 mm 0.00 in0.0 mm
01:32 AM 38.3°F3.5°C 24.3°F-4.3°C 57% 6.7 mph S10.8 kmh S 15.7 mph25.3 kmh 29.02 in982.7 mb 0.00 in0.0 mm 0.00 in0.0 mm 0.00 in0.0 mm
01:31 AM 38.3°F3.5°C 24.3°F-4.3°C 57% 8.9 mph S14.3 kmh S 15.7 mph25.3 kmh 29.02 in982.7 mb 0.00 in0.0 mm 0.00 in0.0 mm 0.00 in0.0 mm
01:30 AM 38.3°F3.5°C 24.3°F-4.3°C 57% 8.1 mph S13.0 kmh S 15.7 mph25.3 kmh 29.02 in982.7 mb 0.00 in0.0 mm 0.00 in0.0 mm 0.00 in0.0 mm
01:29 AM 38.3°F3.5°C 24.3°F-4.3°C 57% 10.7 mph S17.2 kmh S 15.7 mph25.3 kmh 29.02 in982.7 mb 0.00 in0.0 mm 0.00 in0.0 mm 0.00 in0.0 mm
01:28 AM 38.3°F3.5°C 24.3°F-4.3°C 57% 9.2 mph S14.8 kmh S 15.7 mph25.3 kmh 29.02 in982.7 mb 0.00 in0.0 mm 0.00 in0.0 mm 0.00 in0.0 mm
01:27 AM 38.5°F3.6°C 24.5°F-4.2°C 57% 15.7 mph S25.3 kmh S 15.7 mph25.3 kmh 29.02 in982.7 mb 0.00 in0.0 mm 0.00 in0.0 mm 0.00 in0.0 mm
01:26 AM 38.3°F3.5°C 24.3°F-4.3°C 57% 8.7 mph S14.0 kmh S 13.6 mph21.9 kmh 29.02 in982.7 mb 0.00 in0.0 mm 0.00 in0.0 mm 0.00 in0.0 mm
01:25 AM 38.3°F3.5°C 24.3°F-4.3°C 57% 8.7 mph S14.0 kmh S 13.6 mph21.9 kmh 29.02 in982.7 mb 0.00 in0.0 mm 0.00 in0.0 mm 0.00 in0.0 mm
01:24 AM 38.5°F3.6°C 24.5°F-4.2°C 57% 10.7 mph S17.2 kmh S 13.6 mph21.9 kmh 29.02 in982.7 mb 0.00 in0.0 mm 0.00 in0.0 mm 0.00 in0.0 mm
01:23 AM 38.5°F3.6°C 24.5°F-4.2°C 57% 13.4 mph S21.6 kmh S 13.6 mph21.9 kmh 29.02 in982.7 mb 0.00 in0.0 mm 0.00 in0.0 mm 0.00 in0.0 mm
01:22 AM 38.5°F3.6°C 24.5°F-4.2°C 57% 8.7 mph S14.0 kmh S 13.6 mph21.9 kmh 29.02 in982.7 mb 0.00 in0.0 mm 0.00 in0.0 mm 0.00 in0.0 mm
01:21 AM 38.5°F3.6°C 24.5°F-4.2°C 57% 11.0 mph S17.7 kmh S 13.6 mph21.9 kmh 29.02 in982.7 mb 0.00 in0.0 mm 0.00 in0.0 mm 0.00 in0.0 mm
01:20 AM 38.5°F3.6°C 24.5°F-4.2°C 57% 11.4 mph S18.3 kmh S 13.6 mph21.9 kmh 29.02 in982.7 mb 0.00 in0.0 mm 0.00 in0.0 mm 0.00 in0.0 mm
01:19 AM 38.5°F3.6°C 24.5°F-4.2°C 57% 8.9 mph S14.3 kmh S 13.6 mph21.9 kmh 29.02 in982.7 mb 0.00 in0.0 mm 0.00 in0.0 mm 0.00 in0.0 mm
01:18 AM 38.5°F3.6°C 24.5°F-4.2°C 57% 7.6 mph S12.2 kmh S 13.0 mph20.9 kmh 29.02 in982.7 mb 0.00 in0.0 mm 0.00 in0.0 mm 0.00 in0.0 mm
01:17 AM 38.5°F3.6°C 24.5°F-4.2°C 57% 8.3 mph S13.4 kmh S 12.1 mph19.5 kmh 29.02 in982.7 mb 0.00 in0.0 mm 0.00 in0.0 mm 0.00 in0.0 mm
01:16 AM 38.5°F3.6°C 24.5°F-4.2°C 57% 11.6 mph S18.7 kmh S 13.0 mph20.9 kmh 29.02 in982.7 mb 0.00 in0.0 mm 0.00 in0.0 mm 0.00 in0.0 mm
01:15 AM 38.5°F3.6°C 24.5°F-4.2°C 57% 6.5 mph S10.5 kmh S 13.0 mph20.9 kmh 29.03 in983.1 mb 0.00 in0.0 mm 0.00 in0.0 mm 0.00 in0.0 mm
01:14 AM 38.5°F3.6°C 24.5°F-4.2°C 57% 5.1 mph S8.2 kmh S 13.0 mph20.9 kmh 29.03 in983.1 mb 0.00 in0.0 mm 0.00 in0.0 mm 0.00 in0.0 mm
01:13 AM 38.5°F3.6°C 24.5°F-4.2°C 57% 8.3 mph S13.4 kmh S 13.0 mph20.9 kmh 29.03 in983.1 mb 0.00 in0.0 mm 0.00 in0.0 mm 0.00 in0.0 mm
01:12 AM 38.5°F3.6°C 24.5°F-4.2°C 57% 10.5 mph S16.9 kmh S 13.2 mph21.2 kmh 29.03 in983.1 mb 0.00 in0.0 mm 0.00 in0.0 mm 0.00 in0.0 mm
01:11 AM 38.5°F3.6°C 24.5°F-4.2°C 57% 6.9 mph S11.1 kmh S 13.2 mph21.2 kmh 29.03 in983.1 mb 0.00 in0.0 mm 0.00 in0.0 mm 0.00 in0.0 mm
01:10 AM 38.5°F3.6°C 24.5°F-4.2°C 57% 6.7 mph S10.8 kmh S 13.2 mph21.2 kmh 29.03 in983.1 mb 0.00 in0.0 mm 0.00 in0.0 mm 0.00 in0.0 mm
01:09 AM 38.5°F3.6°C 24.5°F-4.2°C 57% 10.1 mph S16.3 kmh S 13.2 mph21.2 kmh 29.03 in983.1 mb 0.00 in0.0 mm 0.00 in0.0 mm 0.00 in0.0 mm
01:08 AM 38.5°F3.6°C 24.5°F-4.2°C 57% 3.4 mph S5.5 kmh S 13.2 mph21.2 kmh 29.03 in983.1 mb 0.00 in0.0 mm 0.00 in0.0 mm 0.00 in0.0 mm
01:07 AM 38.5°F3.6°C 24.5°F-4.2°C 57% 11.9 mph S19.2 kmh S 13.6 mph21.9 kmh 29.03 in983.1 mb 0.00 in0.0 mm 0.00 in0.0 mm 0.00 in0.0 mm
01:06 AM 38.7°F3.7°C 24.6°F-4.1°C 57% 6.5 mph S10.5 kmh S 13.6 mph21.9 kmh 29.03 in983.1 mb 0.00 in0.0 mm 0.00 in0.0 mm 0.00 in0.0 mm
01:05 AM 38.7°F3.7°C 24.6°F-4.1°C 57% 10.5 mph S16.9 kmh S 14.3 mph23.0 kmh 29.03 in983.1 mb 0.00 in0.0 mm 0.00 in0.0 mm 0.00 in0.0 mm
01:04 AM 38.7°F3.7°C 24.6°F-4.1°C 57% 6.7 mph S10.8 kmh S 14.3 mph23.0 kmh 29.03 in983.1 mb 0.00 in0.0 mm 0.00 in0.0 mm 0.00 in0.0 mm
01:03 AM 38.8°F3.8°C 24.8°F-4.0°C 57% 12.5 mph S20.1 kmh S 14.3 mph23.0 kmh 29.03 in983.1 mb 0.00 in0.0 mm 0.00 in0.0 mm 0.00 in0.0 mm
01:02 AM 38.8°F3.8°C 24.8°F-4.0°C 57% 13.2 mph S21.2 kmh S 14.3 mph23.0 kmh 29.03 in983.1 mb 0.00 in0.0 mm 0.00 in0.0 mm 0.00 in0.0 mm
01:01 AM 38.8°F3.8°C 24.8°F-4.0°C 57% 12.8 mph S20.6 kmh S 14.3 mph23.0 kmh 29.03 in983.1 mb 0.00 in0.0 mm 0.00 in0.0 mm 0.00 in0.0 mm
01:00 AM 38.8°F3.8°C 24.8°F-4.0°C 57% 11.4 mph S18.3 kmh S 14.3 mph23.0 kmh 29.03 in983.1 mb 0.00 in0.0 mm 0.00 in0.0 mm 0.00 in0.0 mm
12:59 AM 38.8°F3.8°C 24.8°F-4.0°C 57% 10.3 mph S16.6 kmh S 14.3 mph23.0 kmh 29.03 in983.1 mb 0.00 in0.0 mm 0.00 in0.0 mm 0.00 in0.0 mm
12:58 AM 38.8°F3.8°C 24.8°F-4.0°C 57% 8.3 mph S13.4 kmh S 14.3 mph23.0 kmh 29.03 in983.1 mb 0.00 in0.0 mm 0.00 in0.0 mm 0.00 in0.0 mm
12:57 AM 38.8°F3.8°C 24.8°F-4.0°C 57% 7.6 mph S12.2 kmh S 14.3 mph23.0 kmh 29.03 in983.1 mb 0.00 in0.0 mm 0.00 in0.0 mm 0.00 in0.0 mm
12:56 AM 38.8°F3.8°C 24.8°F-4.0°C 57% 7.2 mph S11.6 kmh S 14.3 mph23.0 kmh 29.03 in983.1 mb 0.00 in0.0 mm 0.00 in0.0 mm 0.00 in0.0 mm
12:55 AM 38.8°F3.8°C 24.8°F-4.0°C 57% 14.3 mph S23.0 kmh S 14.3 mph23.0 kmh 29.03 in983.1 mb 0.00 in0.0 mm 0.00 in0.0 mm 0.00 in0.0 mm
12:54 AM 38.8°F3.8°C 24.8°F-4.0°C 57% 6.5 mph S10.5 kmh S 13.4 mph21.6 kmh 29.03 in983.1 mb 0.00 in0.0 mm 0.00 in0.0 mm 0.00 in0.0 mm
12:53 AM 38.8°F3.8°C 24.4°F-4.2°C 56% 9.6 mph S15.4 kmh S 13.4 mph21.6 kmh 29.03 in983.1 mb 0.00 in0.0 mm 0.00 in0.0 mm 0.00 in0.0 mm
12:52 AM 38.8°F3.8°C 24.4°F-4.2°C 56% 11.6 mph S18.7 kmh S 13.4 mph21.6 kmh 29.04 in983.4 mb 0.00 in0.0 mm 0.00 in0.0 mm 0.00 in0.0 mm
12:51 AM 39.0°F3.9°C 24.5°F-4.2°C 56% 9.2 mph S14.8 kmh S 13.4 mph21.6 kmh 29.04 in983.4 mb 0.00 in0.0 mm 0.00 in0.0 mm 0.00 in0.0 mm
12:50 AM 39.0°F3.9°C 24.5°F-4.2°C 56% 7.6 mph S12.2 kmh S 13.4 mph21.6 kmh 29.04 in983.4 mb 0.00 in0.0 mm 0.00 in0.0 mm 0.00 in0.0 mm
12:49 AM 39.0°F3.9°C 24.5°F-4.2°C 56% 9.8 mph S15.8 kmh S 13.4 mph21.6 kmh 29.03 in983.1 mb 0.00 in0.0 mm 0.00 in0.0 mm 0.00 in0.0 mm
12:48 AM 39.0°F3.9°C 24.5°F-4.2°C 56% 7.2 mph S11.6 kmh S 13.9 mph22.4 kmh 29.03 in983.1 mb 0.00 in0.0 mm 0.00 in0.0 mm 0.00 in0.0 mm
12:47 AM 39.0°F3.9°C 24.5°F-4.2°C 56% 9.8 mph S15.8 kmh S 13.9 mph22.4 kmh 29.03 in983.1 mb 0.00 in0.0 mm 0.00 in0.0 mm 0.00 in0.0 mm
12:46 AM 39.0°F3.9°C 24.5°F-4.2°C 56% 9.2 mph S14.8 kmh S 13.9 mph22.4 kmh 29.04 in983.4 mb 0.00 in0.0 mm 0.00 in0.0 mm 0.00 in0.0 mm
12:45 AM 39.0°F3.9°C 24.5°F-4.2°C 56% 11.6 mph S18.7 kmh S 13.9 mph22.4 kmh 29.04 in983.4 mb 0.00 in0.0 mm 0.00 in0.0 mm 0.00 in0.0 mm
12:44 AM 39.0°F3.9°C 24.5°F-4.2°C 56% 6.3 mph S10.1 kmh S 13.9 mph22.4 kmh 29.04 in983.4 mb 0.00 in0.0 mm 0.00 in0.0 mm 0.00 in0.0 mm
12:43 AM 39.0°F3.9°C 24.5°F-4.2°C 56% 11.2 mph S18.0 kmh S 15.2 mph24.5 kmh 29.04 in983.4 mb 0.00 in0.0 mm 0.00 in0.0 mm 0.00 in0.0 mm
12:42 AM 39.0°F3.9°C 24.5°F-4.2°C 56% 10.1 mph S16.3 kmh S 15.2 mph24.5 kmh 29.04 in983.4 mb 0.00 in0.0 mm 0.00 in0.0 mm 0.00 in0.0 mm
12:41 AM 39.0°F3.9°C 24.5°F-4.2°C 56% 7.2 mph S11.6 kmh S 15.2 mph24.5 kmh 29.04 in983.4 mb 0.00 in0.0 mm 0.00 in0.0 mm 0.00 in0.0 mm
12:40 AM 39.0°F3.9°C 24.5°F-4.2°C 56% 8.1 mph S13.0 kmh S 15.2 mph24.5 kmh 29.04 in983.4 mb 0.00 in0.0 mm 0.00 in0.0 mm 0.00 in0.0 mm
12:39 AM 39.0°F3.9°C 24.5°F-4.2°C 56% 13.9 mph S22.4 kmh S 15.2 mph24.5 kmh 29.04 in983.4 mb 0.00 in0.0 mm 0.00 in0.0 mm 0.00 in0.0 mm
12:38 AM 39.0°F3.9°C 24.5°F-4.2°C 56% 8.9 mph S14.3 kmh S 15.2 mph24.5 kmh 29.04 in983.4 mb 0.00 in0.0 mm 0.00 in0.0 mm 0.00 in0.0 mm
12:37 AM 39.0°F3.9°C 24.5°F-4.2°C 56% 4.9 mph S7.9 kmh S 15.2 mph24.5 kmh 29.04 in983.4 mb 0.00 in0.0 mm 0.00 in0.0 mm 0.00 in0.0 mm
12:36 AM 39.0°F3.9°C 24.5°F-4.2°C 56% 8.3 mph S13.4 kmh S 15.2 mph24.5 kmh 29.04 in983.4 mb 0.00 in0.0 mm 0.00 in0.0 mm 0.00 in0.0 mm
12:35 AM 39.0°F3.9°C 24.5°F-4.2°C 56% 8.9 mph S14.3 kmh S 15.2 mph24.5 kmh 29.04 in983.4 mb 0.00 in0.0 mm 0.00 in0.0 mm 0.00 in0.0 mm
12:34 AM 39.2°F4.0°C 24.7°F-4.1°C 56% 6.0 mph S9.7 kmh S 15.2 mph24.5 kmh 29.04 in983.4 mb 0.00 in0.0 mm 0.00 in0.0 mm 0.00 in0.0 mm
12:33 AM 39.4°F4.1°C 24.9°F-3.9°C 56% 8.3 mph S13.4 kmh S 13.4 mph21.6 kmh 29.04 in983.4 mb 0.00 in0.0 mm 0.00 in0.0 mm 0.00 in0.0 mm
12:32 AM 39.4°F4.1°C 24.9°F-3.9°C 56% 10.5 mph S16.9 kmh S 13.4 mph21.6 kmh 29.04 in983.4 mb 0.00 in0.0 mm 0.00 in0.0 mm 0.00 in0.0 mm
12:31 AM 39.4°F4.1°C 24.9°F-3.9°C 56% 7.6 mph S12.2 kmh S 13.4 mph21.6 kmh 29.04 in983.4 mb 0.00 in0.0 mm 0.00 in0.0 mm 0.00 in0.0 mm
12:30 AM 39.4°F4.1°C 24.9°F-3.9°C 56% 9.4 mph S15.1 kmh S 13.4 mph21.6 kmh 29.04 in983.4 mb 0.00 in0.0 mm 0.00 in0.0 mm 0.00 in0.0 mm
12:29 AM 39.4°F4.1°C 24.9°F-3.9°C 56% 8.3 mph S13.4 kmh S 13.4 mph21.6 kmh 29.04 in983.4 mb 0.00 in0.0 mm 0.00 in0.0 mm 0.00 in0.0 mm
12:28 AM 39.4°F4.1°C 24.9°F-3.9°C 56% 6.7 mph S10.8 kmh S 12.3 mph19.8 kmh 29.05 in983.7 mb 0.00 in0.0 mm 0.00 in0.0 mm 0.00 in0.0 mm
12:27 AM 39.4°F4.1°C 24.9°F-3.9°C 56% 6.7 mph S10.8 kmh S 12.3 mph19.8 kmh 29.05 in983.7 mb 0.00 in0.0 mm 0.00 in0.0 mm 0.00 in0.0 mm
12:26 AM 39.4°F4.1°C 24.9°F-3.9°C 56% 3.8 mph S6.1 kmh S 12.3 mph19.8 kmh 29.04 in983.4 mb 0.00 in0.0 mm 0.00 in0.0 mm 0.00 in0.0 mm
12:25 AM 39.4°F4.1°C 24.9°F-3.9°C 56% 6.5 mph S10.5 kmh S 11.6 mph18.7 kmh 29.05 in983.7 mb 0.00 in0.0 mm 0.00 in0.0 mm 0.00 in0.0 mm
12:24 AM 39.4°F4.1°C 24.9°F-3.9°C 56% 7.8 mph S12.6 kmh S 11.6 mph18.7 kmh 29.05 in983.7 mb 0.00 in0.0 mm 0.00 in0.0 mm 0.00 in0.0 mm
12:23 AM 39.4°F4.1°C 24.9°F-3.9°C 56% 6.9 mph S11.1 kmh S 11.6 mph18.7 kmh 29.05 in983.7 mb 0.00 in0.0 mm 0.00 in0.0 mm 0.00 in0.0 mm
12:22 AM 39.4°F4.1°C 24.9°F-3.9°C 56% 8.3 mph S13.4 kmh S 11.6 mph18.7 kmh 29.05 in983.7 mb 0.00 in0.0 mm 0.00 in0.0 mm 0.00 in0.0 mm
12:21 AM 39.4°F4.1°C 24.9°F-3.9°C 56% 7.6 mph S12.2 kmh S 11.6 mph18.7 kmh 29.05 in983.7 mb 0.00 in0.0 mm 0.00 in0.0 mm 0.00 in0.0 mm
12:20 AM 39.4°F4.1°C 24.9°F-3.9°C 56% 4.9 mph S7.9 kmh S 11.6 mph18.7 kmh 29.05 in983.7 mb 0.00 in0.0 mm 0.00 in0.0 mm 0.00 in0.0 mm
12:19 AM 39.4°F4.1°C 24.9°F-3.9°C 56% 7.4 mph S11.9 kmh S 10.1 mph16.3 kmh 29.04 in983.4 mb 0.00 in0.0 mm 0.00 in0.0 mm 0.00 in0.0 mm
12:18 AM 39.4°F4.1°C 24.9°F-3.9°C 56% 9.6 mph S15.4 kmh S 10.1 mph16.3 kmh 29.05 in983.7 mb 0.00 in0.0 mm 0.00 in0.0 mm 0.00 in0.0 mm
12:17 AM 39.4°F4.1°C 24.9°F-3.9°C 56% 5.6 mph S9.0 kmh S 10.1 mph16.3 kmh 29.05 in983.7 mb 0.00 in0.0 mm 0.00 in0.0 mm 0.00 in0.0 mm
12:16 AM 39.4°F4.1°C 24.9°F-3.9°C 56% 8.1 mph S13.0 kmh S 10.1 mph16.3 kmh 29.05 in983.7 mb 0.00 in0.0 mm 0.00 in0.0 mm 0.00 in0.0 mm
12:15 AM 39.6°F4.2°C 25.0°F-3.9°C 56% 6.9 mph S11.1 kmh S 10.1 mph16.3 kmh 29.05 in983.7 mb 0.00 in0.0 mm 0.00 in0.0 mm 0.00 in0.0 mm
12:14 AM 39.6°F4.2°C 25.0°F-3.9°C 56% 7.4 mph S11.9 kmh S 10.1 mph16.3 kmh 29.05 in983.7 mb 0.00 in0.0 mm 0.00 in0.0 mm 0.00 in0.0 mm
12:13 AM 39.6°F4.2°C 25.0°F-3.9°C 56% 8.3 mph S13.4 kmh S 10.1 mph16.3 kmh 29.05 in983.7 mb 0.00 in0.0 mm 0.00 in0.0 mm 0.00 in0.0 mm
12:12 AM 39.6°F4.2°C 25.0°F-3.9°C 56% 6.5 mph S10.5 kmh S 9.8 mph15.8 kmh 29.05 in983.7 mb 0.00 in0.0 mm 0.00 in0.0 mm 0.00 in0.0 mm
12:11 AM 39.6°F4.2°C 25.0°F-3.9°C 56% 4.9 mph S7.9 kmh S 9.8 mph15.8 kmh 29.05 in983.7 mb 0.00 in0.0 mm 0.00 in0.0 mm 0.00 in0.0 mm
12:10 AM 39.6°F4.2°C 25.0°F-3.9°C 56% 8.1 mph S13.0 kmh S 9.8 mph15.8 kmh 29.05 in983.7 mb 0.00 in0.0 mm 0.00 in0.0 mm 0.00 in0.0 mm
12:09 AM 39.6°F4.2°C 25.0°F-3.9°C 56% 5.8 mph S9.3 kmh S 9.8 mph15.8 kmh 29.05 in983.7 mb 0.00 in0.0 mm 0.00 in0.0 mm 0.00 in0.0 mm
12:08 AM 39.6°F4.2°C 25.0°F-3.9°C 56% 9.6 mph S15.4 kmh S 9.8 mph15.8 kmh 29.05 in983.7 mb 0.00 in0.0 mm 0.00 in0.0 mm 0.00 in0.0 mm
12:07 AM 39.7°F4.3°C 25.2°F-3.8°C 56% 6.7 mph S10.8 kmh S 9.8 mph15.8 kmh 29.05 in983.7 mb 0.00 in0.0 mm 0.00 in0.0 mm 0.00 in0.0 mm
12:06 AM 39.7°F4.3°C 25.2°F-3.8°C 56% 2.9 mph S4.7 kmh S 10.5 mph16.9 kmh 29.05 in983.7 mb 0.00 in0.0 mm 0.00 in0.0 mm 0.00 in0.0 mm
12:05 AM 39.7°F4.3°C 25.2°F-3.8°C 56% 6.3 mph S10.1 kmh S 10.5 mph16.9 kmh 29.05 in983.7 mb 0.00 in0.0 mm 0.00 in0.0 mm 0.00 in0.0 mm
12:04 AM 39.7°F4.3°C 25.2°F-3.8°C 56% 6.7 mph S10.8 kmh S 10.7 mph17.2 kmh 29.05 in983.7 mb 0.00 in0.0 mm 0.00 in0.0 mm 0.00 in0.0 mm
12:03 AM 39.7°F4.3°C 25.2°F-3.8°C 56% 3.8 mph S6.1 kmh S 10.7 mph17.2 kmh 29.05 in983.7 mb 0.00 in0.0 mm 0.00 in0.0 mm 0.00 in0.0 mm
12:02 AM 39.7°F4.3°C 25.2°F-3.8°C 56% 6.3 mph S10.1 kmh S 10.7 mph17.2 kmh 29.05 in983.7 mb 0.00 in0.0 mm 0.00 in0.0 mm 0.00 in0.0 mm
12:01 AM 39.7°F4.3°C 25.2°F-3.8°C 56% 8.7 mph S14.0 kmh S 10.7 mph17.2 kmh 29.05 in983.7 mb 0.00 in0.0 mm 0.00 in0.0 mm 0.00 in0.0 mm
12:00 AM 39.7°F4.3°C 25.2°F-3.8°C 56% 7.2 mph S11.6 kmh S 10.7 mph17.2 kmh 29.05 in983.7 mb 0.00 in0.0 mm 0.00 in0.0 mm 0.00 in0.0 mm